PWSweather.com
Personal Weather Stations
Station Observations
WHAKATANE1
Whakatane, WhakataneNZ

WhakataneWhakataneNZ

Lat: -37.960954, Lon: 176.9768

Elevation: 10

Station Type: Lacrosse

Latest ConditionsUpdated 2:53:00 PM GMT+12:12 Tuesday, Sep 16, 2014
Currently Today's Max Today's Min Today's Average
Temperature 62.2°F16.8°C 63.9°F17.7°C 43.3°F6.3°C 51.7°F10.9°C
Dew Point 52.0°F11.1°C 59.1°F15.1°C 43.1°F6.2°C 50.0°F10.0°C
Winds 7.6 mph E12.2 kmh E 14.0 mph E22.5 kmh E - 5.0 mph 8.0 kmh
Wind Gusts 9.8 mph15.8 kmh 22.1 mph35.6 kmh - -
Humidity 69% 99% 68% 95%
Pressure 29.23 in989.8 mb 29.37 in994.6 mb 29.22 in989.5 mb -
Precipitation - 0.08 in2.0 mm - -
Hour Temp Dew Point Humidity Winds Wind Gusts Pressure Precip Precip Rate Daily Precip Total
02:53 PM 62.2°F16.8°C 52.0°F11.1°C 69% 7.6 mph E12.2 kmh E 9.8 mph15.8 kmh 29.23 in989.8 mb 0.00 in0.0 mm 0.00 in/hr0.0 mm/hr 0.08 in2.0 mm
02:52 PM 62.4°F16.9°C 52.1°F11.2°C 69% 8.0 mph E12.9 kmh E 9.8 mph15.8 kmh 29.23 in989.8 mb 0.00 in0.0 mm 0.00 in/hr0.0 mm/hr 0.08 in2.0 mm
02:51 PM 62.6°F17.0°C 51.9°F11.1°C 68% 8.2 mph E13.2 kmh E 11.4 mph18.3 kmh 29.23 in989.8 mb 0.00 in0.0 mm 0.00 in/hr0.0 mm/hr 0.08 in2.0 mm
02:50 PM 62.8°F17.1°C 52.5°F11.4°C 69% 8.3 mph E13.4 kmh E 11.4 mph18.3 kmh 29.23 in989.8 mb 0.00 in0.0 mm 0.00 in/hr0.0 mm/hr 0.08 in2.0 mm
02:49 PM 62.8°F17.1°C 52.5°F11.4°C 69% 8.3 mph E13.4 kmh E 11.4 mph18.3 kmh 29.23 in989.8 mb 0.00 in0.0 mm 0.00 in/hr0.0 mm/hr 0.08 in2.0 mm
02:48 PM 63.0°F17.2°C 52.6°F11.4°C 69% 8.8 mph E14.2 kmh E 14.5 mph23.3 kmh 29.23 in989.8 mb 0.00 in0.0 mm 0.00 in/hr0.0 mm/hr 0.08 in2.0 mm
02:47 PM 63.0°F17.2°C 52.6°F11.4°C 69% 9.2 mph E14.8 kmh E 14.5 mph23.3 kmh 29.23 in989.8 mb 0.00 in0.0 mm 0.00 in/hr0.0 mm/hr 0.08 in2.0 mm
02:46 PM 63.0°F17.2°C 52.6°F11.4°C 69% 9.2 mph E14.8 kmh E 14.5 mph23.3 kmh 29.23 in989.8 mb 0.00 in0.0 mm 0.00 in/hr0.0 mm/hr 0.08 in2.0 mm
02:45 PM 63.0°F17.2°C 52.6°F11.4°C 69% 9.3 mph E15.0 kmh E 14.5 mph23.3 kmh 29.23 in989.8 mb 0.00 in0.0 mm 0.00 in/hr0.0 mm/hr 0.08 in2.0 mm
02:44 PM 63.1°F17.3°C 52.8°F11.6°C 69% 9.4 mph E15.1 kmh E 14.5 mph23.3 kmh 29.23 in989.8 mb 0.00 in0.0 mm 0.00 in/hr0.0 mm/hr 0.08 in2.0 mm
02:43 PM 63.1°F17.3°C 52.4°F11.3°C 68% 9.5 mph E15.3 kmh E 14.5 mph23.3 kmh 29.23 in989.8 mb 0.00 in0.0 mm 0.00 in/hr0.0 mm/hr 0.08 in2.0 mm
02:42 PM 63.1°F17.3°C 52.4°F11.3°C 68% 10.0 mph E16.1 kmh E 14.5 mph23.3 kmh 29.23 in989.8 mb 0.00 in0.0 mm 0.00 in/hr0.0 mm/hr 0.08 in2.0 mm
02:41 PM 63.1°F17.3°C 52.4°F11.3°C 68% 10.0 mph E16.1 kmh E 14.5 mph23.3 kmh 29.22 in989.5 mb 0.00 in0.0 mm 0.00 in/hr0.0 mm/hr 0.08 in2.0 mm
02:40 PM 63.1°F17.3°C 52.4°F11.3°C 68% 10.1 mph E16.3 kmh E 14.5 mph23.3 kmh 29.22 in989.5 mb 0.00 in0.0 mm 0.00 in/hr0.0 mm/hr 0.08 in2.0 mm
02:39 PM 63.1°F17.3°C 52.4°F11.3°C 68% 10.4 mph E16.7 kmh E 14.5 mph23.3 kmh 29.23 in989.8 mb 0.00 in0.0 mm 0.00 in/hr0.0 mm/hr 0.08 in2.0 mm
02:38 PM 63.1°F17.3°C 52.4°F11.3°C 68% 10.3 mph ENE16.6 kmh ENE 14.5 mph23.3 kmh 29.23 in989.8 mb 0.00 in0.0 mm 0.00 in/hr0.0 mm/hr 0.08 in2.0 mm
02:37 PM 63.1°F17.3°C 53.2°F11.8°C 70% 10.2 mph ENE16.4 kmh ENE 14.5 mph23.3 kmh 29.23 in989.8 mb 0.00 in0.0 mm 0.00 in/hr0.0 mm/hr 0.08 in2.0 mm
02:36 PM 63.1°F17.3°C 52.8°F11.6°C 69% 10.4 mph ENE16.7 kmh ENE 14.5 mph23.3 kmh 29.23 in989.8 mb 0.00 in0.0 mm 0.00 in/hr0.0 mm/hr 0.08 in2.0 mm
02:35 PM 63.1°F17.3°C 52.8°F11.6°C 69% 10.7 mph ENE17.2 kmh ENE 14.5 mph23.3 kmh 29.23 in989.8 mb 0.00 in0.0 mm 0.00 in/hr0.0 mm/hr 0.08 in2.0 mm
02:34 PM 63.1°F17.3°C 52.8°F11.6°C 69% 10.6 mph NE17.1 kmh NE 14.5 mph23.3 kmh 29.23 in989.8 mb 0.00 in0.0 mm 0.00 in/hr0.0 mm/hr 0.08 in2.0 mm
02:33 PM 63.3°F17.4°C 53.0°F11.7°C 69% 10.3 mph NE16.6 kmh NE 14.5 mph23.3 kmh 29.23 in989.8 mb 0.00 in0.0 mm 0.00 in/hr0.0 mm/hr 0.08 in2.0 mm
02:32 PM 63.3°F17.4°C 53.0°F11.7°C 69% 9.9 mph NE15.9 kmh NE 13.0 mph20.9 kmh 29.23 in989.8 mb 0.00 in0.0 mm 0.00 in/hr0.0 mm/hr 0.08 in2.0 mm
02:31 PM 63.3°F17.4°C 53.0°F11.7°C 69% 9.7 mph ENE15.6 kmh ENE 13.0 mph20.9 kmh 29.23 in989.8 mb 0.00 in0.0 mm 0.00 in/hr0.0 mm/hr 0.08 in2.0 mm
02:30 PM 63.3°F17.4°C 53.0°F11.7°C 69% 9.6 mph ENE15.4 kmh ENE 13.0 mph20.9 kmh 29.23 in989.8 mb 0.00 in0.0 mm 0.00 in/hr0.0 mm/hr 0.08 in2.0 mm
02:29 PM 63.3°F17.4°C 53.0°F11.7°C 69% 9.4 mph ENE15.1 kmh ENE 13.0 mph20.9 kmh 29.23 in989.8 mb 0.00 in0.0 mm 0.00 in/hr0.0 mm/hr 0.08 in2.0 mm
02:28 PM 63.5°F17.5°C 53.6°F12.0°C 70% 9.0 mph NE14.5 kmh NE 11.4 mph18.3 kmh 29.23 in989.8 mb 0.00 in0.0 mm 0.00 in/hr0.0 mm/hr 0.08 in2.0 mm
02:27 PM 63.5°F17.5°C 53.9°F12.2°C 71% 8.8 mph NE14.2 kmh NE 11.4 mph18.3 kmh 29.23 in989.8 mb 0.00 in0.0 mm 0.00 in/hr0.0 mm/hr 0.08 in2.0 mm
02:26 PM 63.3°F17.4°C 53.8°F12.1°C 71% 8.9 mph NE14.3 kmh NE 12.1 mph19.5 kmh 29.23 in989.8 mb 0.00 in0.0 mm 0.00 in/hr0.0 mm/hr 0.08 in2.0 mm
02:25 PM 63.3°F17.4°C 53.8°F12.1°C 71% 9.1 mph NE14.6 kmh NE 12.1 mph19.5 kmh 29.23 in989.8 mb 0.00 in0.0 mm 0.00 in/hr0.0 mm/hr 0.08 in2.0 mm
02:24 PM 63.3°F17.4°C 53.8°F12.1°C 71% 9.4 mph ENE15.1 kmh ENE 13.0 mph20.9 kmh 29.23 in989.8 mb 0.00 in0.0 mm 0.00 in/hr0.0 mm/hr 0.08 in2.0 mm
02:23 PM 63.3°F17.4°C 53.8°F12.1°C 71% 9.8 mph ENE15.8 kmh ENE 13.0 mph20.9 kmh 29.23 in989.8 mb 0.00 in0.0 mm 0.00 in/hr0.0 mm/hr 0.08 in2.0 mm
02:22 PM 63.3°F17.4°C 53.8°F12.1°C 71% 9.9 mph ENE15.9 kmh ENE 13.0 mph20.9 kmh 29.23 in989.8 mb 0.00 in0.0 mm 0.00 in/hr0.0 mm/hr 0.08 in2.0 mm
02:21 PM 63.1°F17.3°C 53.6°F12.0°C 71% 9.9 mph NE15.9 kmh NE 13.0 mph20.9 kmh 29.23 in989.8 mb 0.00 in0.0 mm 0.00 in/hr0.0 mm/hr 0.08 in2.0 mm
02:20 PM 63.1°F17.3°C 53.6°F12.0°C 71% 9.9 mph NE15.9 kmh NE 13.0 mph20.9 kmh 29.23 in989.8 mb 0.00 in0.0 mm 0.00 in/hr0.0 mm/hr 0.08 in2.0 mm
02:19 PM 63.1°F17.3°C 53.6°F12.0°C 71% 10.0 mph NE16.1 kmh NE 13.0 mph20.9 kmh 29.23 in989.8 mb 0.00 in0.0 mm 0.00 in/hr0.0 mm/hr 0.08 in2.0 mm
02:18 PM 63.1°F17.3°C 53.2°F11.8°C 70% 10.2 mph ENE16.4 kmh ENE 13.0 mph20.9 kmh 29.23 in989.8 mb 0.00 in0.0 mm 0.00 in/hr0.0 mm/hr 0.08 in2.0 mm
02:17 PM 63.9°F17.7°C 54.3°F12.4°C 71% 10.3 mph ENE16.6 kmh ENE 13.6 mph21.9 kmh 29.23 in989.8 mb 0.00 in0.0 mm 0.00 in/hr0.0 mm/hr 0.08 in2.0 mm
02:16 PM 63.3°F17.4°C 53.8°F12.1°C 71% 10.1 mph ENE16.3 kmh ENE 13.6 mph21.9 kmh 29.23 in989.8 mb 0.00 in0.0 mm 0.00 in/hr0.0 mm/hr 0.08 in2.0 mm
02:15 PM 63.3°F17.4°C 53.8°F12.1°C 71% 9.6 mph ENE15.4 kmh ENE 13.6 mph21.9 kmh 29.23 in989.8 mb 0.00 in0.0 mm 0.00 in/hr0.0 mm/hr 0.08 in2.0 mm
02:14 PM 63.3°F17.4°C 53.8°F12.1°C 71% 9.0 mph ENE14.5 kmh ENE 13.6 mph21.9 kmh 29.23 in989.8 mb 0.00 in0.0 mm 0.00 in/hr0.0 mm/hr 0.08 in2.0 mm
02:13 PM 63.3°F17.4°C 53.8°F12.1°C 71% 8.8 mph ENE14.2 kmh ENE 13.6 mph21.9 kmh 29.23 in989.8 mb 0.00 in0.0 mm 0.00 in/hr0.0 mm/hr 0.08 in2.0 mm
02:12 PM 63.3°F17.4°C 54.2°F12.3°C 72% 8.6 mph ENE13.8 kmh ENE 13.6 mph21.9 kmh 29.23 in989.8 mb 0.00 in0.0 mm 0.00 in/hr0.0 mm/hr 0.08 in2.0 mm
02:11 PM 63.3°F17.4°C 54.2°F12.3°C 72% 8.8 mph ENE14.2 kmh ENE 13.6 mph21.9 kmh 29.23 in989.8 mb 0.00 in0.0 mm 0.00 in/hr0.0 mm/hr 0.08 in2.0 mm
02:10 PM 63.3°F17.4°C 54.2°F12.3°C 72% 8.9 mph ENE14.3 kmh ENE 13.6 mph21.9 kmh 29.23 in989.8 mb 0.00 in0.0 mm 0.00 in/hr0.0 mm/hr 0.08 in2.0 mm
02:09 PM 63.3°F17.4°C 54.2°F12.3°C 72% 8.9 mph E14.3 kmh E 13.6 mph21.9 kmh 29.23 in989.8 mb 0.00 in0.0 mm 0.00 in/hr0.0 mm/hr 0.08 in2.0 mm
02:08 PM 63.1°F17.3°C 54.0°F12.2°C 72% 8.6 mph E13.8 kmh E 13.6 mph21.9 kmh 29.23 in989.8 mb 0.00 in0.0 mm 0.00 in/hr0.0 mm/hr 0.08 in2.0 mm
02:07 PM 63.1°F17.3°C 54.4°F12.4°C 73% 8.5 mph E13.7 kmh E 13.6 mph21.9 kmh 29.23 in989.8 mb 0.00 in0.0 mm 0.00 in/hr0.0 mm/hr 0.08 in2.0 mm
02:06 PM 63.1°F17.3°C 54.4°F12.4°C 73% 8.4 mph E13.5 kmh E 12.1 mph19.5 kmh 29.23 in989.8 mb 0.00 in0.0 mm 0.00 in/hr0.0 mm/hr 0.08 in2.0 mm
02:05 PM 63.1°F17.3°C 54.0°F12.2°C 72% 8.9 mph ENE14.3 kmh ENE 12.1 mph19.5 kmh 29.23 in989.8 mb 0.00 in0.0 mm 0.00 in/hr0.0 mm/hr 0.08 in2.0 mm
02:04 PM 63.1°F17.3°C 54.0°F12.2°C 72% 9.2 mph ENE14.8 kmh ENE 12.1 mph19.5 kmh 29.23 in989.8 mb 0.00 in0.0 mm 0.00 in/hr0.0 mm/hr 0.08 in2.0 mm
02:03 PM 63.1°F17.3°C 54.0°F12.2°C 72% 9.2 mph ENE14.8 kmh ENE 12.1 mph19.5 kmh 29.22 in989.5 mb 0.00 in0.0 mm 0.00 in/hr0.0 mm/hr 0.08 in2.0 mm
02:02 PM 63.1°F17.3°C 54.0°F12.2°C 72% 8.8 mph ENE14.2 kmh ENE 12.1 mph19.5 kmh 29.23 in989.8 mb 0.00 in0.0 mm 0.00 in/hr0.0 mm/hr 0.08 in2.0 mm
02:01 PM 63.1°F17.3°C 54.4°F12.4°C 73% 8.6 mph ENE13.8 kmh ENE 12.1 mph19.5 kmh 29.23 in989.8 mb 0.00 in0.0 mm 0.00 in/hr0.0 mm/hr 0.08 in2.0 mm
02:00 PM 63.1°F17.3°C 54.7°F12.6°C 74% 8.6 mph E13.8 kmh E 12.1 mph19.5 kmh 29.23 in989.8 mb 0.00 in0.0 mm 0.00 in/hr0.0 mm/hr 0.08 in2.0 mm
01:59 PM 63.1°F17.3°C 54.7°F12.6°C 74% 8.6 mph ENE13.8 kmh ENE 12.1 mph19.5 kmh 29.23 in989.8 mb 0.00 in0.0 mm 0.00 in/hr0.0 mm/hr 0.08 in2.0 mm
01:58 PM 63.1°F17.3°C 54.7°F12.6°C 74% 8.7 mph ENE14.0 kmh ENE 12.1 mph19.5 kmh 29.23 in989.8 mb 0.00 in0.0 mm 0.00 in/hr0.0 mm/hr 0.08 in2.0 mm
01:57 PM 63.1°F17.3°C 55.1°F12.8°C 75% 8.6 mph NE13.8 kmh NE 12.1 mph19.5 kmh 29.23 in989.8 mb 0.00 in0.0 mm 0.00 in/hr0.0 mm/hr 0.08 in2.0 mm
01:56 PM 63.1°F17.3°C 55.1°F12.8°C 75% 8.7 mph NE14.0 kmh NE 12.1 mph19.5 kmh 29.23 in989.8 mb 0.00 in0.0 mm 0.00 in/hr0.0 mm/hr 0.08 in2.0 mm
01:55 PM 63.1°F17.3°C 54.7°F12.6°C 74% 8.1 mph ENE13.0 kmh ENE 10.7 mph17.2 kmh 29.24 in990.2 mb 0.00 in0.0 mm 0.00 in/hr0.0 mm/hr 0.08 in2.0 mm
01:54 PM 63.1°F17.3°C 54.7°F12.6°C 74% 7.8 mph ENE12.6 kmh ENE 10.7 mph17.2 kmh 29.23 in989.8 mb 0.00 in0.0 mm 0.00 in/hr0.0 mm/hr 0.08 in2.0 mm
01:53 PM 63.1°F17.3°C 54.7°F12.6°C 74% 7.7 mph NE12.4 kmh NE 10.7 mph17.2 kmh 29.23 in989.8 mb 0.00 in0.0 mm 0.00 in/hr0.0 mm/hr 0.08 in2.0 mm
01:52 PM 63.1°F17.3°C 54.7°F12.6°C 74% 8.1 mph NE13.0 kmh NE 10.7 mph17.2 kmh 29.24 in990.2 mb 0.00 in0.0 mm 0.00 in/hr0.0 mm/hr 0.08 in2.0 mm
01:51 PM 63.1°F17.3°C 54.7°F12.6°C 74% 8.2 mph NE13.2 kmh NE 10.7 mph17.2 kmh 29.24 in990.2 mb 0.00 in0.0 mm 0.00 in/hr0.0 mm/hr 0.08 in2.0 mm
01:50 PM 63.3°F17.4°C 54.9°F12.7°C 74% 8.3 mph NE13.4 kmh NE 12.1 mph19.5 kmh 29.24 in990.2 mb 0.00 in0.0 mm 0.00 in/hr0.0 mm/hr 0.08 in2.0 mm
01:49 PM 63.3°F17.4°C 54.9°F12.7°C 74% 8.4 mph NE13.5 kmh NE 12.1 mph19.5 kmh 29.24 in990.2 mb 0.00 in0.0 mm 0.00 in/hr0.0 mm/hr 0.08 in2.0 mm
01:48 PM 63.3°F17.4°C 54.5°F12.5°C 73% 8.0 mph NE12.9 kmh NE 12.1 mph19.5 kmh 29.24 in990.2 mb 0.00 in0.0 mm 0.00 in/hr0.0 mm/hr 0.08 in2.0 mm
01:47 PM 63.3°F17.4°C 54.5°F12.5°C 73% 8.1 mph NE13.0 kmh NE 12.1 mph19.5 kmh 29.24 in990.2 mb 0.00 in0.0 mm 0.00 in/hr0.0 mm/hr 0.08 in2.0 mm
01:46 PM 63.3°F17.4°C 54.5°F12.5°C 73% 8.2 mph NE13.2 kmh NE 12.1 mph19.5 kmh 29.24 in990.2 mb 0.00 in0.0 mm 0.00 in/hr0.0 mm/hr 0.08 in2.0 mm
01:45 PM 63.3°F17.4°C 54.5°F12.5°C 73% 8.6 mph NE13.8 kmh NE 12.1 mph19.5 kmh 29.24 in990.2 mb 0.00 in0.0 mm 0.00 in/hr0.0 mm/hr 0.08 in2.0 mm
01:44 PM 63.5°F17.5°C 54.7°F12.6°C 73% 9.0 mph NE14.5 kmh NE 12.1 mph19.5 kmh 29.24 in990.2 mb 0.00 in0.0 mm 0.00 in/hr0.0 mm/hr 0.08 in2.0 mm
01:43 PM 63.5°F17.5°C 54.7°F12.6°C 73% 9.4 mph ENE15.1 kmh ENE 12.1 mph19.5 kmh 29.24 in990.2 mb 0.00 in0.0 mm 0.00 in/hr0.0 mm/hr 0.08 in2.0 mm
01:42 PM 63.7°F17.6°C 54.9°F12.7°C 73% 9.6 mph E15.4 kmh E 12.1 mph19.5 kmh 29.24 in990.2 mb 0.00 in0.0 mm 0.00 in/hr0.0 mm/hr 0.08 in2.0 mm
01:41 PM 63.7°F17.6°C 54.9°F12.7°C 73% 9.6 mph E15.4 kmh E 12.1 mph19.5 kmh 29.25 in990.5 mb 0.00 in0.0 mm 0.00 in/hr0.0 mm/hr 0.08 in2.0 mm
01:40 PM 63.7°F17.6°C 54.9°F12.7°C 73% 9.8 mph E15.8 kmh E 12.1 mph19.5 kmh 29.24 in990.2 mb 0.00 in0.0 mm 0.00 in/hr0.0 mm/hr 0.08 in2.0 mm
01:39 PM 63.7°F17.6°C 55.3°F12.9°C 74% 10.0 mph E16.1 kmh E 12.1 mph19.5 kmh 29.24 in990.2 mb 0.00 in0.0 mm 0.00 in/hr0.0 mm/hr 0.08 in2.0 mm
01:38 PM 63.7°F17.6°C 55.3°F12.9°C 74% 10.6 mph E17.1 kmh E 12.1 mph19.5 kmh 29.24 in990.2 mb 0.00 in0.0 mm 0.00 in/hr0.0 mm/hr 0.08 in2.0 mm
01:37 PM 63.5°F17.5°C 55.1°F12.8°C 74% 11.1 mph E17.9 kmh E 13.6 mph21.9 kmh 29.24 in990.2 mb 0.00 in0.0 mm 0.00 in/hr0.0 mm/hr 0.08 in2.0 mm
01:36 PM 63.5°F17.5°C 55.1°F12.8°C 74% 11.3 mph E18.2 kmh E 13.6 mph21.9 kmh 29.24 in990.2 mb 0.00 in0.0 mm 0.00 in/hr0.0 mm/hr 0.08 in2.0 mm
01:35 PM 63.3°F17.4°C 54.9°F12.7°C 74% 11.1 mph E17.9 kmh E 13.6 mph21.9 kmh 29.24 in990.2 mb 0.00 in0.0 mm 0.00 in/hr0.0 mm/hr 0.08 in2.0 mm
01:34 PM 63.3°F17.4°C 54.9°F12.7°C 74% 11.0 mph ENE17.7 kmh ENE 13.6 mph21.9 kmh 29.25 in990.5 mb 0.00 in0.0 mm 0.00 in/hr0.0 mm/hr 0.08 in2.0 mm
01:33 PM 63.3°F17.4°C 54.9°F12.7°C 74% 11.1 mph ENE17.9 kmh ENE 13.6 mph21.9 kmh 29.25 in990.5 mb 0.00 in0.0 mm 0.00 in/hr0.0 mm/hr 0.08 in2.0 mm
01:32 PM 63.3°F17.4°C 54.9°F12.7°C 74% 10.9 mph ENE17.5 kmh ENE 13.6 mph21.9 kmh 29.25 in990.5 mb 0.00 in0.0 mm 0.00 in/hr0.0 mm/hr 0.08 in2.0 mm
01:31 PM 63.3°F17.4°C 54.9°F12.7°C 74% 10.9 mph NE17.5 kmh NE 13.6 mph21.9 kmh 29.25 in990.5 mb 0.00 in0.0 mm 0.00 in/hr0.0 mm/hr 0.08 in2.0 mm
01:30 PM 63.3°F17.4°C 54.9°F12.7°C 74% 10.2 mph NE16.4 kmh NE 13.6 mph21.9 kmh 29.25 in990.5 mb 0.00 in0.0 mm 0.00 in/hr0.0 mm/hr 0.08 in2.0 mm
01:29 PM 63.1°F17.3°C 54.7°F12.6°C 74% 9.6 mph NE15.4 kmh NE 13.6 mph21.9 kmh 29.25 in990.5 mb 0.00 in0.0 mm 0.00 in/hr0.0 mm/hr 0.08 in2.0 mm
01:28 PM 63.1°F17.3°C 55.5°F13.1°C 76% 8.9 mph NE14.3 kmh NE 13.6 mph21.9 kmh 29.25 in990.5 mb 0.00 in0.0 mm 0.00 in/hr0.0 mm/hr 0.08 in2.0 mm
01:27 PM 63.1°F17.3°C 55.8°F13.2°C 77% 8.0 mph NE12.9 kmh NE 13.6 mph21.9 kmh 29.25 in990.5 mb 0.00 in0.0 mm 0.00 in/hr0.0 mm/hr 0.08 in2.0 mm
01:26 PM 63.0°F17.2°C 56.0°F13.3°C 78% 7.8 mph NE12.6 kmh NE 13.6 mph21.9 kmh 29.25 in990.5 mb 0.00 in0.0 mm 0.00 in/hr0.0 mm/hr 0.08 in2.0 mm
01:25 PM 62.8°F17.1°C 56.2°F13.4°C 79% 7.7 mph NE12.4 kmh NE 13.6 mph21.9 kmh 29.24 in990.2 mb 0.00 in0.0 mm 0.00 in/hr0.0 mm/hr 0.08 in2.0 mm
01:24 PM 62.4°F16.9°C 56.2°F13.4°C 80% 7.8 mph ENE12.6 kmh ENE 13.6 mph21.9 kmh 29.25 in990.5 mb 0.00 in0.0 mm 0.00 in/hr0.0 mm/hr 0.08 in2.0 mm
01:23 PM 62.2°F16.8°C 56.0°F13.3°C 80% 7.7 mph ENE12.4 kmh ENE 13.6 mph21.9 kmh 29.25 in990.5 mb 0.00 in0.0 mm 0.00 in/hr0.0 mm/hr 0.08 in2.0 mm
01:22 PM 62.1°F16.7°C 56.2°F13.4°C 81% 7.7 mph E12.4 kmh E 10.7 mph17.2 kmh 29.25 in990.5 mb 0.00 in0.0 mm 0.00 in/hr0.0 mm/hr 0.08 in2.0 mm
01:21 PM 61.9°F16.6°C 56.0°F13.3°C 81% 7.6 mph E12.2 kmh E 10.7 mph17.2 kmh 29.25 in990.5 mb 0.00 in0.0 mm 0.00 in/hr0.0 mm/hr 0.08 in2.0 mm
01:20 PM 61.5°F16.4°C 55.6°F13.1°C 81% 7.8 mph E12.6 kmh E 10.7 mph17.2 kmh 29.25 in990.5 mb 0.00 in0.0 mm 0.00 in/hr0.0 mm/hr 0.08 in2.0 mm
01:19 PM 61.3°F16.3°C 55.5°F13.1°C 81% 8.2 mph E13.2 kmh E 11.4 mph18.3 kmh 29.25 in990.5 mb 0.00 in0.0 mm 0.00 in/hr0.0 mm/hr 0.08 in2.0 mm
01:18 PM 61.2°F16.2°C 55.3°F12.9°C 81% 8.5 mph E13.7 kmh E 11.4 mph18.3 kmh 29.25 in990.5 mb 0.00 in0.0 mm 0.00 in/hr0.0 mm/hr 0.08 in2.0 mm
01:17 PM 61.0°F16.1°C 55.1°F12.8°C 81% 8.9 mph E14.3 kmh E 12.1 mph19.5 kmh 29.25 in990.5 mb 0.00 in0.0 mm 0.00 in/hr0.0 mm/hr 0.08 in2.0 mm
01:16 PM 60.8°F16.0°C 54.9°F12.7°C 81% 9.2 mph E14.8 kmh E 13.0 mph20.9 kmh 29.25 in990.5 mb 0.00 in0.0 mm 0.00 in/hr0.0 mm/hr 0.08 in2.0 mm
01:15 PM 60.8°F16.0°C 54.9°F12.7°C 81% 9.5 mph E15.3 kmh E 13.0 mph20.9 kmh 29.25 in990.5 mb 0.00 in0.0 mm 0.00 in/hr0.0 mm/hr 0.08 in2.0 mm
01:14 PM 60.8°F16.0°C 54.9°F12.7°C 81% 9.5 mph ENE15.3 kmh ENE 13.0 mph20.9 kmh 29.25 in990.5 mb 0.00 in0.0 mm 0.00 in/hr0.0 mm/hr 0.08 in2.0 mm
01:13 PM 60.6°F15.9°C 54.8°F12.7°C 81% 9.5 mph ENE15.3 kmh ENE 13.0 mph20.9 kmh 29.25 in990.5 mb 0.00 in0.0 mm 0.00 in/hr0.0 mm/hr 0.08 in2.0 mm
01:12 PM 60.4°F15.8°C 54.6°F12.6°C 81% 9.4 mph ENE15.1 kmh ENE 13.0 mph20.9 kmh 29.25 in990.5 mb 0.00 in0.0 mm 0.00 in/hr0.0 mm/hr 0.08 in2.0 mm
01:11 PM 60.3°F15.7°C 54.4°F12.4°C 81% 9.5 mph NE15.3 kmh NE 13.0 mph20.9 kmh 29.25 in990.5 mb 0.00 in0.0 mm 0.00 in/hr0.0 mm/hr 0.08 in2.0 mm
01:10 PM 60.3°F15.7°C 54.4°F12.4°C 81% 9.7 mph NE15.6 kmh NE 13.0 mph20.9 kmh 29.25 in990.5 mb 0.00 in0.0 mm 0.00 in/hr0.0 mm/hr 0.08 in2.0 mm
01:09 PM 60.3°F15.7°C 54.4°F12.4°C 81% 9.8 mph NE15.8 kmh NE 13.0 mph20.9 kmh 29.25 in990.5 mb 0.00 in0.0 mm 0.00 in/hr0.0 mm/hr 0.08 in2.0 mm
01:08 PM 60.1°F15.6°C 54.2°F12.3°C 81% 10.0 mph NE16.1 kmh NE 13.0 mph20.9 kmh 29.26 in990.9 mb 0.00 in0.0 mm 0.00 in/hr0.0 mm/hr 0.08 in2.0 mm
01:07 PM 59.9°F15.5°C 53.7°F12.1°C 80% 10.1 mph NE16.3 kmh NE 13.0 mph20.9 kmh 29.25 in990.5 mb 0.00 in0.0 mm 0.00 in/hr0.0 mm/hr 0.08 in2.0 mm
01:06 PM 59.9°F15.5°C 54.1°F12.3°C 81% 9.6 mph ENE15.4 kmh ENE 13.0 mph20.9 kmh 29.26 in990.9 mb 0.00 in0.0 mm 0.00 in/hr0.0 mm/hr 0.08 in2.0 mm
01:05 PM 59.9°F15.5°C 54.1°F12.3°C 81% 9.2 mph NE14.8 kmh NE 11.4 mph18.3 kmh 29.25 in990.5 mb 0.00 in0.0 mm 0.00 in/hr0.0 mm/hr 0.08 in2.0 mm
01:04 PM 59.7°F15.4°C 53.9°F12.2°C 81% 9.2 mph ENE14.8 kmh ENE 10.7 mph17.2 kmh 29.26 in990.9 mb 0.00 in0.0 mm 0.00 in/hr0.0 mm/hr 0.08 in2.0 mm
01:03 PM 59.7°F15.4°C 53.9°F12.2°C 81% 9.1 mph ENE14.6 kmh ENE 10.7 mph17.2 kmh 29.26 in990.9 mb 0.00 in0.0 mm 0.00 in/hr0.0 mm/hr 0.08 in2.0 mm
01:02 PM 59.5°F15.3°C 53.7°F12.1°C 81% 9.6 mph NE15.4 kmh NE 15.2 mph24.5 kmh 29.26 in990.9 mb 0.00 in0.0 mm 0.00 in/hr0.0 mm/hr 0.08 in2.0 mm
01:01 PM 59.5°F15.3°C 53.7°F12.1°C 81% 9.9 mph ENE15.9 kmh ENE 15.2 mph24.5 kmh 29.25 in990.5 mb 0.00 in0.0 mm 0.00 in/hr0.0 mm/hr 0.08 in2.0 mm
01:00 PM 59.5°F15.3°C 53.4°F11.9°C 80% 10.0 mph NE16.1 kmh NE 15.2 mph24.5 kmh 29.26 in990.9 mb 0.00 in0.0 mm 0.00 in/hr0.0 mm/hr 0.08 in2.0 mm
12:59 PM 59.4°F15.2°C 53.5°F11.9°C 81% 10.2 mph NE16.4 kmh NE 15.2 mph24.5 kmh 29.26 in990.9 mb 0.00 in0.0 mm 0.00 in/hr0.0 mm/hr 0.08 in2.0 mm
12:58 PM 59.4°F15.2°C 53.5°F11.9°C 81% 10.5 mph NE16.9 kmh NE 15.2 mph24.5 kmh 29.25 in990.5 mb 0.00 in0.0 mm 0.00 in/hr0.0 mm/hr 0.08 in2.0 mm
12:57 PM 59.4°F15.2°C 53.2°F11.8°C 80% 10.5 mph NE16.9 kmh NE 15.2 mph24.5 kmh 29.26 in990.9 mb 0.00 in0.0 mm 0.00 in/hr0.0 mm/hr 0.08 in2.0 mm
12:56 PM 59.4°F15.2°C 53.2°F11.8°C 80% 11.1 mph NE17.9 kmh NE 15.2 mph24.5 kmh 29.26 in990.9 mb 0.00 in0.0 mm 0.00 in/hr0.0 mm/hr 0.08 in2.0 mm
12:55 PM 59.5°F15.3°C 53.4°F11.9°C 80% 11.5 mph NE18.5 kmh NE 15.2 mph24.5 kmh 29.26 in990.9 mb 0.00 in0.0 mm 0.00 in/hr0.0 mm/hr 0.08 in2.0 mm
12:54 PM 59.5°F15.3°C 53.0°F11.7°C 79% 11.8 mph NE19.0 kmh NE 15.2 mph24.5 kmh 29.26 in990.9 mb 0.00 in0.0 mm 0.00 in/hr0.0 mm/hr 0.08 in2.0 mm
12:53 PM 59.5°F15.3°C 53.0°F11.7°C 79% 12.1 mph NE19.5 kmh NE 15.2 mph24.5 kmh 29.26 in990.9 mb 0.00 in0.0 mm 0.00 in/hr0.0 mm/hr 0.08 in2.0 mm
12:52 PM 59.9°F15.5°C 53.0°F11.7°C 78% 12.0 mph NE19.3 kmh NE 15.2 mph24.5 kmh 29.26 in990.9 mb 0.00 in0.0 mm 0.00 in/hr0.0 mm/hr 0.08 in2.0 mm
12:51 PM 59.9°F15.5°C 53.4°F11.9°C 79% 11.7 mph NE18.8 kmh NE 15.2 mph24.5 kmh 29.26 in990.9 mb 0.00 in0.0 mm 0.00 in/hr0.0 mm/hr 0.08 in2.0 mm
12:50 PM 59.9°F15.5°C 53.4°F11.9°C 79% 11.5 mph NE18.5 kmh NE 15.2 mph24.5 kmh 29.26 in990.9 mb 0.00 in0.0 mm 0.00 in/hr0.0 mm/hr 0.08 in2.0 mm
12:49 PM 60.1°F15.6°C 53.6°F12.0°C 79% 11.1 mph NE17.9 kmh NE 15.2 mph24.5 kmh 29.26 in990.9 mb 0.00 in0.0 mm 0.00 in/hr0.0 mm/hr 0.08 in2.0 mm
12:48 PM 60.3°F15.7°C 54.1°F12.3°C 80% 10.5 mph ENE16.9 kmh ENE 15.2 mph24.5 kmh 29.27 in991.2 mb 0.00 in0.0 mm 0.00 in/hr0.0 mm/hr 0.08 in2.0 mm
12:47 PM 60.4°F15.8°C 54.3°F12.4°C 80% 10.7 mph ENE17.2 kmh ENE 15.2 mph24.5 kmh 29.27 in991.2 mb 0.00 in0.0 mm 0.00 in/hr0.0 mm/hr 0.08 in2.0 mm
12:46 PM 60.4°F15.8°C 54.6°F12.6°C 81% 10.5 mph ENE16.9 kmh ENE 15.2 mph24.5 kmh 29.27 in991.2 mb 0.00 in0.0 mm 0.00 in/hr0.0 mm/hr 0.08 in2.0 mm
12:45 PM 60.4°F15.8°C 54.6°F12.6°C 81% 10.6 mph ENE17.1 kmh ENE 15.2 mph24.5 kmh 29.27 in991.2 mb 0.00 in0.0 mm 0.00 in/hr0.0 mm/hr 0.08 in2.0 mm
12:44 PM 60.4°F15.8°C 54.9°F12.7°C 82% 10.7 mph E17.2 kmh E 15.2 mph24.5 kmh 29.27 in991.2 mb 0.00 in0.0 mm 0.00 in/hr0.0 mm/hr 0.08 in2.0 mm
12:43 PM 60.6°F15.9°C 55.1°F12.8°C 82% 10.7 mph E17.2 kmh E 15.2 mph24.5 kmh 29.27 in991.2 mb 0.00 in0.0 mm 0.00 in/hr0.0 mm/hr 0.08 in2.0 mm
12:42 PM 60.4°F15.8°C 54.9°F12.7°C 82% 10.4 mph E16.7 kmh E 14.5 mph23.3 kmh 29.27 in991.2 mb 0.00 in0.0 mm 0.00 in/hr0.0 mm/hr 0.08 in2.0 mm
12:41 PM 60.4°F15.8°C 54.9°F12.7°C 82% 10.5 mph E16.9 kmh E 14.5 mph23.3 kmh 29.27 in991.2 mb 0.00 in0.0 mm 0.00 in/hr0.0 mm/hr 0.08 in2.0 mm
12:40 PM 60.4°F15.8°C 55.3°F12.9°C 83% 10.8 mph E17.4 kmh E 14.5 mph23.3 kmh 29.27 in991.2 mb 0.00 in0.0 mm 0.00 in/hr0.0 mm/hr 0.08 in2.0 mm
12:39 PM 60.3°F15.7°C 55.1°F12.8°C 83% 10.7 mph E17.2 kmh E 14.5 mph23.3 kmh 29.26 in990.9 mb 0.00 in0.0 mm 0.00 in/hr0.0 mm/hr 0.08 in2.0 mm
12:38 PM 60.3°F15.7°C 55.1°F12.8°C 83% 10.6 mph ENE17.1 kmh ENE 14.5 mph23.3 kmh 29.27 in991.2 mb 0.00 in0.0 mm 0.00 in/hr0.0 mm/hr 0.08 in2.0 mm
12:37 PM 60.3°F15.7°C 55.1°F12.8°C 83% 10.2 mph ENE16.4 kmh ENE 14.5 mph23.3 kmh 29.27 in991.2 mb 0.00 in0.0 mm 0.00 in/hr0.0 mm/hr 0.08 in2.0 mm
12:36 PM 60.1°F15.6°C 54.9°F12.7°C 83% 9.8 mph ENE15.8 kmh ENE 14.5 mph23.3 kmh 29.26 in990.9 mb 0.00 in0.0 mm 0.00 in/hr0.0 mm/hr 0.08 in2.0 mm
12:35 PM 60.1°F15.6°C 55.2°F12.9°C 84% 9.5 mph ENE15.3 kmh ENE 13.6 mph21.9 kmh 29.26 in990.9 mb 0.00 in0.0 mm 0.00 in/hr0.0 mm/hr 0.08 in2.0 mm
12:34 PM 60.1°F15.6°C 55.2°F12.9°C 84% 9.2 mph NE14.8 kmh NE 13.6 mph21.9 kmh 29.26 in990.9 mb 0.00 in0.0 mm 0.00 in/hr0.0 mm/hr 0.08 in2.0 mm
12:33 PM 60.1°F15.6°C 55.2°F12.9°C 84% 8.9 mph NE14.3 kmh NE 13.0 mph20.9 kmh 29.26 in990.9 mb 0.00 in0.0 mm 0.00 in/hr0.0 mm/hr 0.08 in2.0 mm
12:32 PM 59.9°F15.5°C 55.4°F13.0°C 85% 9.0 mph ENE14.5 kmh ENE 12.1 mph19.5 kmh 29.26 in990.9 mb 0.00 in0.0 mm 0.00 in/hr0.0 mm/hr 0.08 in2.0 mm
12:31 PM 59.9°F15.5°C 55.4°F13.0°C 85% 9.0 mph ENE14.5 kmh ENE 12.1 mph19.5 kmh 29.26 in990.9 mb 0.00 in0.0 mm 0.00 in/hr0.0 mm/hr 0.08 in2.0 mm
12:30 PM 59.9°F15.5°C 55.4°F13.0°C 85% 9.4 mph ENE15.1 kmh ENE 14.5 mph23.3 kmh 29.27 in991.2 mb 0.00 in0.0 mm 0.00 in/hr0.0 mm/hr 0.08 in2.0 mm
12:29 PM 59.9°F15.5°C 55.4°F13.0°C 85% 9.8 mph E15.8 kmh E 14.5 mph23.3 kmh 29.27 in991.2 mb 0.00 in0.0 mm 0.00 in/hr0.0 mm/hr 0.08 in2.0 mm
12:28 PM 59.9°F15.5°C 55.4°F13.0°C 85% 10.4 mph E16.7 kmh E 14.5 mph23.3 kmh 29.27 in991.2 mb 0.00 in0.0 mm 0.00 in/hr0.0 mm/hr 0.08 in2.0 mm
12:27 PM 59.9°F15.5°C 55.1°F12.8°C 84% 10.9 mph E17.5 kmh E 14.5 mph23.3 kmh 29.27 in991.2 mb 0.00 in0.0 mm 0.00 in/hr0.0 mm/hr 0.08 in2.0 mm
12:26 PM 59.9°F15.5°C 55.4°F13.0°C 85% 11.5 mph E18.5 kmh E 14.5 mph23.3 kmh 29.27 in991.2 mb 0.00 in0.0 mm 0.00 in/hr0.0 mm/hr 0.08 in2.0 mm
12:25 PM 60.1°F15.6°C 55.6°F13.1°C 85% 11.9 mph E19.2 kmh E 17.4 mph28.0 kmh 29.27 in991.2 mb 0.00 in0.0 mm 0.00 in/hr0.0 mm/hr 0.08 in2.0 mm
12:24 PM 60.1°F15.6°C 55.2°F12.9°C 84% 12.4 mph E20.0 kmh E 17.4 mph28.0 kmh 29.27 in991.2 mb 0.00 in0.0 mm 0.00 in/hr0.0 mm/hr 0.08 in2.0 mm
12:23 PM 60.3°F15.7°C 55.4°F13.0°C 84% 12.4 mph E20.0 kmh E 17.4 mph28.0 kmh 29.27 in991.2 mb 0.00 in0.0 mm 0.00 in/hr0.0 mm/hr 0.08 in2.0 mm
12:22 PM 60.3°F15.7°C 55.4°F13.0°C 84% 12.3 mph E19.8 kmh E 17.4 mph28.0 kmh 29.27 in991.2 mb 0.00 in0.0 mm 0.00 in/hr0.0 mm/hr 0.08 in2.0 mm
12:21 PM 60.4°F15.8°C 55.6°F13.1°C 84% 12.6 mph E20.3 kmh E 17.4 mph28.0 kmh 29.27 in991.2 mb 0.00 in0.0 mm 0.00 in/hr0.0 mm/hr 0.08 in2.0 mm
12:20 PM 60.6°F15.9°C 55.8°F13.2°C 84% 12.5 mph E20.1 kmh E 17.4 mph28.0 kmh 29.27 in991.2 mb 0.00 in0.0 mm 0.00 in/hr0.0 mm/hr 0.08 in2.0 mm
12:19 PM 60.8°F16.0°C 55.9°F13.3°C 84% 12.7 mph E20.4 kmh E 17.4 mph28.0 kmh 29.27 in991.2 mb 0.00 in0.0 mm 0.00 in/hr0.0 mm/hr 0.08 in2.0 mm
12:18 PM 60.8°F16.0°C 55.9°F13.3°C 84% 12.5 mph E20.1 kmh E 17.4 mph28.0 kmh 29.27 in991.2 mb 0.00 in0.0 mm 0.00 in/hr0.0 mm/hr 0.08 in2.0 mm
12:17 PM 61.0°F16.1°C 56.5°F13.6°C 85% 12.3 mph E19.8 kmh E 17.4 mph28.0 kmh 29.27 in991.2 mb 0.00 in0.0 mm 0.00 in/hr0.0 mm/hr 0.08 in2.0 mm
12:16 PM 61.0°F16.1°C 56.8°F13.8°C 86% 12.1 mph E19.5 kmh E 17.4 mph28.0 kmh 29.27 in991.2 mb 0.00 in0.0 mm 0.00 in/hr0.0 mm/hr 0.08 in2.0 mm
12:15 PM 61.0°F16.1°C 56.8°F13.8°C 86% 11.6 mph E18.7 kmh E 17.4 mph28.0 kmh 29.27 in991.2 mb 0.00 in0.0 mm 0.00 in/hr0.0 mm/hr 0.08 in2.0 mm
12:14 PM 60.8°F16.0°C 56.9°F13.8°C 87% 11.5 mph E18.5 kmh E 14.5 mph23.3 kmh 29.27 in991.2 mb 0.00 in0.0 mm 0.00 in/hr0.0 mm/hr 0.08 in2.0 mm
12:13 PM 60.8°F16.0°C 56.9°F13.8°C 87% 11.5 mph E18.5 kmh E 14.5 mph23.3 kmh 29.27 in991.2 mb 0.00 in0.0 mm 0.00 in/hr0.0 mm/hr 0.08 in2.0 mm
12:12 PM 60.8°F16.0°C 56.9°F13.8°C 87% 11.8 mph E19.0 kmh E 14.5 mph23.3 kmh 29.27 in991.2 mb 0.00 in0.0 mm 0.00 in/hr0.0 mm/hr 0.08 in2.0 mm
12:11 PM 60.6°F15.9°C 57.1°F13.9°C 88% 11.7 mph E18.8 kmh E 14.5 mph23.3 kmh 29.27 in991.2 mb 0.00 in0.0 mm 0.00 in/hr0.0 mm/hr 0.08 in2.0 mm
12:10 PM 60.4°F15.8°C 56.9°F13.8°C 88% 11.6 mph E18.7 kmh E 14.5 mph23.3 kmh 29.28 in991.5 mb 0.00 in0.0 mm 0.00 in/hr0.0 mm/hr 0.08 in2.0 mm
12:09 PM 60.4°F15.8°C 56.9°F13.8°C 88% 11.1 mph E17.9 kmh E 15.2 mph24.5 kmh 29.27 in991.2 mb 0.00 in0.0 mm 0.00 in/hr0.0 mm/hr 0.08 in2.0 mm
12:08 PM 60.3°F15.7°C 56.7°F13.7°C 88% 11.7 mph E18.8 kmh E 17.4 mph28.0 kmh 29.27 in991.2 mb 0.00 in0.0 mm 0.00 in/hr0.0 mm/hr 0.08 in2.0 mm
12:07 PM 60.3°F15.7°C 56.7°F13.7°C 88% 12.4 mph E20.0 kmh E 17.4 mph28.0 kmh 29.27 in991.2 mb 0.00 in0.0 mm 0.00 in/hr0.0 mm/hr 0.08 in2.0 mm
12:06 PM 60.1°F15.6°C 56.5°F13.6°C 88% 12.8 mph E20.6 kmh E 17.4 mph28.0 kmh 29.27 in991.2 mb 0.00 in0.0 mm 0.00 in/hr0.0 mm/hr 0.08 in2.0 mm
12:05 PM 60.1°F15.6°C 56.5°F13.6°C 88% 13.0 mph E20.9 kmh E 17.4 mph28.0 kmh 29.27 in991.2 mb 0.00 in0.0 mm 0.00 in/hr0.0 mm/hr 0.08 in2.0 mm
12:04 PM 60.1°F15.6°C 56.5°F13.6°C 88% 12.6 mph E20.3 kmh E 17.4 mph28.0 kmh 29.27 in991.2 mb 0.00 in0.0 mm 0.00 in/hr0.0 mm/hr 0.08 in2.0 mm
12:03 PM 59.9°F15.5°C 56.4°F13.6°C 88% 12.4 mph ENE20.0 kmh ENE 17.4 mph28.0 kmh 29.27 in991.2 mb 0.00 in0.0 mm 0.00 in/hr0.0 mm/hr 0.08 in2.0 mm
12:02 PM 59.9°F15.5°C 56.4°F13.6°C 88% 12.0 mph ENE19.3 kmh ENE 17.4 mph28.0 kmh 29.27 in991.2 mb 0.00 in0.0 mm 0.00 in/hr0.0 mm/hr 0.08 in2.0 mm
12:01 PM 59.9°F15.5°C 56.4°F13.6°C 88% 11.8 mph ENE19.0 kmh ENE 17.4 mph28.0 kmh 29.27 in991.2 mb 0.00 in0.0 mm 0.00 in/hr0.0 mm/hr 0.08 in2.0 mm
12:00 PM 60.1°F15.6°C 56.5°F13.6°C 88% 11.3 mph ENE18.2 kmh ENE 17.4 mph28.0 kmh 29.27 in991.2 mb 0.00 in0.0 mm 0.00 in/hr0.0 mm/hr 0.08 in2.0 mm
11:59 AM 60.1°F15.6°C 56.5°F13.6°C 88% 11.7 mph ENE18.8 kmh ENE 17.4 mph28.0 kmh 29.27 in991.2 mb 0.00 in0.0 mm 0.00 in/hr0.0 mm/hr 0.08 in2.0 mm
11:58 AM 60.3°F15.7°C 57.3°F14.1°C 90% 11.6 mph E18.7 kmh E 17.4 mph28.0 kmh 29.27 in991.2 mb 0.00 in0.0 mm 0.00 in/hr0.0 mm/hr 0.08 in2.0 mm
11:57 AM 60.3°F15.7°C 57.3°F14.1°C 90% 11.3 mph ENE18.2 kmh ENE 15.9 mph25.6 kmh 29.27 in991.2 mb 0.00 in0.0 mm 0.00 in/hr0.0 mm/hr 0.08 in2.0 mm
11:56 AM 60.3°F15.7°C 58.2°F14.6°C 93% 11.0 mph ENE17.7 kmh ENE 15.9 mph25.6 kmh 29.28 in991.5 mb 0.00 in0.0 mm 0.00 in/hr0.0 mm/hr 0.08 in2.0 mm
11:55 AM 60.3°F15.7°C 58.2°F14.6°C 93% 10.8 mph E17.4 kmh E 15.9 mph25.6 kmh 29.28 in991.5 mb 0.00 in0.0 mm 0.00 in/hr0.0 mm/hr 0.08 in2.0 mm
11:54 AM 60.1°F15.6°C 58.4°F14.7°C 94% 11.2 mph ENE18.0 kmh ENE 15.9 mph25.6 kmh 29.27 in991.2 mb 0.00 in0.0 mm 0.00 in/hr0.0 mm/hr 0.08 in2.0 mm
11:53 AM 60.1°F15.6°C 58.4°F14.7°C 94% 11.6 mph ENE18.7 kmh ENE 15.9 mph25.6 kmh 29.28 in991.5 mb 0.00 in0.0 mm 0.00 in/hr0.0 mm/hr 0.08 in2.0 mm
11:52 AM 59.9°F15.5°C 58.2°F14.6°C 94% 12.4 mph ENE20.0 kmh ENE 19.7 mph31.7 kmh 29.27 in991.2 mb 0.00 in0.0 mm 0.00 in/hr0.0 mm/hr 0.08 in2.0 mm
11:51 AM 59.7°F15.4°C 58.0°F14.4°C 94% 12.9 mph ENE20.8 kmh ENE 19.7 mph31.7 kmh 29.27 in991.2 mb 0.00 in0.0 mm 0.00 in/hr0.0 mm/hr 0.08 in2.0 mm
11:50 AM 59.5°F15.3°C 57.8°F14.3°C 94% 13.5 mph ENE21.7 kmh ENE 19.7 mph31.7 kmh 29.27 in991.2 mb 0.00 in0.0 mm 0.00 in/hr0.0 mm/hr 0.08 in2.0 mm
11:49 AM 59.5°F15.3°C 57.8°F14.3°C 94% 13.8 mph ENE22.2 kmh ENE 19.7 mph31.7 kmh 29.28 in991.5 mb 0.00 in0.0 mm 0.00 in/hr0.0 mm/hr 0.08 in2.0 mm
11:48 AM 59.4°F15.2°C 57.6°F14.2°C 94% 13.5 mph ENE21.7 kmh ENE 19.7 mph31.7 kmh 29.28 in991.5 mb 0.00 in0.0 mm 0.00 in/hr0.0 mm/hr 0.08 in2.0 mm
11:47 AM 59.4°F15.2°C 57.6°F14.2°C 94% 13.3 mph ENE21.4 kmh ENE 19.7 mph31.7 kmh 29.27 in991.2 mb 0.00 in0.0 mm 0.00 in/hr0.0 mm/hr 0.08 in2.0 mm
11:46 AM 59.4°F15.2°C 57.9°F14.4°C 95% 13.2 mph ENE21.2 kmh ENE 19.7 mph31.7 kmh 29.28 in991.5 mb 0.00 in0.0 mm 0.00 in/hr0.0 mm/hr 0.08 in2.0 mm
11:45 AM 59.4°F15.2°C 57.9°F14.4°C 95% 13.3 mph ENE21.4 kmh ENE 19.7 mph31.7 kmh 29.28 in991.5 mb 0.00 in0.0 mm 0.00 in/hr0.0 mm/hr 0.08 in2.0 mm
11:44 AM 59.4°F15.2°C 57.9°F14.4°C 95% 13.3 mph E21.4 kmh E 19.7 mph31.7 kmh 29.28 in991.5 mb 0.00 in0.0 mm 0.00 in/hr0.0 mm/hr 0.08 in2.0 mm
11:43 AM 59.4°F15.2°C 57.9°F14.4°C 95% 13.6 mph E21.9 kmh E 19.7 mph31.7 kmh 29.28 in991.5 mb 0.00 in0.0 mm 0.00 in/hr0.0 mm/hr 0.08 in2.0 mm
11:42 AM 59.4°F15.2°C 57.9°F14.4°C 95% 13.6 mph E21.9 kmh E 19.7 mph31.7 kmh 29.28 in991.5 mb 0.00 in0.0 mm 0.00 in/hr0.0 mm/hr 0.08 in2.0 mm
11:41 AM 59.4°F15.2°C 58.2°F14.6°C 96% 13.4 mph E21.6 kmh E 16.8 mph27.0 kmh 29.28 in991.5 mb 0.00 in0.0 mm 0.00 in/hr0.0 mm/hr 0.08 in2.0 mm
11:40 AM 59.4°F15.2°C 58.8°F14.9°C 98% 13.2 mph E21.2 kmh E 16.8 mph27.0 kmh 29.28 in991.5 mb 0.00 in0.0 mm 0.00 in/hr0.0 mm/hr 0.08 in2.0 mm
11:39 AM 59.4°F15.2°C 59.1°F15.1°C 99% 12.9 mph E20.8 kmh E 16.8 mph27.0 kmh 29.28 in991.5 mb 0.00 in0.0 mm 0.00 in/hr0.0 mm/hr 0.08 in2.0 mm
11:38 AM 59.2°F15.1°C 58.9°F14.9°C 99% 13.5 mph E21.7 kmh E 22.1 mph35.6 kmh 29.28 in991.5 mb 0.00 in0.0 mm 0.00 in/hr0.0 mm/hr 0.08 in2.0 mm
11:37 AM 59.2°F15.1°C 58.9°F14.9°C 99% 13.3 mph E21.4 kmh E 22.1 mph35.6 kmh 29.28 in991.5 mb 0.00 in0.0 mm 0.00 in/hr0.0 mm/hr 0.08 in2.0 mm
11:36 AM 58.8°F14.9°C 58.6°F14.8°C 99% 13.6 mph E21.9 kmh E 22.1 mph35.6 kmh 29.28 in991.5 mb 0.00 in0.0 mm 0.00 in/hr0.0 mm/hr 0.08 in2.0 mm
11:35 AM 58.6°F14.8°C 58.4°F14.7°C 99% 13.9 mph E22.4 kmh E 22.1 mph35.6 kmh 29.28 in991.5 mb 0.00 in0.0 mm 0.00 in/hr0.0 mm/hr 0.08 in2.0 mm
11:34 AM 58.6°F14.8°C 58.4°F14.7°C 99% 14.0 mph E22.5 kmh E 22.1 mph35.6 kmh 29.28 in991.5 mb 0.01 in0.3 mm 0.00 in/hr0.0 mm/hr 0.08 in2.0 mm
11:33 AM 58.5°F14.7°C 58.2°F14.6°C 99% 13.6 mph E21.9 kmh E 22.1 mph35.6 kmh 29.28 in991.5 mb 0.01 in0.3 mm 0.00 in/hr0.0 mm/hr 0.08 in2.0 mm
11:32 AM 58.3°F14.6°C 58.0°F14.4°C 99% 12.9 mph E20.8 kmh E 22.1 mph35.6 kmh 29.28 in991.5 mb 0.01 in0.3 mm 0.00 in/hr0.0 mm/hr 0.08 in2.0 mm
11:31 AM 58.1°F14.5°C 57.8°F14.3°C 99% 12.5 mph E20.1 kmh E 22.1 mph35.6 kmh 29.28 in991.5 mb 0.01 in0.3 mm 0.00 in/hr0.0 mm/hr 0.08 in2.0 mm
11:30 AM 57.7°F14.3°C 57.5°F14.2°C 99% 12.4 mph E20.0 kmh E 22.1 mph35.6 kmh 29.28 in991.5 mb 0.01 in0.3 mm 0.00 in/hr0.0 mm/hr 0.08 in2.0 mm
11:29 AM 57.6°F14.2°C 57.3°F14.1°C 99% 12.2 mph E19.6 kmh E 22.1 mph35.6 kmh 29.28 in991.5 mb 0.01 in0.3 mm 0.00 in/hr0.0 mm/hr 0.08 in2.0 mm
11:28 AM 57.0°F13.9°C 56.8°F13.8°C 99% 11.1 mph E17.9 kmh E 15.2 mph24.5 kmh 29.28 in991.5 mb 0.01 in0.3 mm 0.00 in/hr0.0 mm/hr 0.08 in2.0 mm
11:27 AM 56.7°F13.7°C 56.4°F13.6°C 99% 11.0 mph E17.7 kmh E 15.2 mph24.5 kmh 29.28 in991.5 mb 0.01 in0.3 mm 0.00 in/hr0.0 mm/hr 0.08 in2.0 mm
11:26 AM 56.5°F13.6°C 56.2°F13.4°C 99% 11.2 mph E18.0 kmh E 15.2 mph24.5 kmh 29.28 in991.5 mb 0.01 in0.3 mm 0.00 in/hr0.0 mm/hr 0.08 in2.0 mm
11:25 AM 56.3°F13.5°C 56.0°F13.3°C 99% 11.3 mph E18.2 kmh E 17.4 mph28.0 kmh 29.28 in991.5 mb 0.01 in0.3 mm 0.00 in/hr0.0 mm/hr 0.08 in2.0 mm
11:24 AM 56.1°F13.4°C 55.9°F13.3°C 99% 11.7 mph E18.8 kmh E 17.4 mph28.0 kmh 29.28 in991.5 mb 0.01 in0.3 mm 0.00 in/hr0.0 mm/hr 0.08 in2.0 mm
11:23 AM 56.1°F13.4°C 55.9°F13.3°C 99% 11.9 mph E19.2 kmh E 17.4 mph28.0 kmh 29.28 in991.5 mb 0.01 in0.3 mm 0.00 in/hr0.0 mm/hr 0.08 in2.0 mm
11:22 AM 55.8°F13.2°C 55.5°F13.1°C 99% 12.7 mph E20.4 kmh E 19.0 mph30.6 kmh 29.28 in991.5 mb 0.01 in0.3 mm 0.00 in/hr0.0 mm/hr 0.08 in2.0 mm
11:21 AM 55.9°F13.3°C 55.7°F13.2°C 99% 12.5 mph E20.1 kmh E 19.0 mph30.6 kmh 29.28 in991.5 mb 0.01 in0.3 mm 0.00 in/hr0.0 mm/hr 0.08 in2.0 mm
11:20 AM 55.9°F13.3°C 55.7°F13.2°C 99% 12.4 mph E20.0 kmh E 19.0 mph30.6 kmh 29.28 in991.5 mb 0.01 in0.3 mm 0.00 in/hr0.0 mm/hr 0.08 in2.0 mm
11:19 AM 55.8°F13.2°C 55.5°F13.1°C 99% 12.3 mph E19.8 kmh E 19.0 mph30.6 kmh 29.28 in991.5 mb 0.01 in0.3 mm 0.00 in/hr0.0 mm/hr 0.08 in2.0 mm
11:18 AM 55.8°F13.2°C 55.5°F13.1°C 99% 12.5 mph E20.1 kmh E 19.0 mph30.6 kmh 29.28 in991.5 mb 0.01 in0.3 mm 0.00 in/hr0.0 mm/hr 0.08 in2.0 mm
11:17 AM 55.8°F13.2°C 55.5°F13.1°C 99% 12.6 mph E20.3 kmh E 19.0 mph30.6 kmh 29.28 in991.5 mb 0.01 in0.3 mm 0.00 in/hr0.0 mm/hr 0.08 in2.0 mm
11:16 AM 55.8°F13.2°C 55.5°F13.1°C 99% 12.3 mph E19.8 kmh E 19.0 mph30.6 kmh 29.28 in991.5 mb 0.01 in0.3 mm 0.00 in/hr0.0 mm/hr 0.08 in2.0 mm
11:15 AM 55.8°F13.2°C 55.5°F13.1°C 99% 11.9 mph E19.2 kmh E 19.0 mph30.6 kmh 29.28 in991.5 mb 0.01 in0.3 mm 0.00 in/hr0.0 mm/hr 0.08 in2.0 mm
11:14 AM 55.8°F13.2°C 55.5°F13.1°C 99% 10.8 mph E17.4 kmh E 19.0 mph30.6 kmh 29.28 in991.5 mb 0.01 in0.3 mm 0.00 in/hr0.0 mm/hr 0.08 in2.0 mm
11:13 AM 55.6°F13.1°C 55.3°F12.9°C 99% 10.2 mph E16.4 kmh E 19.0 mph30.6 kmh 29.28 in991.5 mb 0.01 in0.3 mm 0.00 in/hr0.0 mm/hr 0.08 in2.0 mm
11:12 AM 55.6°F13.1°C 55.3°F12.9°C 99% 9.4 mph E15.1 kmh E 13.0 mph20.9 kmh 29.28 in991.5 mb 0.01 in0.3 mm 0.00 in/hr0.0 mm/hr 0.08 in2.0 mm
11:11 AM 55.6°F13.1°C 55.3°F12.9°C 99% 9.5 mph E15.3 kmh E 13.0 mph20.9 kmh 29.28 in991.5 mb 0.01 in0.3 mm 0.00 in/hr0.0 mm/hr 0.08 in2.0 mm
11:10 AM 55.4°F13.0°C 55.1°F12.8°C 99% 9.3 mph E15.0 kmh E 13.0 mph20.9 kmh 29.28 in991.5 mb 0.01 in0.3 mm 0.00 in/hr0.0 mm/hr 0.08 in2.0 mm
11:09 AM 55.4°F13.0°C 55.1°F12.8°C 99% 9.1 mph ENE14.6 kmh ENE 13.0 mph20.9 kmh 29.28 in991.5 mb 0.01 in0.3 mm 0.00 in/hr0.0 mm/hr 0.08 in2.0 mm
11:08 AM 55.4°F13.0°C 55.1°F12.8°C 99% 9.1 mph ENE14.6 kmh ENE 13.0 mph20.9 kmh 29.29 in991.9 mb 0.01 in0.3 mm 0.00 in/hr0.0 mm/hr 0.08 in2.0 mm
11:07 AM 55.4°F13.0°C 55.1°F12.8°C 99% 8.9 mph ENE14.3 kmh ENE 13.0 mph20.9 kmh 29.28 in991.5 mb 0.01 in0.3 mm 0.00 in/hr0.0 mm/hr 0.08 in2.0 mm
11:06 AM 55.4°F13.0°C 55.1°F12.8°C 99% 8.6 mph E13.8 kmh E 13.0 mph20.9 kmh 29.29 in991.9 mb 0.01 in0.3 mm 0.00 in/hr0.0 mm/hr 0.08 in2.0 mm
11:05 AM 55.2°F12.9°C 55.0°F12.8°C 99% 8.4 mph E13.5 kmh E 12.1 mph19.5 kmh 29.29 in991.9 mb 0.01 in0.3 mm 0.00 in/hr0.0 mm/hr 0.08 in2.0 mm
11:04 AM 55.2°F12.9°C 55.0°F12.8°C 99% 8.7 mph E14.0 kmh E 12.1 mph19.5 kmh 29.29 in991.9 mb 0.01 in0.3 mm 0.00 in/hr0.0 mm/hr 0.08 in2.0 mm
11:03 AM 55.2°F12.9°C 55.0°F12.8°C 99% 9.0 mph ESE14.5 kmh ESE 12.1 mph19.5 kmh 29.29 in991.9 mb 0.01 in0.3 mm 0.00 in/hr0.0 mm/hr 0.08 in2.0 mm
11:02 AM 55.0°F12.8°C 54.8°F12.7°C 99% 9.4 mph ESE15.1 kmh ESE 15.9 mph25.6 kmh 29.29 in991.9 mb 0.01 in0.3 mm 0.00 in/hr0.0 mm/hr 0.08 in2.0 mm
11:01 AM 55.0°F12.8°C 54.8°F12.7°C 99% 9.4 mph E15.1 kmh E 15.9 mph25.6 kmh 29.29 in991.9 mb 0.01 in0.3 mm 0.00 in/hr0.0 mm/hr 0.08 in2.0 mm
11:00 AM 55.0°F12.8°C 54.8°F12.7°C 99% 9.7 mph ESE15.6 kmh ESE 15.9 mph25.6 kmh 29.29 in991.9 mb 0.01 in0.3 mm 0.00 in/hr0.0 mm/hr 0.08 in2.0 mm
10:59 AM 55.0°F12.8°C 54.8°F12.7°C 99% 10.1 mph ESE16.3 kmh ESE 15.9 mph25.6 kmh 29.29 in991.9 mb 0.02 in0.5 mm 0.00 in/hr0.0 mm/hr 0.08 in2.0 mm
10:58 AM 54.9°F12.7°C 54.6°F12.6°C 99% 10.1 mph ESE16.3 kmh ESE 15.9 mph25.6 kmh 29.29 in991.9 mb 0.02 in0.5 mm 0.00 in/hr0.0 mm/hr 0.08 in2.0 mm
10:57 AM 54.9°F12.7°C 54.6°F12.6°C 99% 10.0 mph ESE16.1 kmh ESE 15.9 mph25.6 kmh 29.29 in991.9 mb 0.02 in0.5 mm 0.00 in/hr0.0 mm/hr 0.08 in2.0 mm
10:56 AM 54.9°F12.7°C 54.6°F12.6°C 99% 10.0 mph ESE16.1 kmh ESE 15.9 mph25.6 kmh 29.29 in991.9 mb 0.02 in0.5 mm 0.00 in/hr0.0 mm/hr 0.08 in2.0 mm
10:55 AM 54.9°F12.7°C 54.6°F12.6°C 99% 9.8 mph ESE15.8 kmh ESE 15.9 mph25.6 kmh 29.29 in991.9 mb 0.02 in0.5 mm 0.00 in/hr0.0 mm/hr 0.08 in2.0 mm
10:54 AM 54.9°F12.7°C 54.6°F12.6°C 99% 9.9 mph E15.9 kmh E 15.9 mph25.6 kmh 29.29 in991.9 mb 0.02 in0.5 mm 0.00 in/hr0.0 mm/hr 0.08 in2.0 mm
10:53 AM 54.9°F12.7°C 54.6°F12.6°C 99% 10.1 mph ESE16.3 kmh ESE 15.9 mph25.6 kmh 29.29 in991.9 mb 0.02 in0.5 mm 0.00 in/hr0.0 mm/hr 0.08 in2.0 mm
10:52 AM 54.9°F12.7°C 54.6°F12.6°C 99% 9.6 mph ESE15.4 kmh ESE 13.0 mph20.9 kmh 29.29 in991.9 mb 0.02 in0.5 mm 0.00 in/hr0.0 mm/hr 0.08 in2.0 mm
10:51 AM 54.7°F12.6°C 54.4°F12.4°C 99% 9.4 mph ESE15.1 kmh ESE 13.0 mph20.9 kmh 29.29 in991.9 mb 0.04 in1.0 mm 0.00 in/hr0.0 mm/hr 0.08 in2.0 mm
10:50 AM 54.7°F12.6°C 54.4°F12.4°C 99% 9.2 mph ESE14.8 kmh ESE 13.0 mph20.9 kmh 29.29 in991.9 mb 0.04 in1.0 mm 0.00 in/hr0.0 mm/hr 0.08 in2.0 mm
10:49 AM 54.7°F12.6°C 54.4°F12.4°C 99% 9.0 mph ESE14.5 kmh ESE 12.1 mph19.5 kmh 29.29 in991.9 mb 0.04 in1.0 mm 0.00 in/hr0.0 mm/hr 0.08 in2.0 mm
10:48 AM 54.7°F12.6°C 54.4°F12.4°C 99% 9.1 mph ESE14.6 kmh ESE 12.1 mph19.5 kmh 29.29 in991.9 mb 0.04 in1.0 mm 0.00 in/hr0.0 mm/hr 0.08 in2.0 mm
10:47 AM 54.7°F12.6°C 54.4°F12.4°C 99% 9.6 mph ESE15.4 kmh ESE 12.1 mph19.5 kmh 29.29 in991.9 mb 0.04 in1.0 mm 0.00 in/hr0.0 mm/hr 0.08 in2.0 mm
10:46 AM 54.7°F12.6°C 54.4°F12.4°C 99% 9.9 mph E15.9 kmh E 12.1 mph19.5 kmh 29.29 in991.9 mb 0.04 in1.0 mm 0.00 in/hr0.0 mm/hr 0.08 in2.0 mm
10:45 AM 54.7°F12.6°C 54.4°F12.4°C 99% 10.1 mph E16.3 kmh E 12.1 mph19.5 kmh 29.29 in991.9 mb 0.05 in1.3 mm 0.00 in/hr0.0 mm/hr 0.08 in2.0 mm
10:44 AM 54.5°F12.5°C 54.2°F12.3°C 99% 9.8 mph E15.8 kmh E 12.1 mph19.5 kmh 29.29 in991.9 mb 0.05 in1.3 mm 0.00 in/hr0.0 mm/hr 0.08 in2.0 mm
10:43 AM 54.5°F12.5°C 54.2°F12.3°C 99% 9.2 mph E14.8 kmh E 12.1 mph19.5 kmh 29.29 in991.9 mb 0.05 in1.3 mm 0.00 in/hr0.0 mm/hr 0.08 in2.0 mm
10:42 AM 54.5°F12.5°C 54.2°F12.3°C 99% 8.9 mph E14.3 kmh E 12.1 mph19.5 kmh 29.29 in991.9 mb 0.05 in1.3 mm 0.00 in/hr0.0 mm/hr 0.08 in2.0 mm
10:41 AM 54.5°F12.5°C 54.2°F12.3°C 99% 9.0 mph E14.5 kmh E 12.1 mph19.5 kmh 29.30 in992.2 mb 0.05 in1.3 mm 0.00 in/hr0.0 mm/hr 0.08 in2.0 mm
10:40 AM 54.5°F12.5°C 54.2°F12.3°C 99% 8.8 mph ESE14.2 kmh ESE 12.1 mph19.5 kmh 29.30 in992.2 mb 0.05 in1.3 mm 0.00 in/hr0.0 mm/hr 0.08 in2.0 mm
10:39 AM 54.5°F12.5°C 54.2°F12.3°C 99% 8.4 mph ESE13.5 kmh ESE 12.1 mph19.5 kmh 29.30 in992.2 mb 0.05 in1.3 mm 0.00 in/hr0.0 mm/hr 0.08 in2.0 mm
10:38 AM 54.3°F12.4°C 54.1°F12.3°C 99% 8.0 mph ESE12.9 kmh ESE 12.1 mph19.5 kmh 29.30 in992.2 mb 0.05 in1.3 mm 0.00 in/hr0.0 mm/hr 0.08 in2.0 mm
10:37 AM 54.3°F12.4°C 54.1°F12.3°C 99% 7.5 mph ESE12.1 kmh ESE 12.1 mph19.5 kmh 29.30 in992.2 mb 0.05 in1.3 mm 0.00 in/hr0.0 mm/hr 0.08 in2.0 mm
10:36 AM 54.3°F12.4°C 54.1°F12.3°C 99% 7.1 mph ESE11.4 kmh ESE 12.1 mph19.5 kmh 29.30 in992.2 mb 0.06 in1.5 mm 0.60 in/hr15.2 mm/hr 0.08 in2.0 mm
10:35 AM 54.3°F12.4°C 54.1°F12.3°C 99% 6.8 mph ESE10.9 kmh ESE 8.3 mph13.4 kmh 29.30 in992.2 mb 0.05 in1.3 mm 0.00 in/hr0.0 mm/hr 0.07 in1.8 mm
10:34 AM 54.1°F12.3°C 53.9°F12.2°C 99% 6.9 mph ESE11.1 kmh ESE 8.3 mph13.4 kmh 29.30 in992.2 mb 0.05 in1.3 mm 0.00 in/hr0.0 mm/hr 0.07 in1.8 mm
10:33 AM 54.1°F12.3°C 53.9°F12.2°C 99% 7.0 mph ESE11.3 kmh ESE 8.3 mph13.4 kmh 29.30 in992.2 mb 0.05 in1.3 mm 0.00 in/hr0.0 mm/hr 0.07 in1.8 mm
10:32 AM 54.0°F12.2°C 53.7°F12.1°C 99% 6.7 mph ESE10.8 kmh ESE 8.3 mph13.4 kmh 29.30 in992.2 mb 0.05 in1.3 mm 0.00 in/hr0.0 mm/hr 0.07 in1.8 mm
10:31 AM 54.0°F12.2°C 53.7°F12.1°C 99% 6.5 mph ESE10.5 kmh ESE 8.3 mph13.4 kmh 29.30 in992.2 mb 0.05 in1.3 mm 0.00 in/hr0.0 mm/hr 0.07 in1.8 mm
10:30 AM 54.0°F12.2°C 53.7°F12.1°C 99% 6.6 mph E10.6 kmh E 8.3 mph13.4 kmh 29.30 in992.2 mb 0.05 in1.3 mm 0.00 in/hr0.0 mm/hr 0.07 in1.8 mm
10:29 AM 53.8°F12.1°C 53.5°F11.9°C 99% 6.8 mph E10.9 kmh E 8.3 mph13.4 kmh 29.30 in992.2 mb 0.05 in1.3 mm 0.00 in/hr0.0 mm/hr 0.07 in1.8 mm
10:28 AM 53.8°F12.1°C 53.5°F11.9°C 99% 6.8 mph E10.9 kmh E 8.3 mph13.4 kmh 29.30 in992.2 mb 0.05 in1.3 mm 0.00 in/hr0.0 mm/hr 0.07 in1.8 mm
10:27 AM 53.8°F12.1°C 53.5°F11.9°C 99% 6.8 mph E10.9 kmh E 8.3 mph13.4 kmh 29.31 in992.6 mb 0.05 in1.3 mm 0.00 in/hr0.0 mm/hr 0.07 in1.8 mm
10:26 AM 53.8°F12.1°C 53.5°F11.9°C 99% 6.7 mph E10.8 kmh E 8.3 mph13.4 kmh 29.31 in992.6 mb 0.05 in1.3 mm 0.00 in/hr0.0 mm/hr 0.07 in1.8 mm
10:25 AM 53.6°F12.0°C 53.3°F11.8°C 99% 6.6 mph E10.6 kmh E 8.3 mph13.4 kmh 29.31 in992.6 mb 0.05 in1.3 mm 0.00 in/hr0.0 mm/hr 0.07 in1.8 mm
10:24 AM 53.6°F12.0°C 53.3°F11.8°C 99% 6.5 mph E10.5 kmh E 7.6 mph12.2 kmh 29.31 in992.6 mb 0.06 in1.5 mm 0.00 in/hr0.0 mm/hr 0.07 in1.8 mm
10:23 AM 53.6°F12.0°C 53.3°F11.8°C 99% 6.2 mph E10.0 kmh E 7.6 mph12.2 kmh 29.31 in992.6 mb 0.06 in1.5 mm 0.00 in/hr0.0 mm/hr 0.07 in1.8 mm
10:22 AM 53.6°F12.0°C 53.3°F11.8°C 99% 6.7 mph E10.8 kmh E 9.8 mph15.8 kmh 29.31 in992.6 mb 0.06 in1.5 mm 0.00 in/hr0.0 mm/hr 0.07 in1.8 mm
10:21 AM 53.6°F12.0°C 53.3°F11.8°C 99% 6.8 mph E10.9 kmh E 9.8 mph15.8 kmh 29.31 in992.6 mb 0.06 in1.5 mm 0.00 in/hr0.0 mm/hr 0.07 in1.8 mm
10:20 AM 53.4°F11.9°C 53.2°F11.8°C 99% 6.7 mph E10.8 kmh E 9.8 mph15.8 kmh 29.31 in992.6 mb 0.06 in1.5 mm 0.00 in/hr0.0 mm/hr 0.07 in1.8 mm
10:19 AM 53.4°F11.9°C 53.2°F11.8°C 99% 6.6 mph E10.6 kmh E 9.8 mph15.8 kmh 29.31 in992.6 mb 0.06 in1.5 mm 0.00 in/hr0.0 mm/hr 0.07 in1.8 mm
10:18 AM 53.4°F11.9°C 53.2°F11.8°C 99% 6.4 mph E10.3 kmh E 9.8 mph15.8 kmh 29.31 in992.6 mb 0.06 in1.5 mm 0.00 in/hr0.0 mm/hr 0.07 in1.8 mm
10:17 AM 53.4°F11.9°C 53.2°F11.8°C 99% 6.2 mph E10.0 kmh E 9.8 mph15.8 kmh 29.31 in992.6 mb 0.06 in1.5 mm 0.00 in/hr0.0 mm/hr 0.07 in1.8 mm
10:16 AM 53.4°F11.9°C 53.2°F11.8°C 99% 6.3 mph E10.1 kmh E 9.8 mph15.8 kmh 29.31 in992.6 mb 0.06 in1.5 mm 0.00 in/hr0.0 mm/hr 0.07 in1.8 mm
10:15 AM 53.2°F11.8°C 53.0°F11.7°C 99% 6.6 mph E10.6 kmh E 11.4 mph18.3 kmh 29.31 in992.6 mb 0.06 in1.5 mm 0.00 in/hr0.0 mm/hr 0.07 in1.8 mm
10:14 AM 53.2°F11.8°C 53.0°F11.7°C 99% 6.9 mph E11.1 kmh E 11.4 mph18.3 kmh 29.31 in992.6 mb 0.06 in1.5 mm 0.00 in/hr0.0 mm/hr 0.07 in1.8 mm
10:13 AM 53.2°F11.8°C 53.0°F11.7°C 99% 7.2 mph E11.6 kmh E 11.4 mph18.3 kmh 29.32 in992.9 mb 0.06 in1.5 mm 0.00 in/hr0.0 mm/hr 0.07 in1.8 mm
10:12 AM 53.2°F11.8°C 53.0°F11.7°C 99% 7.2 mph ENE11.6 kmh ENE 11.4 mph18.3 kmh 29.32 in992.9 mb 0.06 in1.5 mm 0.00 in/hr0.0 mm/hr 0.07 in1.8 mm
10:11 AM 53.2°F11.8°C 53.0°F11.7°C 99% 7.4 mph ENE11.9 kmh ENE 11.4 mph18.3 kmh 29.31 in992.6 mb 0.06 in1.5 mm 0.00 in/hr0.0 mm/hr 0.07 in1.8 mm
10:10 AM 53.2°F11.8°C 53.0°F11.7°C 99% 7.4 mph E11.9 kmh E 11.4 mph18.3 kmh 29.31 in992.6 mb 0.06 in1.5 mm 0.00 in/hr0.0 mm/hr 0.07 in1.8 mm
10:09 AM 53.2°F11.8°C 53.0°F11.7°C 99% 7.7 mph E12.4 kmh E 11.4 mph18.3 kmh 29.31 in992.6 mb 0.06 in1.5 mm 0.00 in/hr0.0 mm/hr 0.07 in1.8 mm
10:08 AM 53.2°F11.8°C 53.0°F11.7°C 99% 8.2 mph E13.2 kmh E 11.4 mph18.3 kmh 29.31 in992.6 mb 0.06 in1.5 mm 0.00 in/hr0.0 mm/hr 0.07 in1.8 mm
10:07 AM 53.2°F11.8°C 53.0°F11.7°C 99% 8.4 mph E13.5 kmh E 11.4 mph18.3 kmh 29.32 in992.9 mb 0.06 in1.5 mm 0.00 in/hr0.0 mm/hr 0.07 in1.8 mm
10:06 AM 53.2°F11.8°C 53.0°F11.7°C 99% 8.3 mph E13.4 kmh E 11.4 mph18.3 kmh 29.31 in992.6 mb 0.06 in1.5 mm 0.00 in/hr0.0 mm/hr 0.07 in1.8 mm
10:05 AM 53.2°F11.8°C 53.0°F11.7°C 99% 7.7 mph E12.4 kmh E 11.4 mph18.3 kmh 29.32 in992.9 mb 0.06 in1.5 mm 0.00 in/hr0.0 mm/hr 0.07 in1.8 mm
10:04 AM 53.2°F11.8°C 53.0°F11.7°C 99% 7.1 mph E11.4 kmh E 10.7 mph17.2 kmh 29.32 in992.9 mb 0.06 in1.5 mm 0.00 in/hr0.0 mm/hr 0.07 in1.8 mm
10:03 AM 53.2°F11.8°C 53.0°F11.7°C 99% 6.7 mph E10.8 kmh E 10.7 mph17.2 kmh 29.32 in992.9 mb 0.07 in1.8 mm 0.00 in/hr0.0 mm/hr 0.07 in1.8 mm
10:02 AM 53.2°F11.8°C 53.0°F11.7°C 99% 6.2 mph E10.0 kmh E 10.7 mph17.2 kmh 29.32 in992.9 mb 0.07 in1.8 mm 0.00 in/hr0.0 mm/hr 0.07 in1.8 mm
10:01 AM 53.2°F11.8°C 53.0°F11.7°C 99% 6.0 mph E9.7 kmh E 9.8 mph15.8 kmh 29.32 in992.9 mb 0.07 in1.8 mm 0.60 in/hr15.2 mm/hr 0.07 in1.8 mm
10:00 AM 53.2°F11.8°C 53.0°F11.7°C 99% 6.1 mph E9.8 kmh E 9.8 mph15.8 kmh 29.32 in992.9 mb 0.06 in1.5 mm 0.00 in/hr0.0 mm/hr 0.06 in1.5 mm
09:59 AM 53.2°F11.8°C 53.0°F11.7°C 99% 5.8 mph E9.3 kmh E 9.8 mph15.8 kmh 29.32 in992.9 mb 0.06 in1.5 mm 0.00 in/hr0.0 mm/hr 0.06 in1.5 mm
09:58 AM 53.2°F11.8°C 53.0°F11.7°C 99% 5.4 mph E8.7 kmh E 9.8 mph15.8 kmh 29.32 in992.9 mb 0.06 in1.5 mm 0.00 in/hr0.0 mm/hr 0.06 in1.5 mm
09:57 AM 53.2°F11.8°C 53.0°F11.7°C 99% 5.0 mph E8.0 kmh E 8.3 mph13.4 kmh 29.32 in992.9 mb 0.06 in1.5 mm 0.00 in/hr0.0 mm/hr 0.06 in1.5 mm
09:56 AM 53.2°F11.8°C 53.0°F11.7°C 99% 5.1 mph E8.2 kmh E 8.3 mph13.4 kmh 29.32 in992.9 mb 0.06 in1.5 mm 0.00 in/hr0.0 mm/hr 0.06 in1.5 mm
09:55 AM 53.2°F11.8°C 53.0°F11.7°C 99% 5.4 mph E8.7 kmh E 8.3 mph13.4 kmh 29.32 in992.9 mb 0.06 in1.5 mm 0.00 in/hr0.0 mm/hr 0.06 in1.5 mm
09:54 AM 53.2°F11.8°C 53.0°F11.7°C 99% 5.8 mph ENE9.3 kmh ENE 8.3 mph13.4 kmh 29.32 in992.9 mb 0.06 in1.5 mm 0.00 in/hr0.0 mm/hr 0.06 in1.5 mm
09:53 AM 53.2°F11.8°C 53.0°F11.7°C 99% 6.3 mph ENE10.1 kmh ENE 8.3 mph13.4 kmh 29.32 in992.9 mb 0.06 in1.5 mm 0.00 in/hr0.0 mm/hr 0.06 in1.5 mm
09:52 AM 53.2°F11.8°C 53.0°F11.7°C 99% 6.8 mph ENE10.9 kmh ENE 8.3 mph13.4 kmh 29.31 in992.6 mb 0.06 in1.5 mm 0.60 in/hr15.2 mm/hr 0.06 in1.5 mm
09:51 AM 53.2°F11.8°C 53.0°F11.7°C 99% 7.1 mph ENE11.4 kmh ENE 12.1 mph19.5 kmh 29.32 in992.9 mb 0.05 in1.3 mm 0.00 in/hr0.0 mm/hr 0.05 in1.3 mm
09:50 AM 53.2°F11.8°C 53.0°F11.7°C 99% 7.2 mph ENE11.6 kmh ENE 12.1 mph19.5 kmh 29.31 in992.6 mb 0.05 in1.3 mm 0.00 in/hr0.0 mm/hr 0.05 in1.3 mm
09:49 AM 53.2°F11.8°C 53.0°F11.7°C 99% 7.5 mph ENE12.1 kmh ENE 12.1 mph19.5 kmh 29.32 in992.9 mb 0.05 in1.3 mm 0.00 in/hr0.0 mm/hr 0.05 in1.3 mm
09:48 AM 53.4°F11.9°C 53.2°F11.8°C 99% 7.6 mph NE12.2 kmh NE 12.1 mph19.5 kmh 29.31 in992.6 mb 0.05 in1.3 mm 0.00 in/hr0.0 mm/hr 0.05 in1.3 mm
09:47 AM 53.4°F11.9°C 53.2°F11.8°C 99% 8.0 mph NE12.9 kmh NE 12.1 mph19.5 kmh 29.32 in992.9 mb 0.05 in1.3 mm 0.60 in/hr15.2 mm/hr 0.05 in1.3 mm
09:46 AM 53.4°F11.9°C 53.2°F11.8°C 99% 8.1 mph NE13.0 kmh NE 12.1 mph19.5 kmh 29.32 in992.9 mb 0.04 in1.0 mm 0.00 in/hr0.0 mm/hr 0.04 in1.0 mm
09:45 AM 53.4°F11.9°C 53.2°F11.8°C 99% 7.9 mph ENE12.7 kmh ENE 12.1 mph19.5 kmh 29.31 in992.6 mb 0.04 in1.0 mm 0.00 in/hr0.0 mm/hr 0.04 in1.0 mm
09:44 AM 53.4°F11.9°C 53.2°F11.8°C 99% 8.0 mph ENE12.9 kmh ENE 12.1 mph19.5 kmh 29.32 in992.9 mb 0.04 in1.0 mm 0.00 in/hr0.0 mm/hr 0.04 in1.0 mm
09:43 AM 53.4°F11.9°C 53.2°F11.8°C 99% 7.9 mph ENE12.7 kmh ENE 12.1 mph19.5 kmh 29.32 in992.9 mb 0.04 in1.0 mm 0.00 in/hr0.0 mm/hr 0.04 in1.0 mm
09:42 AM 53.4°F11.9°C 53.2°F11.8°C 99% 7.8 mph E12.6 kmh E 12.1 mph19.5 kmh 29.32 in992.9 mb 0.04 in1.0 mm 0.00 in/hr0.0 mm/hr 0.04 in1.0 mm
09:41 AM 53.4°F11.9°C 53.2°F11.8°C 99% 7.6 mph E12.2 kmh E 12.1 mph19.5 kmh 29.32 in992.9 mb 0.04 in1.0 mm 0.00 in/hr0.0 mm/hr 0.04 in1.0 mm
09:40 AM 53.6°F12.0°C 53.3°F11.8°C 99% 7.8 mph E12.6 kmh E 13.6 mph21.9 kmh 29.32 in992.9 mb 0.04 in1.0 mm 0.00 in/hr0.0 mm/hr 0.04 in1.0 mm
09:39 AM 53.6°F12.0°C 53.3°F11.8°C 99% 8.3 mph E13.4 kmh E 13.6 mph21.9 kmh 29.32 in992.9 mb 0.04 in1.0 mm 0.00 in/hr0.0 mm/hr 0.04 in1.0 mm
09:38 AM 53.6°F12.0°C 53.3°F11.8°C 99% 8.9 mph E14.3 kmh E 13.6 mph21.9 kmh 29.32 in992.9 mb 0.04 in1.0 mm 0.00 in/hr0.0 mm/hr 0.04 in1.0 mm
09:37 AM 53.6°F12.0°C 53.3°F11.8°C 99% 8.6 mph E13.8 kmh E 13.6 mph21.9 kmh 29.32 in992.9 mb 0.04 in1.0 mm 1.20 in/hr30.5 mm/hr 0.04 in1.0 mm
09:36 AM 53.6°F12.0°C 53.3°F11.8°C 99% 8.5 mph E13.7 kmh E 13.6 mph21.9 kmh 29.32 in992.9 mb 0.02 in0.5 mm 0.00 in/hr0.0 mm/hr 0.02 in0.5 mm
09:35 AM 53.6°F12.0°C 53.3°F11.8°C 99% 8.3 mph E13.4 kmh E 13.6 mph21.9 kmh 29.32 in992.9 mb 0.02 in0.5 mm 0.00 in/hr0.0 mm/hr 0.02 in0.5 mm
09:34 AM 53.6°F12.0°C 53.3°F11.8°C 99% 7.8 mph E12.6 kmh E 13.6 mph21.9 kmh 29.32 in992.9 mb 0.02 in0.5 mm 0.00 in/hr0.0 mm/hr 0.02 in0.5 mm
09:33 AM 53.8°F12.1°C 53.5°F11.9°C 99% 7.6 mph E12.2 kmh E 13.6 mph21.9 kmh 29.32 in992.9 mb 0.02 in0.5 mm 0.00 in/hr0.0 mm/hr 0.02 in0.5 mm
09:32 AM 53.8°F12.1°C 53.5°F11.9°C 99% 7.3 mph E11.7 kmh E 13.6 mph21.9 kmh 29.32 in992.9 mb 0.02 in0.5 mm 0.00 in/hr0.0 mm/hr 0.02 in0.5 mm
09:31 AM 53.8°F12.1°C 53.5°F11.9°C 99% 7.0 mph E11.3 kmh E 13.6 mph21.9 kmh 29.32 in992.9 mb 0.02 in0.5 mm 0.00 in/hr0.0 mm/hr 0.02 in0.5 mm
09:30 AM 53.8°F12.1°C 53.5°F11.9°C 99% 6.4 mph ENE10.3 kmh ENE 13.6 mph21.9 kmh 29.32 in992.9 mb 0.02 in0.5 mm 0.00 in/hr0.0 mm/hr 0.02 in0.5 mm
09:29 AM 54.0°F12.2°C 53.7°F12.1°C 99% 5.4 mph ENE8.7 kmh ENE 13.6 mph21.9 kmh 29.32 in992.9 mb 0.02 in0.5 mm 0.00 in/hr0.0 mm/hr 0.02 in0.5 mm
09:28 AM 54.0°F12.2°C 53.7°F12.1°C 99% 4.6 mph NE7.4 kmh NE 8.3 mph13.4 kmh 29.32 in992.9 mb 0.02 in0.5 mm 0.00 in/hr0.0 mm/hr 0.02 in0.5 mm
09:27 AM 54.0°F12.2°C 53.7°F12.1°C 99% 4.9 mph NE7.9 kmh NE 8.3 mph13.4 kmh 29.32 in992.9 mb 0.02 in0.5 mm 0.00 in/hr0.0 mm/hr 0.02 in0.5 mm
09:26 AM 54.0°F12.2°C 53.7°F12.1°C 99% 5.1 mph ENE8.2 kmh ENE 8.3 mph13.4 kmh 29.32 in992.9 mb 0.02 in0.5 mm 0.00 in/hr0.0 mm/hr 0.02 in0.5 mm
09:25 AM 54.0°F12.2°C 53.7°F12.1°C 99% 5.2 mph ENE8.4 kmh ENE 8.3 mph13.4 kmh 29.32 in992.9 mb 0.02 in0.5 mm 0.60 in/hr15.2 mm/hr 0.02 in0.5 mm
09:24 AM 54.0°F12.2°C 53.7°F12.1°C 99% 5.3 mph ENE8.5 kmh ENE 8.3 mph13.4 kmh 29.32 in992.9 mb 0.01 in0.3 mm 0.00 in/hr0.0 mm/hr 0.01 in0.3 mm
09:23 AM 54.0°F12.2°C 53.7°F12.1°C 99% 5.3 mph ENE8.5 kmh ENE 8.3 mph13.4 kmh 29.32 in992.9 mb 0.01 in0.3 mm 0.00 in/hr0.0 mm/hr 0.01 in0.3 mm
09:22 AM 54.1°F12.3°C 53.9°F12.2°C 99% 5.3 mph ENE8.5 kmh ENE 8.3 mph13.4 kmh 29.32 in992.9 mb 0.01 in0.3 mm 0.00 in/hr0.0 mm/hr 0.01 in0.3 mm
09:21 AM 54.1°F12.3°C 53.9°F12.2°C 99% 5.1 mph E8.2 kmh E 8.3 mph13.4 kmh 29.32 in992.9 mb 0.01 in0.3 mm 0.00 in/hr0.0 mm/hr 0.01 in0.3 mm
09:20 AM 54.1°F12.3°C 53.9°F12.2°C 99% 5.1 mph E8.2 kmh E 8.3 mph13.4 kmh 29.32 in992.9 mb 0.01 in0.3 mm 0.00 in/hr0.0 mm/hr 0.01 in0.3 mm
09:19 AM 54.1°F12.3°C 53.9°F12.2°C 99% 5.1 mph E8.2 kmh E 8.3 mph13.4 kmh 29.32 in992.9 mb 0.01 in0.3 mm 0.00 in/hr0.0 mm/hr 0.01 in0.3 mm
09:18 AM 54.1°F12.3°C 53.9°F12.2°C 99% 5.0 mph E8.0 kmh E 8.3 mph13.4 kmh 29.32 in992.9 mb 0.01 in0.3 mm 0.00 in/hr0.0 mm/hr 0.01 in0.3 mm
09:17 AM 54.1°F12.3°C 53.9°F12.2°C 99% 4.8 mph E7.7 kmh E 8.3 mph13.4 kmh 29.32 in992.9 mb 0.01 in0.3 mm 0.00 in/hr0.0 mm/hr 0.01 in0.3 mm
09:16 AM 54.3°F12.4°C 54.1°F12.3°C 99% 4.8 mph E7.7 kmh E 8.3 mph13.4 kmh 29.32 in992.9 mb 0.01 in0.3 mm 0.00 in/hr0.0 mm/hr 0.01 in0.3 mm
09:15 AM 54.3°F12.4°C 54.1°F12.3°C 99% 5.1 mph E8.2 kmh E 9.2 mph14.8 kmh 29.32 in992.9 mb 0.01 in0.3 mm 0.00 in/hr0.0 mm/hr 0.01 in0.3 mm
09:14 AM 54.3°F12.4°C 54.1°F12.3°C 99% 5.4 mph E8.7 kmh E 9.2 mph14.8 kmh 29.32 in992.9 mb 0.01 in0.3 mm 0.00 in/hr0.0 mm/hr 0.01 in0.3 mm
09:13 AM 54.3°F12.4°C 54.1°F12.3°C 99% 5.3 mph E8.5 kmh E 9.2 mph14.8 kmh 29.32 in992.9 mb 0.01 in0.3 mm 0.00 in/hr0.0 mm/hr 0.01 in0.3 mm
09:12 AM 54.3°F12.4°C 54.1°F12.3°C 99% 5.3 mph E8.5 kmh E 9.2 mph14.8 kmh 29.32 in992.9 mb 0.01 in0.3 mm 0.00 in/hr0.0 mm/hr 0.01 in0.3 mm
09:11 AM 54.5°F12.5°C 54.2°F12.3°C 99% 5.3 mph E8.5 kmh E 9.2 mph14.8 kmh 29.32 in992.9 mb 0.01 in0.3 mm 0.00 in/hr0.0 mm/hr 0.01 in0.3 mm
09:10 AM 54.5°F12.5°C 54.2°F12.3°C 99% 5.3 mph E8.5 kmh E 9.2 mph14.8 kmh 29.32 in992.9 mb 0.01 in0.3 mm 0.00 in/hr0.0 mm/hr 0.01 in0.3 mm
09:09 AM 54.5°F12.5°C 54.2°F12.3°C 99% 5.6 mph E9.0 kmh E 9.2 mph14.8 kmh 29.32 in992.9 mb 0.01 in0.3 mm 0.00 in/hr0.0 mm/hr 0.01 in0.3 mm
09:08 AM 54.5°F12.5°C 54.2°F12.3°C 99% 5.5 mph E8.9 kmh E 9.2 mph14.8 kmh 29.32 in992.9 mb 0.01 in0.3 mm 0.00 in/hr0.0 mm/hr 0.01 in0.3 mm
09:07 AM 54.5°F12.5°C 54.2°F12.3°C 99% 5.2 mph E8.4 kmh E 9.2 mph14.8 kmh 29.32 in992.9 mb 0.01 in0.3 mm 0.00 in/hr0.0 mm/hr 0.01 in0.3 mm
09:06 AM 54.5°F12.5°C 54.2°F12.3°C 99% 4.9 mph E7.9 kmh E 9.2 mph14.8 kmh 29.32 in992.9 mb 0.01 in0.3 mm 0.00 in/hr0.0 mm/hr 0.01 in0.3 mm
09:05 AM 54.7°F12.6°C 54.4°F12.4°C 99% 4.7 mph E7.6 kmh E 9.2 mph14.8 kmh 29.32 in992.9 mb 0.01 in0.3 mm 0.00 in/hr0.0 mm/hr 0.01 in0.3 mm
09:04 AM 54.7°F12.6°C 54.4°F12.4°C 99% 4.7 mph E7.6 kmh E 8.3 mph13.4 kmh 29.32 in992.9 mb 0.01 in0.3 mm 0.60 in/hr15.2 mm/hr 0.01 in0.3 mm
09:03 AM 54.7°F12.6°C 54.4°F12.4°C 99% 5.0 mph E8.0 kmh E 8.3 mph13.4 kmh 29.32 in992.9 mb 0.00 in0.0 mm 0.00 in/hr0.0 mm/hr 0.00 in0.0 mm
09:02 AM 54.7°F12.6°C 54.4°F12.4°C 99% 5.4 mph E8.7 kmh E 8.3 mph13.4 kmh 29.32 in992.9 mb 0.00 in0.0 mm 0.00 in/hr0.0 mm/hr 0.00 in0.0 mm
09:01 AM 54.7°F12.6°C 54.4°F12.4°C 99% 5.7 mph E9.2 kmh E 8.3 mph13.4 kmh 29.32 in992.9 mb 0.00 in0.0 mm 0.00 in/hr0.0 mm/hr 0.00 in0.0 mm
09:00 AM 54.7°F12.6°C 54.4°F12.4°C 99% 5.9 mph E9.5 kmh E 8.3 mph13.4 kmh 29.32 in992.9 mb 0.00 in0.0 mm 0.00 in/hr0.0 mm/hr 0.00 in0.0 mm
08:59 AM 54.7°F12.6°C 54.4°F12.4°C 99% 5.6 mph E9.0 kmh E 7.6 mph12.2 kmh 29.32 in992.9 mb 0.00 in0.0 mm 0.00 in/hr0.0 mm/hr 0.00 in0.0 mm
08:58 AM 54.7°F12.6°C 54.4°F12.4°C 99% 5.7 mph E9.2 kmh E 7.6 mph12.2 kmh 29.32 in992.9 mb 0.00 in0.0 mm 0.00 in/hr0.0 mm/hr 0.00 in0.0 mm
08:57 AM 54.7°F12.6°C 54.4°F12.4°C 99% 5.9 mph E9.5 kmh E 7.6 mph12.2 kmh 29.32 in992.9 mb 0.00 in0.0 mm 0.00 in/hr0.0 mm/hr 0.00 in0.0 mm
08:56 AM 54.5°F12.5°C 54.2°F12.3°C 99% 6.2 mph E10.0 kmh E 9.8 mph15.8 kmh 29.32 in992.9 mb 0.00 in0.0 mm 0.00 in/hr0.0 mm/hr 0.00 in0.0 mm
08:55 AM 54.5°F12.5°C 54.2°F12.3°C 99% 6.3 mph E10.1 kmh E 9.8 mph15.8 kmh 29.32 in992.9 mb 0.00 in0.0 mm 0.00 in/hr0.0 mm/hr 0.00 in0.0 mm
08:54 AM 54.7°F12.6°C 54.4°F12.4°C 99% 6.3 mph E10.1 kmh E 9.8 mph15.8 kmh 29.32 in992.9 mb 0.00 in0.0 mm 0.00 in/hr0.0 mm/hr 0.00 in0.0 mm
08:53 AM 54.5°F12.5°C 54.2°F12.3°C 99% 6.1 mph E9.8 kmh E 9.8 mph15.8 kmh 29.32 in992.9 mb 0.00 in0.0 mm 0.00 in/hr0.0 mm/hr 0.00 in0.0 mm
08:52 AM 54.5°F12.5°C 54.2°F12.3°C 99% 6.0 mph ENE9.7 kmh ENE 9.8 mph15.8 kmh 29.32 in992.9 mb 0.00 in0.0 mm 0.00 in/hr0.0 mm/hr 0.00 in0.0 mm
08:51 AM 54.5°F12.5°C 54.2°F12.3°C 99% 5.8 mph ENE9.3 kmh ENE 9.8 mph15.8 kmh 29.33 in993.2 mb 0.00 in0.0 mm 0.00 in/hr0.0 mm/hr 0.00 in0.0 mm
08:50 AM 54.5°F12.5°C 54.2°F12.3°C 99% 5.7 mph ENE9.2 kmh ENE 9.8 mph15.8 kmh 29.33 in993.2 mb 0.00 in0.0 mm 0.00 in/hr0.0 mm/hr 0.00 in0.0 mm
08:49 AM 54.3°F12.4°C 54.1°F12.3°C 99% 5.9 mph ENE9.5 kmh ENE 9.8 mph15.8 kmh 29.32 in992.9 mb 0.00 in0.0 mm 0.00 in/hr0.0 mm/hr 0.00 in0.0 mm
08:48 AM 54.3°F12.4°C 54.1°F12.3°C 99% 6.2 mph ENE10.0 kmh ENE 9.8 mph15.8 kmh 29.32 in992.9 mb 0.00 in0.0 mm 0.00 in/hr0.0 mm/hr 0.00 in0.0 mm
08:47 AM 54.3°F12.4°C 54.1°F12.3°C 99% 6.8 mph ENE10.9 kmh ENE 10.7 mph17.2 kmh 29.32 in992.9 mb 0.00 in0.0 mm 0.00 in/hr0.0 mm/hr 0.00 in0.0 mm
08:46 AM 54.3°F12.4°C 54.1°F12.3°C 99% 6.6 mph ENE10.6 kmh ENE 10.7 mph17.2 kmh 29.33 in993.2 mb 0.00 in0.0 mm 0.00 in/hr0.0 mm/hr 0.00 in0.0 mm
08:45 AM 54.3°F12.4°C 54.1°F12.3°C 99% 6.4 mph ENE10.3 kmh ENE 10.7 mph17.2 kmh 29.32 in992.9 mb 0.00 in0.0 mm 0.00 in/hr0.0 mm/hr 0.00 in0.0 mm
08:44 AM 54.3°F12.4°C 54.1°F12.3°C 99% 6.2 mph ENE10.0 kmh ENE 10.7 mph17.2 kmh 29.33 in993.2 mb 0.00 in0.0 mm 0.00 in/hr0.0 mm/hr 0.00 in0.0 mm
08:43 AM 54.3°F12.4°C 54.1°F12.3°C 99% 6.0 mph E9.7 kmh E 10.7 mph17.2 kmh 29.33 in993.2 mb 0.00 in0.0 mm 0.00 in/hr0.0 mm/hr 0.00 in0.0 mm
08:42 AM 54.3°F12.4°C 54.1°F12.3°C 99% 5.8 mph E9.3 kmh E 10.7 mph17.2 kmh 29.33 in993.2 mb 0.00 in0.0 mm 0.00 in/hr0.0 mm/hr 0.00 in0.0 mm
08:41 AM 54.1°F12.3°C 53.9°F12.2°C 99% 5.9 mph E9.5 kmh E 10.7 mph17.2 kmh 29.33 in993.2 mb 0.00 in0.0 mm 0.00 in/hr0.0 mm/hr 0.00 in0.0 mm
08:40 AM 54.1°F12.3°C 53.9°F12.2°C 99% 6.0 mph E9.7 kmh E 10.7 mph17.2 kmh 29.33 in993.2 mb 0.00 in0.0 mm 0.00 in/hr0.0 mm/hr 0.00 in0.0 mm
08:39 AM 54.1°F12.3°C 53.9°F12.2°C 99% 5.8 mph E9.3 kmh E 10.7 mph17.2 kmh 29.33 in993.2 mb 0.00 in0.0 mm 0.00 in/hr0.0 mm/hr 0.00 in0.0 mm
08:38 AM 54.1°F12.3°C 53.9°F12.2°C 99% 6.0 mph ENE9.7 kmh ENE 13.0 mph20.9 kmh 29.33 in993.2 mb 0.00 in0.0 mm 0.00 in/hr0.0 mm/hr 0.00 in0.0 mm
08:37 AM 54.1°F12.3°C 53.9°F12.2°C 99% 6.1 mph ENE9.8 kmh ENE 13.0 mph20.9 kmh 29.33 in993.2 mb 0.00 in0.0 mm 0.00 in/hr0.0 mm/hr 0.00 in0.0 mm
08:36 AM 54.0°F12.2°C 53.7°F12.1°C 99% 5.9 mph NE9.5 kmh NE 13.0 mph20.9 kmh 29.33 in993.2 mb 0.00 in0.0 mm 0.00 in/hr0.0 mm/hr 0.00 in0.0 mm
08:35 AM 54.0°F12.2°C 53.7°F12.1°C 99% 5.7 mph NE9.2 kmh NE 13.0 mph20.9 kmh 29.33 in993.2 mb 0.00 in0.0 mm 0.00 in/hr0.0 mm/hr 0.00 in0.0 mm
08:34 AM 54.0°F12.2°C 53.7°F12.1°C 99% 5.6 mph NE9.0 kmh NE 13.0 mph20.9 kmh 29.33 in993.2 mb 0.00 in0.0 mm 0.00 in/hr0.0 mm/hr 0.00 in0.0 mm
08:33 AM 54.0°F12.2°C 53.7°F12.1°C 99% 5.5 mph NE8.9 kmh NE 13.0 mph20.9 kmh 29.33 in993.2 mb 0.00 in0.0 mm 0.00 in/hr0.0 mm/hr 0.00 in0.0 mm
08:32 AM 54.0°F12.2°C 53.7°F12.1°C 99% 5.4 mph NE8.7 kmh NE 13.0 mph20.9 kmh 29.33 in993.2 mb 0.00 in0.0 mm 0.00 in/hr0.0 mm/hr 0.00 in0.0 mm
08:31 AM 54.0°F12.2°C 53.7°F12.1°C 99% 5.1 mph NE8.2 kmh NE 13.0 mph20.9 kmh 29.33 in993.2 mb 0.00 in0.0 mm 0.00 in/hr0.0 mm/hr 0.00 in0.0 mm
08:30 AM 54.0°F12.2°C 53.7°F12.1°C 99% 4.8 mph NE7.7 kmh NE 13.0 mph20.9 kmh 29.33 in993.2 mb 0.00 in0.0 mm 0.00 in/hr0.0 mm/hr 0.00 in0.0 mm
08:29 AM 54.0°F12.2°C 53.7°F12.1°C 99% 4.8 mph NE7.7 kmh NE 13.0 mph20.9 kmh 29.33 in993.2 mb 0.00 in0.0 mm 0.00 in/hr0.0 mm/hr 0.00 in0.0 mm
08:28 AM 53.8°F12.1°C 53.5°F11.9°C 99% 4.0 mph ENE6.4 kmh ENE 13.0 mph20.9 kmh 29.33 in993.2 mb 0.00 in0.0 mm 0.00 in/hr0.0 mm/hr 0.00 in0.0 mm
08:27 AM 53.8°F12.1°C 53.5°F11.9°C 99% 3.2 mph ENE5.1 kmh ENE 5.4 mph8.7 kmh 29.33 in993.2 mb 0.00 in0.0 mm 0.00 in/hr0.0 mm/hr 0.00 in0.0 mm
08:26 AM 53.8°F12.1°C 53.5°F11.9°C 99% 3.3 mph E5.3 kmh E 6.0 mph9.7 kmh 29.33 in993.2 mb 0.00 in0.0 mm 0.00 in/hr0.0 mm/hr 0.00 in0.0 mm
08:25 AM 53.8°F12.1°C 53.5°F11.9°C 99% 3.6 mph E5.8 kmh E 6.9 mph11.1 kmh 29.33 in993.2 mb 0.00 in0.0 mm 0.00 in/hr0.0 mm/hr 0.00 in0.0 mm
08:24 AM 53.6°F12.0°C 53.3°F11.8°C 99% 3.8 mph E6.1 kmh E 6.9 mph11.1 kmh 29.33 in993.2 mb 0.00 in0.0 mm 0.00 in/hr0.0 mm/hr 0.00 in0.0 mm
08:23 AM 53.6°F12.0°C 53.3°F11.8°C 99% 4.1 mph E6.6 kmh E 6.9 mph11.1 kmh 29.33 in993.2 mb 0.00 in0.0 mm 0.00 in/hr0.0 mm/hr 0.00 in0.0 mm
08:22 AM 53.6°F12.0°C 53.3°F11.8°C 99% 4.5 mph E7.2 kmh E 8.3 mph13.4 kmh 29.32 in992.9 mb 0.00 in0.0 mm 0.00 in/hr0.0 mm/hr 0.00 in0.0 mm
08:21 AM 53.6°F12.0°C 53.3°F11.8°C 99% 4.9 mph E7.9 kmh E 8.3 mph13.4 kmh 29.33 in993.2 mb 0.00 in0.0 mm 0.00 in/hr0.0 mm/hr 0.00 in0.0 mm
08:20 AM 53.6°F12.0°C 53.3°F11.8°C 99% 5.0 mph E8.0 kmh E 8.3 mph13.4 kmh 29.33 in993.2 mb 0.00 in0.0 mm 0.00 in/hr0.0 mm/hr 0.00 in0.0 mm
08:19 AM 53.6°F12.0°C 53.3°F11.8°C 99% 4.9 mph E7.9 kmh E 8.3 mph13.4 kmh 29.33 in993.2 mb 0.00 in0.0 mm 0.00 in/hr0.0 mm/hr 0.00 in0.0 mm
08:18 AM 53.8°F12.1°C 53.5°F11.9°C 99% 5.2 mph E8.4 kmh E 8.3 mph13.4 kmh 29.33 in993.2 mb 0.00 in0.0 mm 0.00 in/hr0.0 mm/hr 0.00 in0.0 mm
08:17 AM 53.8°F12.1°C 53.5°F11.9°C 99% 5.5 mph E8.9 kmh E 8.3 mph13.4 kmh 29.33 in993.2 mb 0.00 in0.0 mm 0.00 in/hr0.0 mm/hr 0.00 in0.0 mm
08:16 AM 53.8°F12.1°C 53.5°F11.9°C 99% 5.7 mph ENE9.2 kmh ENE 8.3 mph13.4 kmh 29.33 in993.2 mb 0.00 in0.0 mm 0.00 in/hr0.0 mm/hr 0.00 in0.0 mm
08:15 AM 53.8°F12.1°C 53.5°F11.9°C 99% 6.1 mph ENE9.8 kmh ENE 11.4 mph18.3 kmh 29.33 in993.2 mb 0.00 in0.0 mm 0.00 in/hr0.0 mm/hr 0.00 in0.0 mm
08:14 AM 53.8°F12.1°C 53.5°F11.9°C 99% 6.2 mph ENE10.0 kmh ENE 11.4 mph18.3 kmh 29.33 in993.2 mb 0.00 in0.0 mm 0.00 in/hr0.0 mm/hr 0.00 in0.0 mm
08:13 AM 53.8°F12.1°C 53.5°F11.9°C 99% 6.6 mph ENE10.6 kmh ENE 11.4 mph18.3 kmh 29.33 in993.2 mb 0.00 in0.0 mm 0.00 in/hr0.0 mm/hr 0.00 in0.0 mm
08:12 AM 54.0°F12.2°C 53.7°F12.1°C 99% 6.8 mph ENE10.9 kmh ENE 11.4 mph18.3 kmh 29.33 in993.2 mb 0.00 in0.0 mm 0.00 in/hr0.0 mm/hr 0.00 in0.0 mm
08:11 AM 54.0°F12.2°C 53.7°F12.1°C 99% 7.0 mph E11.3 kmh E 11.4 mph18.3 kmh 29.33 in993.2 mb 0.00 in0.0 mm 0.00 in/hr0.0 mm/hr 0.00 in0.0 mm
08:10 AM 54.0°F12.2°C 53.7°F12.1°C 99% 7.3 mph E11.7 kmh E 11.4 mph18.3 kmh 29.33 in993.2 mb 0.00 in0.0 mm 0.00 in/hr0.0 mm/hr 0.00 in0.0 mm
08:09 AM 54.0°F12.2°C 53.7°F12.1°C 99% 7.8 mph E12.6 kmh E 11.4 mph18.3 kmh 29.33 in993.2 mb 0.00 in0.0 mm 0.00 in/hr0.0 mm/hr 0.00 in0.0 mm
08:08 AM 54.0°F12.2°C 53.7°F12.1°C 99% 8.2 mph E13.2 kmh E 11.4 mph18.3 kmh 29.33 in993.2 mb 0.00 in0.0 mm 0.00 in/hr0.0 mm/hr 0.00 in0.0 mm
08:07 AM 54.0°F12.2°C 53.7°F12.1°C 99% 8.1 mph E13.0 kmh E 11.4 mph18.3 kmh 29.33 in993.2 mb 0.00 in0.0 mm 0.00 in/hr0.0 mm/hr 0.00 in0.0 mm
08:06 AM 54.0°F12.2°C 53.7°F12.1°C 99% 7.9 mph E12.7 kmh E 11.4 mph18.3 kmh 29.33 in993.2 mb 0.00 in0.0 mm 0.00 in/hr0.0 mm/hr 0.00 in0.0 mm
08:05 AM 54.1°F12.3°C 53.9°F12.2°C 99% 7.7 mph E12.4 kmh E 10.7 mph17.2 kmh 29.33 in993.2 mb 0.00 in0.0 mm 0.00 in/hr0.0 mm/hr 0.00 in0.0 mm
08:04 AM 54.1°F12.3°C 53.9°F12.2°C 99% 8.2 mph ENE13.2 kmh ENE 14.5 mph23.3 kmh 29.33 in993.2 mb 0.00 in0.0 mm 0.00 in/hr0.0 mm/hr 0.00 in0.0 mm
08:03 AM 54.1°F12.3°C 53.9°F12.2°C 99% 8.1 mph ENE13.0 kmh ENE 14.5 mph23.3 kmh 29.33 in993.2 mb 0.00 in0.0 mm 0.00 in/hr0.0 mm/hr 0.00 in0.0 mm
08:02 AM 54.1°F12.3°C 53.9°F12.2°C 99% 8.0 mph ENE12.9 kmh ENE 14.5 mph23.3 kmh 29.33 in993.2 mb 0.00 in0.0 mm 0.00 in/hr0.0 mm/hr 0.00 in0.0 mm
08:01 AM 54.3°F12.4°C 54.1°F12.3°C 99% 8.1 mph ENE13.0 kmh ENE 14.5 mph23.3 kmh 29.33 in993.2 mb 0.00 in0.0 mm 0.00 in/hr0.0 mm/hr 0.00 in0.0 mm
08:00 AM 54.3°F12.4°C 54.1°F12.3°C 99% 8.4 mph ENE13.5 kmh ENE 14.5 mph23.3 kmh 29.33 in993.2 mb 0.00 in0.0 mm 0.00 in/hr0.0 mm/hr 0.00 in0.0 mm
07:59 AM 54.3°F12.4°C 54.1°F12.3°C 99% 8.6 mph ENE13.8 kmh ENE 14.5 mph23.3 kmh 29.33 in993.2 mb 0.00 in0.0 mm 0.00 in/hr0.0 mm/hr 0.00 in0.0 mm
07:58 AM 54.3°F12.4°C 54.1°F12.3°C 99% 8.2 mph ENE13.2 kmh ENE 14.5 mph23.3 kmh 29.33 in993.2 mb 0.00 in0.0 mm 0.00 in/hr0.0 mm/hr 0.00 in0.0 mm
07:57 AM 54.3°F12.4°C 54.1°F12.3°C 99% 8.0 mph NE12.9 kmh NE 14.5 mph23.3 kmh 29.33 in993.2 mb 0.00 in0.0 mm 0.00 in/hr0.0 mm/hr 0.00 in0.0 mm
07:56 AM 54.3°F12.4°C 54.1°F12.3°C 99% 8.1 mph NE13.0 kmh NE 14.5 mph23.3 kmh 29.33 in993.2 mb 0.00 in0.0 mm 0.00 in/hr0.0 mm/hr 0.00 in0.0 mm
07:55 AM 54.3°F12.4°C 54.1°F12.3°C 99% 7.9 mph NE12.7 kmh NE 14.5 mph23.3 kmh 29.33 in993.2 mb 0.00 in0.0 mm 0.00 in/hr0.0 mm/hr 0.00 in0.0 mm
07:54 AM 54.3°F12.4°C 54.1°F12.3°C 99% 7.3 mph ENE11.7 kmh ENE 14.5 mph23.3 kmh 29.33 in993.2 mb 0.00 in0.0 mm 0.00 in/hr0.0 mm/hr 0.00 in0.0 mm
07:53 AM 54.3°F12.4°C 54.1°F12.3°C 99% 7.2 mph ENE11.6 kmh ENE 11.4 mph18.3 kmh 29.33 in993.2 mb 0.00 in0.0 mm 0.00 in/hr0.0 mm/hr 0.00 in0.0 mm
07:52 AM 54.5°F12.5°C 54.2°F12.3°C 99% 7.1 mph E11.4 kmh E 11.4 mph18.3 kmh 29.33 in993.2 mb 0.00 in0.0 mm 0.00 in/hr0.0 mm/hr 0.00 in0.0 mm
07:51 AM 54.5°F12.5°C 54.2°F12.3°C 99% 6.9 mph E11.1 kmh E 11.4 mph18.3 kmh 29.33 in993.2 mb 0.00 in0.0 mm 0.00 in/hr0.0 mm/hr 0.00 in0.0 mm
07:50 AM 54.5°F12.5°C 54.2°F12.3°C 99% 6.6 mph E10.6 kmh E 11.4 mph18.3 kmh 29.33 in993.2 mb 0.00 in0.0 mm 0.00 in/hr0.0 mm/hr 0.00 in0.0 mm
07:49 AM 54.3°F12.4°C 54.1°F12.3°C 99% 6.3 mph ESE10.1 kmh ESE 10.7 mph17.2 kmh 29.33 in993.2 mb 0.00 in0.0 mm 0.00 in/hr0.0 mm/hr 0.00 in0.0 mm
07:48 AM 54.3°F12.4°C 54.1°F12.3°C 99% 6.6 mph ESE10.6 kmh ESE 10.7 mph17.2 kmh 29.33 in993.2 mb 0.00 in0.0 mm 0.00 in/hr0.0 mm/hr 0.00 in0.0 mm
07:47 AM 54.3°F12.4°C 54.1°F12.3°C 99% 6.9 mph ESE11.1 kmh ESE 10.7 mph17.2 kmh 29.33 in993.2 mb 0.00 in0.0 mm 0.00 in/hr0.0 mm/hr 0.00 in0.0 mm
07:46 AM 54.3°F12.4°C 54.1°F12.3°C 99% 6.9 mph SE11.1 kmh SE 10.7 mph17.2 kmh 29.33 in993.2 mb 0.00 in0.0 mm 0.00 in/hr0.0 mm/hr 0.00 in0.0 mm
07:45 AM 54.3°F12.4°C 54.1°F12.3°C 99% 7.0 mph SE11.3 kmh SE 10.7 mph17.2 kmh 29.33 in993.2 mb 0.00 in0.0 mm 0.00 in/hr0.0 mm/hr 0.00 in0.0 mm
07:44 AM 54.1°F12.3°C 53.9°F12.2°C 99% 7.1 mph ESE11.4 kmh ESE 10.7 mph17.2 kmh 29.33 in993.2 mb 0.00 in0.0 mm 0.00 in/hr0.0 mm/hr 0.00 in0.0 mm
07:43 AM 54.1°F12.3°C 53.9°F12.2°C 99% 7.5 mph E12.1 kmh E 10.7 mph17.2 kmh 29.33 in993.2 mb 0.00 in0.0 mm 0.00 in/hr0.0 mm/hr 0.00 in0.0 mm
07:42 AM 54.1°F12.3°C 53.9°F12.2°C 99% 7.5 mph E12.1 kmh E 10.7 mph17.2 kmh 29.33 in993.2 mb 0.00 in0.0 mm 0.00 in/hr0.0 mm/hr 0.00 in0.0 mm
07:41 AM 54.1°F12.3°C 53.9°F12.2°C 99% 7.4 mph E11.9 kmh E 10.7 mph17.2 kmh 29.33 in993.2 mb 0.00 in0.0 mm 0.00 in/hr0.0 mm/hr 0.00 in0.0 mm
07:40 AM 54.1°F12.3°C 53.9°F12.2°C 99% 7.2 mph E11.6 kmh E 10.7 mph17.2 kmh 29.33 in993.2 mb 0.00 in0.0 mm 0.00 in/hr0.0 mm/hr 0.00 in0.0 mm
07:39 AM 54.1°F12.3°C 53.9°F12.2°C 99% 7.0 mph E11.3 kmh E 10.7 mph17.2 kmh 29.33 in993.2 mb 0.00 in0.0 mm 0.00 in/hr0.0 mm/hr 0.00 in0.0 mm
07:38 AM 54.1°F12.3°C 53.9°F12.2°C 99% 6.9 mph ESE11.1 kmh ESE 10.7 mph17.2 kmh 29.33 in993.2 mb 0.00 in0.0 mm 0.00 in/hr0.0 mm/hr 0.00 in0.0 mm
07:37 AM 54.1°F12.3°C 53.9°F12.2°C 99% 6.7 mph E10.8 kmh E 10.7 mph17.2 kmh 29.33 in993.2 mb 0.00 in0.0 mm 0.00 in/hr0.0 mm/hr 0.00 in0.0 mm
07:36 AM 54.1°F12.3°C 53.9°F12.2°C 99% 6.7 mph E10.8 kmh E 10.7 mph17.2 kmh 29.33 in993.2 mb 0.00 in0.0 mm 0.00 in/hr0.0 mm/hr 0.00 in0.0 mm
07:35 AM 54.1°F12.3°C 53.9°F12.2°C 99% 6.3 mph E10.1 kmh E 10.7 mph17.2 kmh 29.33 in993.2 mb 0.00 in0.0 mm 0.00 in/hr0.0 mm/hr 0.00 in0.0 mm
07:34 AM 54.0°F12.2°C 53.7°F12.1°C 99% 6.3 mph E10.1 kmh E 10.7 mph17.2 kmh 29.33 in993.2 mb 0.00 in0.0 mm 0.00 in/hr0.0 mm/hr 0.00 in0.0 mm
07:33 AM 54.0°F12.2°C 53.7°F12.1°C 99% 6.1 mph ESE9.8 kmh ESE 9.2 mph14.8 kmh 29.33 in993.2 mb 0.00 in0.0 mm 0.00 in/hr0.0 mm/hr 0.00 in0.0 mm
07:32 AM 54.0°F12.2°C 53.7°F12.1°C 99% 6.1 mph ESE9.8 kmh ESE 9.2 mph14.8 kmh 29.33 in993.2 mb 0.00 in0.0 mm 0.00 in/hr0.0 mm/hr 0.00 in0.0 mm
07:31 AM 54.0°F12.2°C 53.7°F12.1°C 99% 6.4 mph ESE10.3 kmh ESE 9.2 mph14.8 kmh 29.33 in993.2 mb 0.00 in0.0 mm 0.00 in/hr0.0 mm/hr 0.00 in0.0 mm
07:30 AM 54.0°F12.2°C 53.7°F12.1°C 99% 6.2 mph E10.0 kmh E 9.2 mph14.8 kmh 29.33 in993.2 mb 0.00 in0.0 mm 0.00 in/hr0.0 mm/hr 0.00 in0.0 mm
07:29 AM 54.0°F12.2°C 53.7°F12.1°C 99% 6.0 mph E9.7 kmh E 9.2 mph14.8 kmh 29.33 in993.2 mb 0.00 in0.0 mm 0.00 in/hr0.0 mm/hr 0.00 in0.0 mm
07:28 AM 54.0°F12.2°C 53.7°F12.1°C 99% 5.9 mph E9.5 kmh E 9.2 mph14.8 kmh 29.33 in993.2 mb 0.00 in0.0 mm 0.00 in/hr0.0 mm/hr 0.00 in0.0 mm
07:27 AM 53.8°F12.1°C 53.5°F11.9°C 99% 5.9 mph E9.5 kmh E 9.2 mph14.8 kmh 29.33 in993.2 mb 0.00 in0.0 mm 0.00 in/hr0.0 mm/hr 0.00 in0.0 mm
07:26 AM 53.8°F12.1°C 53.5°F11.9°C 99% 6.1 mph E9.8 kmh E 9.2 mph14.8 kmh 29.33 in993.2 mb 0.00 in0.0 mm 0.00 in/hr0.0 mm/hr 0.00 in0.0 mm
07:25 AM 53.8°F12.1°C 53.5°F11.9°C 99% 6.4 mph E10.3 kmh E 9.2 mph14.8 kmh 29.33 in993.2 mb 0.00 in0.0 mm 0.00 in/hr0.0 mm/hr 0.00 in0.0 mm
07:24 AM 53.6°F12.0°C 53.3°F11.8°C 99% 6.1 mph E9.8 kmh E 9.2 mph14.8 kmh 29.33 in993.2 mb 0.00 in0.0 mm 0.00 in/hr0.0 mm/hr 0.00 in0.0 mm
07:23 AM 53.6°F12.0°C 53.3°F11.8°C 99% 5.6 mph E9.0 kmh E 9.2 mph14.8 kmh 29.33 in993.2 mb 0.00 in0.0 mm 0.00 in/hr0.0 mm/hr 0.00 in0.0 mm
07:22 AM 53.6°F12.0°C 53.3°F11.8°C 99% 5.4 mph E8.7 kmh E 9.2 mph14.8 kmh 29.33 in993.2 mb 0.00 in0.0 mm 0.00 in/hr0.0 mm/hr 0.00 in0.0 mm
07:21 AM 53.6°F12.0°C 53.3°F11.8°C 99% 5.1 mph E8.2 kmh E 8.3 mph13.4 kmh 29.33 in993.2 mb 0.00 in0.0 mm 0.00 in/hr0.0 mm/hr 0.00 in0.0 mm
07:20 AM 53.4°F11.9°C 53.2°F11.8°C 99% 5.6 mph E9.0 kmh E 9.2 mph14.8 kmh 29.33 in993.2 mb 0.00 in0.0 mm 0.00 in/hr0.0 mm/hr 0.00 in0.0 mm
07:19 AM 53.4°F11.9°C 53.2°F11.8°C 99% 5.9 mph E9.5 kmh E 9.2 mph14.8 kmh 29.33 in993.2 mb 0.00 in0.0 mm 0.00 in/hr0.0 mm/hr 0.00 in0.0 mm
07:18 AM 53.4°F11.9°C 53.2°F11.8°C 99% 6.1 mph E9.8 kmh E 9.2 mph14.8 kmh 29.33 in993.2 mb 0.00 in0.0 mm 0.00 in/hr0.0 mm/hr 0.00 in0.0 mm
07:17 AM 53.4°F11.9°C 53.2°F11.8°C 99% 6.4 mph E10.3 kmh E 9.2 mph14.8 kmh 29.33 in993.2 mb 0.00 in0.0 mm 0.00 in/hr0.0 mm/hr 0.00 in0.0 mm
07:16 AM 53.2°F11.8°C 53.0°F11.7°C 99% 6.4 mph E10.3 kmh E 9.2 mph14.8 kmh 29.33 in993.2 mb 0.00 in0.0 mm 0.00 in/hr0.0 mm/hr 0.00 in0.0 mm
07:15 AM 53.2°F11.8°C 53.0°F11.7°C 99% 6.3 mph E10.1 kmh E 9.2 mph14.8 kmh 29.33 in993.2 mb 0.00 in0.0 mm 0.00 in/hr0.0 mm/hr 0.00 in0.0 mm
07:14 AM 53.2°F11.8°C 53.0°F11.7°C 99% 6.7 mph E10.8 kmh E 9.2 mph14.8 kmh 29.33 in993.2 mb 0.00 in0.0 mm 0.00 in/hr0.0 mm/hr 0.00 in0.0 mm
07:13 AM 53.1°F11.7°C 52.8°F11.6°C 99% 7.0 mph E11.3 kmh E 9.2 mph14.8 kmh 29.33 in993.2 mb 0.00 in0.0 mm 0.00 in/hr0.0 mm/hr 0.00 in0.0 mm
07:12 AM 53.1°F11.7°C 52.8°F11.6°C 99% 6.9 mph E11.1 kmh E 9.2 mph14.8 kmh 29.33 in993.2 mb 0.00 in0.0 mm 0.00 in/hr0.0 mm/hr 0.00 in0.0 mm
07:11 AM 52.9°F11.6°C 52.6°F11.4°C 99% 6.9 mph E11.1 kmh E 9.2 mph14.8 kmh 29.33 in993.2 mb 0.00 in0.0 mm 0.00 in/hr0.0 mm/hr 0.00 in0.0 mm
07:10 AM 52.9°F11.6°C 52.6°F11.4°C 99% 6.6 mph ENE10.6 kmh ENE 9.2 mph14.8 kmh 29.33 in993.2 mb 0.00 in0.0 mm 0.00 in/hr0.0 mm/hr 0.00 in0.0 mm
07:09 AM 52.7°F11.5°C 52.4°F11.3°C 99% 6.3 mph ENE10.1 kmh ENE 9.2 mph14.8 kmh 29.33 in993.2 mb 0.00 in0.0 mm 0.00 in/hr0.0 mm/hr 0.00 in0.0 mm
07:08 AM 52.5°F11.4°C 52.3°F11.3°C 99% 6.2 mph ENE10.0 kmh ENE 9.2 mph14.8 kmh 29.33 in993.2 mb 0.00 in0.0 mm 0.00 in/hr0.0 mm/hr 0.00 in0.0 mm
07:07 AM 52.5°F11.4°C 52.3°F11.3°C 99% 6.2 mph ENE10.0 kmh ENE 9.2 mph14.8 kmh 29.33 in993.2 mb 0.00 in0.0 mm 0.00 in/hr0.0 mm/hr 0.00 in0.0 mm
07:06 AM 52.5°F11.4°C 52.3°F11.3°C 99% 6.3 mph ENE10.1 kmh ENE 9.2 mph14.8 kmh 29.33 in993.2 mb 0.00 in0.0 mm 0.00 in/hr0.0 mm/hr 0.00 in0.0 mm
07:05 AM 52.3°F11.3°C 52.1°F11.2°C 99% 6.2 mph E10.0 kmh E 9.2 mph14.8 kmh 29.33 in993.2 mb 0.00 in0.0 mm 0.00 in/hr0.0 mm/hr 0.00 in0.0 mm
07:04 AM 52.3°F11.3°C 52.1°F11.2°C 99% 6.0 mph ENE9.7 kmh ENE 9.2 mph14.8 kmh 29.33 in993.2 mb 0.00 in0.0 mm 0.00 in/hr0.0 mm/hr 0.00 in0.0 mm
07:03 AM 52.3°F11.3°C 52.1°F11.2°C 99% 5.7 mph ENE9.2 kmh ENE 9.2 mph14.8 kmh 29.33 in993.2 mb 0.00 in0.0 mm 0.00 in/hr0.0 mm/hr 0.00 in0.0 mm
07:02 AM 52.2°F11.2°C 51.9°F11.1°C 99% 5.7 mph ENE9.2 kmh ENE 9.2 mph14.8 kmh 29.33 in993.2 mb 0.00 in0.0 mm 0.00 in/hr0.0 mm/hr 0.00 in0.0 mm
07:01 AM 52.2°F11.2°C 51.9°F11.1°C 99% 5.8 mph ENE9.3 kmh ENE 9.2 mph14.8 kmh 29.33 in993.2 mb 0.00 in0.0 mm 0.00 in/hr0.0 mm/hr 0.00 in0.0 mm
07:00 AM 52.2°F11.2°C 51.9°F11.1°C 99% 5.9 mph E9.5 kmh E 9.2 mph14.8 kmh 29.33 in993.2 mb 0.00 in0.0 mm 0.00 in/hr0.0 mm/hr 0.00 in0.0 mm
06:59 AM 52.2°F11.2°C 51.9°F11.1°C 99% 6.1 mph E9.8 kmh E 9.2 mph14.8 kmh 29.33 in993.2 mb 0.00 in0.0 mm 0.00 in/hr0.0 mm/hr 0.00 in0.0 mm
06:58 AM 52.2°F11.2°C 51.9°F11.1°C 99% 6.5 mph E10.5 kmh E 11.4 mph18.3 kmh 29.33 in993.2 mb 0.00 in0.0 mm 0.00 in/hr0.0 mm/hr 0.00 in0.0 mm
06:57 AM 52.2°F11.2°C 51.9°F11.1°C 99% 6.4 mph E10.3 kmh E 11.4 mph18.3 kmh 29.33 in993.2 mb 0.00 in0.0 mm 0.00 in/hr0.0 mm/hr 0.00 in0.0 mm
06:56 AM 52.0°F11.1°C 51.7°F10.9°C 99% 6.1 mph E9.8 kmh E 11.4 mph18.3 kmh 29.33 in993.2 mb 0.00 in0.0 mm 0.00 in/hr0.0 mm/hr 0.00 in0.0 mm
06:55 AM 52.0°F11.1°C 51.7°F10.9°C 99% 6.3 mph E10.1 kmh E 11.4 mph18.3 kmh 29.33 in993.2 mb 0.00 in0.0 mm 0.00 in/hr0.0 mm/hr 0.00 in0.0 mm
06:54 AM 52.0°F11.1°C 51.7°F10.9°C 99% 6.4 mph E10.3 kmh E 11.4 mph18.3 kmh 29.33 in993.2 mb 0.00 in0.0 mm 0.00 in/hr0.0 mm/hr 0.00 in0.0 mm
06:53 AM 52.0°F11.1°C 51.7°F10.9°C 99% 6.6 mph E10.6 kmh E 11.4 mph18.3 kmh 29.33 in993.2 mb 0.00 in0.0 mm 0.00 in/hr0.0 mm/hr 0.00 in0.0 mm
06:52 AM 52.0°F11.1°C 51.7°F10.9°C 99% 6.5 mph E10.5 kmh E 11.4 mph18.3 kmh 29.33 in993.2 mb 0.00 in0.0 mm 0.00 in/hr0.0 mm/hr 0.00 in0.0 mm
06:51 AM 51.8°F11.0°C 51.5°F10.8°C 99% 6.6 mph E10.6 kmh E 11.4 mph18.3 kmh 29.33 in993.2 mb 0.00 in0.0 mm 0.00 in/hr0.0 mm/hr 0.00 in0.0 mm
06:50 AM 51.8°F11.0°C 51.5°F10.8°C 99% 6.7 mph E10.8 kmh E 11.4 mph18.3 kmh 29.33 in993.2 mb 0.00 in0.0 mm 0.00 in/hr0.0 mm/hr 0.00 in0.0 mm
06:49 AM 51.8°F11.0°C 51.5°F10.8°C 99% 6.8 mph E10.9 kmh E 11.4 mph18.3 kmh 29.33 in993.2 mb 0.00 in0.0 mm 0.00 in/hr0.0 mm/hr 0.00 in0.0 mm
06:48 AM 51.6°F10.9°C 51.4°F10.8°C 99% 6.1 mph E9.8 kmh E 9.2 mph14.8 kmh 29.33 in993.2 mb 0.00 in0.0 mm 0.00 in/hr0.0 mm/hr 0.00 in0.0 mm
06:47 AM 51.6°F10.9°C 51.4°F10.8°C 99% 5.9 mph E9.5 kmh E 9.2 mph14.8 kmh 29.33 in993.2 mb 0.00 in0.0 mm 0.00 in/hr0.0 mm/hr 0.00 in0.0 mm
06:46 AM 51.6°F10.9°C 51.4°F10.8°C 99% 6.0 mph ESE9.7 kmh ESE 9.2 mph14.8 kmh 29.33 in993.2 mb 0.00 in0.0 mm 0.00 in/hr0.0 mm/hr 0.00 in0.0 mm
06:45 AM 51.6°F10.9°C 51.4°F10.8°C 99% 6.1 mph ESE9.8 kmh ESE 9.2 mph14.8 kmh 29.33 in993.2 mb 0.00 in0.0 mm 0.00 in/hr0.0 mm/hr 0.00 in0.0 mm
06:44 AM 51.4°F10.8°C 51.2°F10.7°C 99% 5.9 mph E9.5 kmh E 9.2 mph14.8 kmh 29.33 in993.2 mb 0.00 in0.0 mm 0.00 in/hr0.0 mm/hr 0.00 in0.0 mm
06:43 AM 51.3°F10.7°C 51.0°F10.6°C 99% 5.9 mph E9.5 kmh E 9.2 mph14.8 kmh 29.33 in993.2 mb 0.00 in0.0 mm 0.00 in/hr0.0 mm/hr 0.00 in0.0 mm
06:42 AM 51.3°F10.7°C 51.0°F10.6°C 99% 5.8 mph E9.3 kmh E 9.2 mph14.8 kmh 29.33 in993.2 mb 0.00 in0.0 mm 0.00 in/hr0.0 mm/hr 0.00 in0.0 mm
06:41 AM 51.3°F10.7°C 51.0°F10.6°C 99% 5.6 mph E9.0 kmh E 9.2 mph14.8 kmh 29.33 in993.2 mb 0.00 in0.0 mm 0.00 in/hr0.0 mm/hr 0.00 in0.0 mm
06:40 AM 51.1°F10.6°C 50.8°F10.4°C 99% 5.2 mph E8.4 kmh E 8.3 mph13.4 kmh 29.33 in993.2 mb 0.00 in0.0 mm 0.00 in/hr0.0 mm/hr 0.00 in0.0 mm
06:39 AM 51.1°F10.6°C 50.8°F10.4°C 99% 4.8 mph E7.7 kmh E 7.6 mph12.2 kmh 29.33 in993.2 mb 0.00 in0.0 mm 0.00 in/hr0.0 mm/hr 0.00 in0.0 mm
06:38 AM 51.1°F10.6°C 50.8°F10.4°C 99% 4.6 mph E7.4 kmh E 7.6 mph12.2 kmh 29.33 in993.2 mb 0.00 in0.0 mm 0.00 in/hr0.0 mm/hr 0.00 in0.0 mm
06:37 AM 50.9°F10.5°C 50.6°F10.3°C 99% 4.5 mph E7.2 kmh E 7.6 mph12.2 kmh 29.33 in993.2 mb 0.00 in0.0 mm 0.00 in/hr0.0 mm/hr 0.00 in0.0 mm
06:36 AM 50.9°F10.5°C 50.6°F10.3°C 99% 4.1 mph E6.6 kmh E 7.6 mph12.2 kmh 29.33 in993.2 mb 0.00 in0.0 mm 0.00 in/hr0.0 mm/hr 0.00 in0.0 mm
06:35 AM 50.9°F10.5°C 50.6°F10.3°C 99% 3.9 mph E6.3 kmh E 6.0 mph9.7 kmh 29.33 in993.2 mb 0.00 in0.0 mm 0.00 in/hr0.0 mm/hr 0.00 in0.0 mm
06:34 AM 50.7°F10.4°C 50.5°F10.3°C 99% 3.9 mph E6.3 kmh E 5.4 mph8.7 kmh 29.33 in993.2 mb 0.00 in0.0 mm 0.00 in/hr0.0 mm/hr 0.00 in0.0 mm
06:33 AM 50.7°F10.4°C 50.5°F10.3°C 99% 3.9 mph E6.3 kmh E 5.4 mph8.7 kmh 29.33 in993.2 mb 0.00 in0.0 mm 0.00 in/hr0.0 mm/hr 0.00 in0.0 mm
06:32 AM 50.7°F10.4°C 50.5°F10.3°C 99% 4.0 mph E6.4 kmh E 5.4 mph8.7 kmh 29.32 in992.9 mb 0.00 in0.0 mm 0.00 in/hr0.0 mm/hr 0.00 in0.0 mm
06:31 AM 50.5°F10.3°C 50.3°F10.2°C 99% 4.0 mph E6.4 kmh E 5.4 mph8.7 kmh 29.33 in993.2 mb 0.00 in0.0 mm 0.00 in/hr0.0 mm/hr 0.00 in0.0 mm
06:30 AM 50.5°F10.3°C 50.3°F10.2°C 99% 3.9 mph E6.3 kmh E 5.4 mph8.7 kmh 29.33 in993.2 mb 0.00 in0.0 mm 0.00 in/hr0.0 mm/hr 0.00 in0.0 mm
06:29 AM 50.5°F10.3°C 50.3°F10.2°C 99% 4.1 mph E6.6 kmh E 6.9 mph11.1 kmh 29.33 in993.2 mb 0.00 in0.0 mm 0.00 in/hr0.0 mm/hr 0.00 in0.0 mm
06:28 AM 50.4°F10.2°C 50.1°F10.1°C 99% 4.5 mph E7.2 kmh E 6.9 mph11.1 kmh 29.33 in993.2 mb 0.00 in0.0 mm 0.00 in/hr0.0 mm/hr 0.00 in0.0 mm
06:27 AM 50.4°F10.2°C 50.1°F10.1°C 99% 4.6 mph E7.4 kmh E 6.9 mph11.1 kmh 29.33 in993.2 mb 0.00 in0.0 mm 0.00 in/hr0.0 mm/hr 0.00 in0.0 mm
06:26 AM 50.4°F10.2°C 50.1°F10.1°C 99% 4.7 mph E7.6 kmh E 6.9 mph11.1 kmh 29.33 in993.2 mb 0.00 in0.0 mm 0.00 in/hr0.0 mm/hr 0.00 in0.0 mm
06:25 AM 50.2°F10.1°C 49.9°F9.9°C 99% 4.6 mph E7.4 kmh E 6.9 mph11.1 kmh 29.33 in993.2 mb 0.00 in0.0 mm 0.00 in/hr0.0 mm/hr 0.00 in0.0 mm
06:24 AM 50.2°F10.1°C 49.9°F9.9°C 99% 4.4 mph E7.1 kmh E 6.9 mph11.1 kmh 29.32 in992.9 mb 0.00 in0.0 mm 0.00 in/hr0.0 mm/hr 0.00 in0.0 mm
06:23 AM 50.0°F10.0°C 49.7°F9.8°C 99% 4.2 mph E6.8 kmh E 6.9 mph11.1 kmh 29.33 in993.2 mb 0.00 in0.0 mm 0.00 in/hr0.0 mm/hr 0.00 in0.0 mm
06:22 AM 50.0°F10.0°C 49.7°F9.8°C 99% 4.3 mph E6.9 kmh E 6.9 mph11.1 kmh 29.32 in992.9 mb 0.00 in0.0 mm 0.00 in/hr0.0 mm/hr 0.00 in0.0 mm
06:21 AM 49.8°F9.9°C 49.6°F9.8°C 99% 4.2 mph E6.8 kmh E 6.9 mph11.1 kmh 29.32 in992.9 mb 0.00 in0.0 mm 0.00 in/hr0.0 mm/hr 0.00 in0.0 mm
06:20 AM 49.8°F9.9°C 49.6°F9.8°C 99% 4.2 mph E6.8 kmh E 6.9 mph11.1 kmh 29.32 in992.9 mb 0.00 in0.0 mm 0.00 in/hr0.0 mm/hr 0.00 in0.0 mm
06:19 AM 49.6°F9.8°C 49.4°F9.7°C 99% 3.9 mph E6.3 kmh E 6.9 mph11.1 kmh 29.32 in992.9 mb 0.00 in0.0 mm 0.00 in/hr0.0 mm/hr 0.00 in0.0 mm
06:18 AM 49.6°F9.8°C 49.4°F9.7°C 99% 3.6 mph E5.8 kmh E 5.4 mph8.7 kmh 29.32 in992.9 mb 0.00 in0.0 mm 0.00 in/hr0.0 mm/hr 0.00 in0.0 mm
06:17 AM 49.6°F9.8°C 49.4°F9.7°C 99% 3.6 mph E5.8 kmh E 5.4 mph8.7 kmh 29.32 in992.9 mb 0.00 in0.0 mm 0.00 in/hr0.0 mm/hr 0.00 in0.0 mm
06:16 AM 49.5°F9.7°C 49.2°F9.6°C 99% 3.7 mph E6.0 kmh E 5.4 mph8.7 kmh 29.33 in993.2 mb 0.00 in0.0 mm 0.00 in/hr0.0 mm/hr 0.00 in0.0 mm
06:15 AM 49.3°F9.6°C 49.0°F9.4°C 99% 3.9 mph E6.3 kmh E 7.6 mph12.2 kmh 29.33 in993.2 mb 0.00 in0.0 mm 0.00 in/hr0.0 mm/hr 0.00 in0.0 mm
06:14 AM 49.3°F9.6°C 49.0°F9.4°C 99% 4.4 mph E7.1 kmh E 7.6 mph12.2 kmh 29.32 in992.9 mb 0.00 in0.0 mm 0.00 in/hr0.0 mm/hr 0.00 in0.0 mm
06:13 AM 49.1°F9.5°C 48.8°F9.3°C 99% 4.5 mph E7.2 kmh E 7.6 mph12.2 kmh 29.32 in992.9 mb 0.00 in0.0 mm 0.00 in/hr0.0 mm/hr 0.00 in0.0 mm
06:12 AM 49.1°F9.5°C 48.8°F9.3°C 99% 4.5 mph E7.2 kmh E 7.6 mph12.2 kmh 29.33 in993.2 mb 0.00 in0.0 mm 0.00 in/hr0.0 mm/hr 0.00 in0.0 mm
06:11 AM 48.9°F9.4°C 48.7°F9.3°C 99% 4.5 mph E7.2 kmh E 7.6 mph12.2 kmh 29.32 in992.9 mb 0.00 in0.0 mm 0.00 in/hr0.0 mm/hr 0.00 in0.0 mm
06:10 AM 48.9°F9.4°C 48.7°F9.3°C 99% 4.7 mph ENE7.6 kmh ENE 7.6 mph12.2 kmh 29.32 in992.9 mb 0.00 in0.0 mm 0.00 in/hr0.0 mm/hr 0.00 in0.0 mm
06:09 AM 48.7°F9.3°C 48.5°F9.2°C 99% 4.8 mph ENE7.7 kmh ENE 7.6 mph12.2 kmh 29.32 in992.9 mb 0.00 in0.0 mm 0.00 in/hr0.0 mm/hr 0.00 in0.0 mm
06:08 AM 48.7°F9.3°C 48.5°F9.2°C 99% 4.8 mph ENE7.7 kmh ENE 7.6 mph12.2 kmh 29.32 in992.9 mb 0.00 in0.0 mm 0.00 in/hr0.0 mm/hr 0.00 in0.0 mm
06:07 AM 48.6°F9.2°C 48.3°F9.1°C 99% 4.8 mph ENE7.7 kmh ENE 7.6 mph12.2 kmh 29.32 in992.9 mb 0.00 in0.0 mm 0.00 in/hr0.0 mm/hr 0.00 in0.0 mm
06:06 AM 48.6°F9.2°C 48.3°F9.1°C 99% 4.9 mph ENE7.9 kmh ENE 7.6 mph12.2 kmh 29.32 in992.9 mb 0.00 in0.0 mm 0.00 in/hr0.0 mm/hr 0.00 in0.0 mm
06:05 AM 48.4°F9.1°C 48.1°F8.9°C 99% 4.8 mph E7.7 kmh E 7.6 mph12.2 kmh 29.32 in992.9 mb 0.00 in0.0 mm 0.00 in/hr0.0 mm/hr 0.00 in0.0 mm
06:04 AM 48.2°F9.0°C 47.9°F8.8°C 99% 4.5 mph ENE7.2 kmh ENE 6.0 mph9.7 kmh 29.32 in992.9 mb 0.00 in0.0 mm 0.00 in/hr0.0 mm/hr 0.00 in0.0 mm
06:03 AM 48.0°F8.9°C 47.8°F8.8°C 99% 4.7 mph ENE7.6 kmh ENE 6.0 mph9.7 kmh 29.32 in992.9 mb 0.00 in0.0 mm 0.00 in/hr0.0 mm/hr 0.00 in0.0 mm
06:02 AM 48.0°F8.9°C 47.8°F8.8°C 99% 4.5 mph ENE7.2 kmh ENE 6.0 mph9.7 kmh 29.32 in992.9 mb 0.00 in0.0 mm 0.00 in/hr0.0 mm/hr 0.00 in0.0 mm
06:01 AM 47.8°F8.8°C 47.6°F8.7°C 99% 4.6 mph ENE7.4 kmh ENE 6.0 mph9.7 kmh 29.32 in992.9 mb 0.00 in0.0 mm 0.00 in/hr0.0 mm/hr 0.00 in0.0 mm
06:00 AM 47.7°F8.7°C 47.4°F8.6°C 99% 4.4 mph ENE7.1 kmh ENE 6.0 mph9.7 kmh 29.32 in992.9 mb 0.00 in0.0 mm 0.00 in/hr0.0 mm/hr 0.00 in0.0 mm
05:59 AM 47.5°F8.6°C 47.2°F8.4°C 99% 4.2 mph ENE6.8 kmh ENE 6.0 mph9.7 kmh 29.32 in992.9 mb 0.00 in0.0 mm 0.00 in/hr0.0 mm/hr 0.00 in0.0 mm
05:58 AM 47.5°F8.6°C 47.2°F8.4°C 99% 4.2 mph ENE6.8 kmh ENE 6.0 mph9.7 kmh 29.32 in992.9 mb 0.00 in0.0 mm 0.00 in/hr0.0 mm/hr 0.00 in0.0 mm
05:57 AM 47.3°F8.5°C 47.0°F8.3°C 99% 3.9 mph ENE6.3 kmh ENE 6.0 mph9.7 kmh 29.32 in992.9 mb 0.00 in0.0 mm 0.00 in/hr0.0 mm/hr 0.00 in0.0 mm
05:56 AM 47.1°F8.4°C 46.9°F8.3°C 99% 3.5 mph ENE5.6 kmh ENE 6.0 mph9.7 kmh 29.32 in992.9 mb 0.00 in0.0 mm 0.00 in/hr0.0 mm/hr 0.00 in0.0 mm
05:55 AM 46.9°F8.3°C 46.7°F8.2°C 99% 3.2 mph ENE5.1 kmh ENE 6.0 mph9.7 kmh 29.32 in992.9 mb 0.00 in0.0 mm 0.00 in/hr0.0 mm/hr 0.00 in0.0 mm
05:54 AM 46.9°F8.3°C 46.7°F8.2°C 99% 2.7 mph ENE4.3 kmh ENE 6.0 mph9.7 kmh 29.32 in992.9 mb 0.00 in0.0 mm 0.00 in/hr0.0 mm/hr 0.00 in0.0 mm
05:53 AM 46.9°F8.3°C 46.7°F8.2°C 99% 2.2 mph ENE3.5 kmh ENE 6.0 mph9.7 kmh 29.32 in992.9 mb 0.00 in0.0 mm 0.00 in/hr0.0 mm/hr 0.00 in0.0 mm
05:52 AM 46.8°F8.2°C 46.5°F8.1°C 99% 2.2 mph ENE3.5 kmh ENE 5.4 mph8.7 kmh 29.32 in992.9 mb 0.00 in0.0 mm 0.00 in/hr0.0 mm/hr 0.00 in0.0 mm
05:51 AM 46.6°F8.1°C 46.3°F7.9°C 99% 2.2 mph ENE3.5 kmh ENE 5.4 mph8.7 kmh 29.32 in992.9 mb 0.00 in0.0 mm 0.00 in/hr0.0 mm/hr 0.00 in0.0 mm
05:50 AM 46.6°F8.1°C 46.3°F7.9°C 99% 2.2 mph ENE3.5 kmh ENE 3.8 mph6.1 kmh 29.32 in992.9 mb 0.00 in0.0 mm 0.00 in/hr0.0 mm/hr 0.00 in0.0 mm
05:49 AM 46.6°F8.1°C 46.3°F7.9°C 99% 2.0 mph ENE3.2 kmh ENE 3.8 mph6.1 kmh 29.32 in992.9 mb 0.00 in0.0 mm 0.00 in/hr0.0 mm/hr 0.00 in0.0 mm
05:48 AM 46.4°F8.0°C 46.1°F7.8°C 99% 1.8 mph ENE2.9 kmh ENE 3.8 mph6.1 kmh 29.32 in992.9 mb 0.00 in0.0 mm 0.00 in/hr0.0 mm/hr 0.00 in0.0 mm
05:47 AM 46.4°F8.0°C 46.1°F7.8°C 99% 1.7 mph ENE2.7 kmh ENE 3.8 mph6.1 kmh 29.32 in992.9 mb 0.00 in0.0 mm 0.00 in/hr0.0 mm/hr 0.00 in0.0 mm
05:46 AM 46.2°F7.9°C 46.0°F7.8°C 99% 1.6 mph NE2.6 kmh NE 3.8 mph6.1 kmh 29.32 in992.9 mb 0.00 in0.0 mm 0.00 in/hr0.0 mm/hr 0.00 in0.0 mm
05:45 AM 46.0°F7.8°C 45.8°F7.7°C 99% 1.5 mph NE2.4 kmh NE 3.8 mph6.1 kmh 29.32 in992.9 mb 0.00 in0.0 mm 0.00 in/hr0.0 mm/hr 0.00 in0.0 mm
05:44 AM 46.0°F7.8°C 45.8°F7.7°C 99% 1.5 mph NE2.4 kmh NE 3.8 mph6.1 kmh 29.32 in992.9 mb 0.00 in0.0 mm 0.00 in/hr0.0 mm/hr 0.00 in0.0 mm
05:43 AM 45.9°F7.7°C 45.6°F7.6°C 99% 1.4 mph NE2.3 kmh NE 3.8 mph6.1 kmh 29.32 in992.9 mb 0.00 in0.0 mm 0.00 in/hr0.0 mm/hr 0.00 in0.0 mm
05:42 AM 45.9°F7.7°C 45.6°F7.6°C 99% 1.2 mph NE1.9 kmh NE 3.8 mph6.1 kmh 29.32 in992.9 mb 0.00 in0.0 mm 0.00 in/hr0.0 mm/hr 0.00 in0.0 mm
05:41 AM 45.9°F7.7°C 45.6°F7.6°C 99% 0.9 mph NNE1.4 kmh NNE 3.8 mph6.1 kmh 29.32 in992.9 mb 0.00 in0.0 mm 0.00 in/hr0.0 mm/hr 0.00 in0.0 mm
05:40 AM 45.9°F7.7°C 45.6°F7.6°C 99% 0.7 mph NW1.1 kmh NW 1.6 mph2.6 kmh 29.31 in992.6 mb 0.00 in0.0 mm 0.00 in/hr0.0 mm/hr 0.00 in0.0 mm
05:39 AM 45.7°F7.6°C 45.4°F7.4°C 99% 0.7 mph NW1.1 kmh NW 1.6 mph2.6 kmh 29.31 in992.6 mb 0.00 in0.0 mm 0.00 in/hr0.0 mm/hr 0.00 in0.0 mm
05:38 AM 45.7°F7.6°C 45.4°F7.4°C 99% 0.8 mph NW1.3 kmh NW 1.6 mph2.6 kmh 29.32 in992.9 mb 0.00 in0.0 mm 0.00 in/hr0.0 mm/hr 0.00 in0.0 mm
05:37 AM 45.7°F7.6°C 45.4°F7.4°C 99% 0.8 mph NW1.3 kmh NW 1.6 mph2.6 kmh 29.32 in992.9 mb 0.00 in0.0 mm 0.00 in/hr0.0 mm/hr 0.00 in0.0 mm
05:36 AM 45.7°F7.6°C 45.4°F7.4°C 99% 0.9 mph NW1.4 kmh NW 1.6 mph2.6 kmh 29.32 in992.9 mb 0.00 in0.0 mm 0.00 in/hr0.0 mm/hr 0.00 in0.0 mm
05:35 AM 45.5°F7.5°C 45.2°F7.3°C 99% 1.0 mph NW1.6 kmh NW 1.6 mph2.6 kmh 29.32 in992.9 mb 0.00 in0.0 mm 0.00 in/hr0.0 mm/hr 0.00 in0.0 mm
05:34 AM 45.5°F7.5°C 45.2°F7.3°C 99% 1.1 mph NW1.8 kmh NW 1.6 mph2.6 kmh 29.32 in992.9 mb 0.00 in0.0 mm 0.00 in/hr0.0 mm/hr 0.00 in0.0 mm
05:33 AM 45.5°F7.5°C 45.2°F7.3°C 99% 1.1 mph NNW1.8 kmh NNW 1.6 mph2.6 kmh 29.32 in992.9 mb 0.00 in0.0 mm 0.00 in/hr0.0 mm/hr 0.00 in0.0 mm
05:32 AM 45.3°F7.4°C 45.1°F7.3°C 99% 1.1 mph NNW1.8 kmh NNW 1.6 mph2.6 kmh 29.32 in992.9 mb 0.00 in0.0 mm 0.00 in/hr0.0 mm/hr 0.00 in0.0 mm
05:31 AM 45.3°F7.4°C 45.1°F7.3°C 99% 1.2 mph NNW1.9 kmh NNW 1.6 mph2.6 kmh 29.32 in992.9 mb 0.00 in0.0 mm 0.00 in/hr0.0 mm/hr 0.00 in0.0 mm
05:30 AM 45.3°F7.4°C 45.1°F7.3°C 99% 1.2 mph N1.9 kmh N 1.6 mph2.6 kmh 29.32 in992.9 mb 0.00 in0.0 mm 0.00 in/hr0.0 mm/hr 0.00 in0.0 mm
05:29 AM 45.3°F7.4°C 45.1°F7.3°C 99% 1.0 mph N1.6 kmh N 1.6 mph2.6 kmh 29.32 in992.9 mb 0.00 in0.0 mm 0.00 in/hr0.0 mm/hr 0.00 in0.0 mm
05:28 AM 45.1°F7.3°C 44.9°F7.2°C 99% 0.9 mph N1.4 kmh N 1.6 mph2.6 kmh 29.32 in992.9 mb 0.00 in0.0 mm 0.00 in/hr0.0 mm/hr 0.00 in0.0 mm
05:27 AM 45.1°F7.3°C 44.9°F7.2°C 99% 0.8 mph N1.3 kmh N 1.6 mph2.6 kmh 29.32 in992.9 mb 0.00 in0.0 mm 0.00 in/hr0.0 mm/hr 0.00 in0.0 mm
05:26 AM 45.0°F7.2°C 44.7°F7.1°C 99% 0.6 mph N1.0 kmh N 1.6 mph2.6 kmh 29.32 in992.9 mb 0.00 in0.0 mm 0.00 in/hr0.0 mm/hr 0.00 in0.0 mm
05:25 AM 45.1°F7.3°C 44.9°F7.2°C 99% 0.5 mph N0.8 kmh N 1.6 mph2.6 kmh 29.32 in992.9 mb 0.00 in0.0 mm 0.00 in/hr0.0 mm/hr 0.00 in0.0 mm
05:24 AM 45.1°F7.3°C 44.9°F7.2°C 99% 0.4 mph N0.6 kmh N 1.6 mph2.6 kmh 29.32 in992.9 mb 0.00 in0.0 mm 0.00 in/hr0.0 mm/hr 0.00 in0.0 mm
05:23 AM 45.0°F7.2°C 44.7°F7.1°C 99% 0.3 mph N0.5 kmh N 1.6 mph2.6 kmh 29.32 in992.9 mb 0.00 in0.0 mm 0.00 in/hr0.0 mm/hr 0.00 in0.0 mm
05:22 AM 45.0°F7.2°C 44.7°F7.1°C 99% 0.3 mph N0.5 kmh N 1.6 mph2.6 kmh 29.32 in992.9 mb 0.00 in0.0 mm 0.00 in/hr0.0 mm/hr 0.00 in0.0 mm
05:21 AM 45.1°F7.3°C 44.9°F7.2°C 99% 0.3 mph NNW0.5 kmh NNW 1.6 mph2.6 kmh 29.32 in992.9 mb 0.00 in0.0 mm 0.00 in/hr0.0 mm/hr 0.00 in0.0 mm
05:20 AM 45.1°F7.3°C 44.9°F7.2°C 99% 0.2 mph NW0.3 kmh NW 0.7 mph1.1 kmh 29.32 in992.9 mb 0.00 in0.0 mm 0.00 in/hr0.0 mm/hr 0.00 in0.0 mm
05:19 AM 45.1°F7.3°C 44.9°F7.2°C 99% 0.3 mph NW0.5 kmh NW 0.7 mph1.1 kmh 29.32 in992.9 mb 0.00 in0.0 mm 0.00 in/hr0.0 mm/hr 0.00 in0.0 mm
05:18 AM 45.1°F7.3°C 44.9°F7.2°C 99% 0.3 mph NW0.5 kmh NW 0.7 mph1.1 kmh 29.32 in992.9 mb 0.00 in0.0 mm 0.00 in/hr0.0 mm/hr 0.00 in0.0 mm
05:17 AM 45.1°F7.3°C 44.9°F7.2°C 99% 0.4 mph NNW0.6 kmh NNW 0.7 mph1.1 kmh 29.32 in992.9 mb 0.00 in0.0 mm 0.00 in/hr0.0 mm/hr 0.00 in0.0 mm
05:16 AM 45.1°F7.3°C 44.9°F7.2°C 99% 0.4 mph N0.6 kmh N 0.7 mph1.1 kmh 29.32 in992.9 mb 0.00 in0.0 mm 0.00 in/hr0.0 mm/hr 0.00 in0.0 mm
05:15 AM 45.1°F7.3°C 44.9°F7.2°C 99% 0.4 mph N0.6 kmh N 0.7 mph1.1 kmh 29.32 in992.9 mb 0.00 in0.0 mm 0.00 in/hr0.0 mm/hr 0.00 in0.0 mm
05:14 AM 45.1°F7.3°C 44.9°F7.2°C 99% 0.4 mph N0.6 kmh N 0.7 mph1.1 kmh 29.32 in992.9 mb 0.00 in0.0 mm 0.00 in/hr0.0 mm/hr 0.00 in0.0 mm
05:13 AM 45.1°F7.3°C 44.9°F7.2°C 99% 0.4 mph N0.6 kmh N 0.7 mph1.1 kmh 29.31 in992.6 mb 0.00 in0.0 mm 0.00 in/hr0.0 mm/hr 0.00 in0.0 mm
05:12 AM 45.1°F7.3°C 44.9°F7.2°C 99% 0.4 mph N0.6 kmh N 0.7 mph1.1 kmh 29.31 in992.6 mb 0.00 in0.0 mm 0.00 in/hr0.0 mm/hr 0.00 in0.0 mm
05:11 AM 45.1°F7.3°C 44.9°F7.2°C 99% 0.3 mph N0.5 kmh N 0.7 mph1.1 kmh 29.31 in992.6 mb 0.00 in0.0 mm 0.00 in/hr0.0 mm/hr 0.00 in0.0 mm
05:10 AM 45.1°F7.3°C 44.9°F7.2°C 99% 0.2 mph NNE0.3 kmh NNE 0.7 mph1.1 kmh 29.32 in992.9 mb 0.00 in0.0 mm 0.00 in/hr0.0 mm/hr 0.00 in0.0 mm
05:09 AM 45.1°F7.3°C 44.9°F7.2°C 99% 0.2 mph NE0.3 kmh NE 0.7 mph1.1 kmh 29.32 in992.9 mb 0.00 in0.0 mm 0.00 in/hr0.0 mm/hr 0.00 in0.0 mm
05:08 AM 45.1°F7.3°C 44.9°F7.2°C 99% 0.1 mph NE0.2 kmh NE 0.7 mph1.1 kmh 29.32 in992.9 mb 0.00 in0.0 mm 0.00 in/hr0.0 mm/hr 0.00 in0.0 mm
05:07 AM 45.1°F7.3°C 44.9°F7.2°C 99% 0.1 mph NE0.2 kmh NE 1.6 mph2.6 kmh 29.32 in992.9 mb 0.00 in0.0 mm 0.00 in/hr0.0 mm/hr 0.00 in0.0 mm
05:06 AM 45.1°F7.3°C 44.9°F7.2°C 99% 0.3 mph E0.5 kmh E 2.2 mph3.5 kmh 29.32 in992.9 mb 0.00 in0.0 mm 0.00 in/hr0.0 mm/hr 0.00 in0.0 mm
05:05 AM 45.1°F7.3°C 44.9°F7.2°C 99% 0.4 mph ENE0.6 kmh ENE 2.2 mph3.5 kmh 29.31 in992.6 mb 0.00 in0.0 mm 0.00 in/hr0.0 mm/hr 0.00 in0.0 mm
05:04 AM 45.3°F7.4°C 45.1°F7.3°C 99% 0.4 mph ENE0.6 kmh ENE 2.2 mph3.5 kmh 29.31 in992.6 mb 0.00 in0.0 mm 0.00 in/hr0.0 mm/hr 0.00 in0.0 mm
05:03 AM 45.3°F7.4°C 45.1°F7.3°C 99% 0.4 mph ENE0.6 kmh ENE 2.2 mph3.5 kmh 29.32 in992.9 mb 0.00 in0.0 mm 0.00 in/hr0.0 mm/hr 0.00 in0.0 mm
05:02 AM 45.3°F7.4°C 45.1°F7.3°C 99% 0.5 mph ENE0.8 kmh ENE 2.2 mph3.5 kmh 29.31 in992.6 mb 0.00 in0.0 mm 0.00 in/hr0.0 mm/hr 0.00 in0.0 mm
05:01 AM 45.3°F7.4°C 45.1°F7.3°C 99% 0.5 mph ENE0.8 kmh ENE 2.2 mph3.5 kmh 29.31 in992.6 mb 0.00 in0.0 mm 0.00 in/hr0.0 mm/hr 0.00 in0.0 mm
05:00 AM 45.3°F7.4°C 45.1°F7.3°C 99% 0.6 mph NE1.0 kmh NE 2.2 mph3.5 kmh 29.32 in992.9 mb 0.00 in0.0 mm 0.00 in/hr0.0 mm/hr 0.00 in0.0 mm
04:59 AM 45.3°F7.4°C 45.1°F7.3°C 99% 0.7 mph NE1.1 kmh NE 2.2 mph3.5 kmh 29.31 in992.6 mb 0.00 in0.0 mm 0.00 in/hr0.0 mm/hr 0.00 in0.0 mm
04:58 AM 45.3°F7.4°C 45.1°F7.3°C 99% 0.8 mph NE1.3 kmh NE 2.2 mph3.5 kmh 29.31 in992.6 mb 0.00 in0.0 mm 0.00 in/hr0.0 mm/hr 0.00 in0.0 mm
04:57 AM 45.3°F7.4°C 45.1°F7.3°C 99% 0.8 mph NNE1.3 kmh NNE 2.2 mph3.5 kmh 29.31 in992.6 mb 0.00 in0.0 mm 0.00 in/hr0.0 mm/hr 0.00 in0.0 mm
04:56 AM 45.3°F7.4°C 45.1°F7.3°C 99% 0.6 mph NNE1.0 kmh NNE 2.2 mph3.5 kmh 29.31 in992.6 mb 0.00 in0.0 mm 0.00 in/hr0.0 mm/hr 0.00 in0.0 mm
04:55 AM 45.3°F7.4°C 45.1°F7.3°C 99% 0.5 mph N0.8 kmh N 1.6 mph2.6 kmh 29.31 in992.6 mb 0.00 in0.0 mm 0.00 in/hr0.0 mm/hr 0.00 in0.0 mm
04:54 AM 45.3°F7.4°C 45.1°F7.3°C 99% 0.5 mph N0.8 kmh N 1.6 mph2.6 kmh 29.31 in992.6 mb 0.00 in0.0 mm 0.00 in/hr0.0 mm/hr 0.00 in0.0 mm
04:53 AM 45.3°F7.4°C 45.1°F7.3°C 99% 0.5 mph N0.8 kmh N 1.6 mph2.6 kmh 29.31 in992.6 mb 0.00 in0.0 mm 0.00 in/hr0.0 mm/hr 0.00 in0.0 mm
04:52 AM 45.3°F7.4°C 45.1°F7.3°C 99% 0.6 mph N1.0 kmh N 1.6 mph2.6 kmh 29.31 in992.6 mb 0.00 in0.0 mm 0.00 in/hr0.0 mm/hr 0.00 in0.0 mm
04:51 AM 45.3°F7.4°C 45.1°F7.3°C 99% 0.6 mph N1.0 kmh N 1.6 mph2.6 kmh 29.31 in992.6 mb 0.00 in0.0 mm 0.00 in/hr0.0 mm/hr 0.00 in0.0 mm
04:50 AM 45.3°F7.4°C 45.1°F7.3°C 99% 0.6 mph N1.0 kmh N 1.6 mph2.6 kmh 29.31 in992.6 mb 0.00 in0.0 mm 0.00 in/hr0.0 mm/hr 0.00 in0.0 mm
04:49 AM 45.3°F7.4°C 45.1°F7.3°C 99% 0.5 mph N0.8 kmh N 0.7 mph1.1 kmh 29.32 in992.9 mb 0.00 in0.0 mm 0.00 in/hr0.0 mm/hr 0.00 in0.0 mm
04:48 AM 45.3°F7.4°C 45.1°F7.3°C 99% 0.4 mph N0.6 kmh N 0.7 mph1.1 kmh 29.31 in992.6 mb 0.00 in0.0 mm 0.00 in/hr0.0 mm/hr 0.00 in0.0 mm
04:47 AM 45.3°F7.4°C 45.1°F7.3°C 99% 0.4 mph N0.6 kmh N 0.7 mph1.1 kmh 29.32 in992.9 mb 0.00 in0.0 mm 0.00 in/hr0.0 mm/hr 0.00 in0.0 mm
04:46 AM 45.3°F7.4°C 45.1°F7.3°C 99% 0.3 mph N0.5 kmh N 0.7 mph1.1 kmh 29.32 in992.9 mb 0.00 in0.0 mm 0.00 in/hr0.0 mm/hr 0.00 in0.0 mm
04:45 AM 45.3°F7.4°C 45.1°F7.3°C 99% 0.3 mph N0.5 kmh N 0.7 mph1.1 kmh 29.32 in992.9 mb 0.00 in0.0 mm 0.00 in/hr0.0 mm/hr 0.00 in0.0 mm
04:44 AM 45.3°F7.4°C 45.1°F7.3°C 99% 0.3 mph N0.5 kmh N 0.7 mph1.1 kmh 29.32 in992.9 mb 0.00 in0.0 mm 0.00 in/hr0.0 mm/hr 0.00 in0.0 mm
04:43 AM 45.5°F7.5°C 45.2°F7.3°C 99% 0.2 mph N0.3 kmh N 0.7 mph1.1 kmh 29.32 in992.9 mb 0.00 in0.0 mm 0.00 in/hr0.0 mm/hr 0.00 in0.0 mm
04:42 AM 45.5°F7.5°C 45.2°F7.3°C 99% 0.2 mph N0.3 kmh N 0.7 mph1.1 kmh 29.32 in992.9 mb 0.00 in0.0 mm 0.00 in/hr0.0 mm/hr 0.00 in0.0 mm
04:41 AM 45.3°F7.4°C 45.1°F7.3°C 99% 0.2 mph N0.3 kmh N 0.7 mph1.1 kmh 29.32 in992.9 mb 0.00 in0.0 mm 0.00 in/hr0.0 mm/hr 0.00 in0.0 mm
04:40 AM 45.5°F7.5°C 45.2°F7.3°C 99% 0.1 mph N0.2 kmh N 0.7 mph1.1 kmh 29.32 in992.9 mb 0.00 in0.0 mm 0.00 in/hr0.0 mm/hr 0.00 in0.0 mm
04:39 AM 45.5°F7.5°C 45.2°F7.3°C 99% 0.2 mph N0.3 kmh N 0.7 mph1.1 kmh 29.32 in992.9 mb 0.00 in0.0 mm 0.00 in/hr0.0 mm/hr 0.00 in0.0 mm
04:38 AM 45.3°F7.4°C 45.1°F7.3°C 99% 0.2 mph N0.3 kmh N 0.7 mph1.1 kmh 29.32 in992.9 mb 0.00 in0.0 mm 0.00 in/hr0.0 mm/hr 0.00 in0.0 mm
04:37 AM 45.3°F7.4°C 45.1°F7.3°C 99% 0.3 mph N0.5 kmh N 0.7 mph1.1 kmh 29.32 in992.9 mb 0.00 in0.0 mm 0.00 in/hr0.0 mm/hr 0.00 in0.0 mm
04:36 AM 45.3°F7.4°C 45.1°F7.3°C 99% 0.4 mph N0.6 kmh N 0.7 mph1.1 kmh 29.32 in992.9 mb 0.00 in0.0 mm 0.00 in/hr0.0 mm/hr 0.00 in0.0 mm
04:35 AM 45.3°F7.4°C 45.1°F7.3°C 99% 0.4 mph NNW0.6 kmh NNW 0.7 mph1.1 kmh 29.32 in992.9 mb 0.00 in0.0 mm 0.00 in/hr0.0 mm/hr 0.00 in0.0 mm
04:34 AM 45.3°F7.4°C 45.1°F7.3°C 99% 0.4 mph NNW0.6 kmh NNW 0.7 mph1.1 kmh 29.32 in992.9 mb 0.00 in0.0 mm 0.00 in/hr0.0 mm/hr 0.00 in0.0 mm
04:33 AM 45.3°F7.4°C 45.1°F7.3°C 99% 0.4 mph NNW0.6 kmh NNW 0.7 mph1.1 kmh 29.32 in992.9 mb 0.00 in0.0 mm 0.00 in/hr0.0 mm/hr 0.00 in0.0 mm
04:32 AM 45.3°F7.4°C 45.1°F7.3°C 99% 0.4 mph NNW0.6 kmh NNW 0.7 mph1.1 kmh 29.32 in992.9 mb 0.00 in0.0 mm 0.00 in/hr0.0 mm/hr 0.00 in0.0 mm
04:31 AM 45.3°F7.4°C 45.1°F7.3°C 99% 0.5 mph N0.8 kmh N 1.6 mph2.6 kmh 29.32 in992.9 mb 0.00 in0.0 mm 0.00 in/hr0.0 mm/hr 0.00 in0.0 mm
04:30 AM 45.3°F7.4°C 45.1°F7.3°C 99% 0.5 mph NNW0.8 kmh NNW 1.6 mph2.6 kmh 29.32 in992.9 mb 0.00 in0.0 mm 0.00 in/hr0.0 mm/hr 0.00 in0.0 mm
04:29 AM 45.3°F7.4°C 45.1°F7.3°C 99% 0.5 mph NW0.8 kmh NW 1.6 mph2.6 kmh 29.32 in992.9 mb 0.00 in0.0 mm 0.00 in/hr0.0 mm/hr 0.00 in0.0 mm
04:28 AM 45.3°F7.4°C 45.1°F7.3°C 99% 0.5 mph NW0.8 kmh NW 1.6 mph2.6 kmh 29.32 in992.9 mb 0.00 in0.0 mm 0.00 in/hr0.0 mm/hr 0.00 in0.0 mm
04:27 AM 45.3°F7.4°C 45.1°F7.3°C 99% 0.5 mph WNW0.8 kmh WNW 1.6 mph2.6 kmh 29.32 in992.9 mb 0.00 in0.0 mm 0.00 in/hr0.0 mm/hr 0.00 in0.0 mm
04:26 AM 45.3°F7.4°C 45.1°F7.3°C 99% 0.5 mph WNW0.8 kmh WNW 1.6 mph2.6 kmh 29.32 in992.9 mb 0.00 in0.0 mm 0.00 in/hr0.0 mm/hr 0.00 in0.0 mm
04:25 AM 45.3°F7.4°C 45.1°F7.3°C 99% 0.5 mph NW0.8 kmh NW 1.6 mph2.6 kmh 29.32 in992.9 mb 0.00 in0.0 mm 0.00 in/hr0.0 mm/hr 0.00 in0.0 mm
04:24 AM 45.3°F7.4°C 45.1°F7.3°C 99% 0.5 mph NW0.8 kmh NW 1.6 mph2.6 kmh 29.32 in992.9 mb 0.00 in0.0 mm 0.00 in/hr0.0 mm/hr 0.00 in0.0 mm
04:23 AM 45.3°F7.4°C 45.1°F7.3°C 99% 0.5 mph NW0.8 kmh NW 1.6 mph2.6 kmh 29.32 in992.9 mb 0.00 in0.0 mm 0.00 in/hr0.0 mm/hr 0.00 in0.0 mm
04:22 AM 45.1°F7.3°C 44.9°F7.2°C 99% 0.5 mph NW0.8 kmh NW 1.6 mph2.6 kmh 29.32 in992.9 mb 0.00 in0.0 mm 0.00 in/hr0.0 mm/hr 0.00 in0.0 mm
04:21 AM 45.1°F7.3°C 44.9°F7.2°C 99% 0.5 mph WNW0.8 kmh WNW 1.6 mph2.6 kmh 29.32 in992.9 mb 0.00 in0.0 mm 0.00 in/hr0.0 mm/hr 0.00 in0.0 mm
04:20 AM 45.1°F7.3°C 44.9°F7.2°C 99% 0.6 mph WNW1.0 kmh WNW 1.6 mph2.6 kmh 29.32 in992.9 mb 0.00 in0.0 mm 0.00 in/hr0.0 mm/hr 0.00 in0.0 mm
04:19 AM 45.1°F7.3°C 44.9°F7.2°C 99% 0.6 mph WNW1.0 kmh WNW 1.6 mph2.6 kmh 29.32 in992.9 mb 0.00 in0.0 mm 0.00 in/hr0.0 mm/hr 0.00 in0.0 mm
04:18 AM 45.0°F7.2°C 44.7°F7.1°C 99% 0.5 mph WNW0.8 kmh WNW 1.6 mph2.6 kmh 29.32 in992.9 mb 0.00 in0.0 mm 0.00 in/hr0.0 mm/hr 0.00 in0.0 mm
04:17 AM 45.0°F7.2°C 44.7°F7.1°C 99% 0.5 mph WNW0.8 kmh WNW 1.6 mph2.6 kmh 29.32 in992.9 mb 0.00 in0.0 mm 0.00 in/hr0.0 mm/hr 0.00 in0.0 mm
04:16 AM 45.0°F7.2°C 44.7°F7.1°C 99% 0.5 mph WNW0.8 kmh WNW 1.6 mph2.6 kmh 29.32 in992.9 mb 0.00 in0.0 mm 0.00 in/hr0.0 mm/hr 0.00 in0.0 mm
04:15 AM 45.0°F7.2°C 44.7°F7.1°C 99% 0.5 mph W0.8 kmh W 1.6 mph2.6 kmh 29.32 in992.9 mb 0.00 in0.0 mm 0.00 in/hr0.0 mm/hr 0.00 in0.0 mm
04:14 AM 44.8°F7.1°C 44.5°F6.9°C 99% 0.5 mph W0.8 kmh W 1.6 mph2.6 kmh 29.32 in992.9 mb 0.00 in0.0 mm 0.00 in/hr0.0 mm/hr 0.00 in0.0 mm
04:13 AM 44.8°F7.1°C 44.5°F6.9°C 99% 0.6 mph W1.0 kmh W 1.6 mph2.6 kmh 29.32 in992.9 mb 0.00 in0.0 mm 0.00 in/hr0.0 mm/hr 0.00 in0.0 mm
04:12 AM 44.8°F7.1°C 44.5°F6.9°C 99% 0.6 mph W1.0 kmh W 1.6 mph2.6 kmh 29.32 in992.9 mb 0.00 in0.0 mm 0.00 in/hr0.0 mm/hr 0.00 in0.0 mm
04:11 AM 44.6°F7.0°C 44.3°F6.8°C 99% 0.5 mph W0.8 kmh W 1.6 mph2.6 kmh 29.32 in992.9 mb 0.00 in0.0 mm 0.00 in/hr0.0 mm/hr 0.00 in0.0 mm
04:10 AM 44.6°F7.0°C 44.3°F6.8°C 99% 0.5 mph W0.8 kmh W 2.2 mph3.5 kmh 29.32 in992.9 mb 0.00 in0.0 mm 0.00 in/hr0.0 mm/hr 0.00 in0.0 mm
04:09 AM 44.6°F7.0°C 44.3°F6.8°C 99% 0.7 mph W1.1 kmh W 2.2 mph3.5 kmh 29.32 in992.9 mb 0.00 in0.0 mm 0.00 in/hr0.0 mm/hr 0.00 in0.0 mm
04:08 AM 44.6°F7.0°C 44.3°F6.8°C 99% 0.8 mph W1.3 kmh W 2.2 mph3.5 kmh 29.32 in992.9 mb 0.00 in0.0 mm 0.00 in/hr0.0 mm/hr 0.00 in0.0 mm
04:07 AM 44.6°F7.0°C 44.3°F6.8°C 99% 0.8 mph W1.3 kmh W 2.2 mph3.5 kmh 29.32 in992.9 mb 0.00 in0.0 mm 0.00 in/hr0.0 mm/hr 0.00 in0.0 mm
04:06 AM 44.6°F7.0°C 44.3°F6.8°C 99% 0.7 mph W1.1 kmh W 2.2 mph3.5 kmh 29.32 in992.9 mb 0.00 in0.0 mm 0.00 in/hr0.0 mm/hr 0.00 in0.0 mm
04:05 AM 44.4°F6.9°C 44.2°F6.8°C 99% 0.8 mph W1.3 kmh W 2.2 mph3.5 kmh 29.32 in992.9 mb 0.00 in0.0 mm 0.00 in/hr0.0 mm/hr 0.00 in0.0 mm
04:04 AM 44.4°F6.9°C 44.2°F6.8°C 99% 0.8 mph W1.3 kmh W 2.2 mph3.5 kmh 29.32 in992.9 mb 0.00 in0.0 mm 0.00 in/hr0.0 mm/hr 0.00 in0.0 mm
04:03 AM 44.4°F6.9°C 44.2°F6.8°C 99% 0.8 mph W1.3 kmh W 2.2 mph3.5 kmh 29.32 in992.9 mb 0.00 in0.0 mm 0.00 in/hr0.0 mm/hr 0.00 in0.0 mm
04:02 AM 44.4°F6.9°C 44.2°F6.8°C 99% 0.8 mph W1.3 kmh W 2.2 mph3.5 kmh 29.32 in992.9 mb 0.00 in0.0 mm 0.00 in/hr0.0 mm/hr 0.00 in0.0 mm
04:01 AM 44.2°F6.8°C 44.0°F6.7°C 99% 0.9 mph W1.4 kmh W 2.2 mph3.5 kmh 29.32 in992.9 mb 0.00 in0.0 mm 0.00 in/hr0.0 mm/hr 0.00 in0.0 mm
04:00 AM 44.2°F6.8°C 44.0°F6.7°C 99% 0.8 mph W1.3 kmh W 2.2 mph3.5 kmh 29.31 in992.6 mb 0.00 in0.0 mm 0.00 in/hr0.0 mm/hr 0.00 in0.0 mm
03:59 AM 44.2°F6.8°C 44.0°F6.7°C 99% 0.6 mph W1.0 kmh W 2.2 mph3.5 kmh 29.32 in992.9 mb 0.00 in0.0 mm 0.00 in/hr0.0 mm/hr 0.00 in0.0 mm
03:58 AM 44.2°F6.8°C 44.0°F6.7°C 99% 0.5 mph W0.8 kmh W 1.6 mph2.6 kmh 29.31 in992.6 mb 0.00 in0.0 mm 0.00 in/hr0.0 mm/hr 0.00 in0.0 mm
03:57 AM 44.2°F6.8°C 44.0°F6.7°C 99% 0.6 mph W1.0 kmh W 1.6 mph2.6 kmh 29.32 in992.9 mb 0.00 in0.0 mm 0.00 in/hr0.0 mm/hr 0.00 in0.0 mm
03:56 AM 44.2°F6.8°C 44.0°F6.7°C 99% 0.7 mph W1.1 kmh W 1.6 mph2.6 kmh 29.32 in992.9 mb 0.00 in0.0 mm 0.00 in/hr0.0 mm/hr 0.00 in0.0 mm
03:55 AM 44.1°F6.7°C 43.8°F6.6°C 99% 0.7 mph W1.1 kmh W 1.6 mph2.6 kmh 29.32 in992.9 mb 0.00 in0.0 mm 0.00 in/hr0.0 mm/hr 0.00 in0.0 mm
03:54 AM 44.1°F6.7°C 43.8°F6.6°C 99% 0.7 mph W1.1 kmh W 1.6 mph2.6 kmh 29.32 in992.9 mb 0.00 in0.0 mm 0.00 in/hr0.0 mm/hr 0.00 in0.0 mm
03:53 AM 44.1°F6.7°C 43.8°F6.6°C 99% 0.6 mph W1.0 kmh W 1.6 mph2.6 kmh 29.32 in992.9 mb 0.00 in0.0 mm 0.00 in/hr0.0 mm/hr 0.00 in0.0 mm
03:52 AM 44.1°F6.7°C 43.8°F6.6°C 99% 0.7 mph W1.1 kmh W 1.6 mph2.6 kmh 29.32 in992.9 mb 0.00 in0.0 mm 0.00 in/hr0.0 mm/hr 0.00 in0.0 mm
03:51 AM 44.1°F6.7°C 43.8°F6.6°C 99% 0.8 mph W1.3 kmh W 1.6 mph2.6 kmh 29.32 in992.9 mb 0.00 in0.0 mm 0.00 in/hr0.0 mm/hr 0.00 in0.0 mm
03:50 AM 44.1°F6.7°C 43.8°F6.6°C 99% 0.8 mph W1.3 kmh W 1.6 mph2.6 kmh 29.32 in992.9 mb 0.00 in0.0 mm 0.00 in/hr0.0 mm/hr 0.00 in0.0 mm
03:49 AM 43.9°F6.6°C 43.6°F6.4°C 99% 0.9 mph W1.4 kmh W 1.6 mph2.6 kmh 29.32 in992.9 mb 0.00 in0.0 mm 0.00 in/hr0.0 mm/hr 0.00 in0.0 mm
03:48 AM 43.9°F6.6°C 43.6°F6.4°C 99% 0.9 mph W1.4 kmh W 1.6 mph2.6 kmh 29.31 in992.6 mb 0.00 in0.0 mm 0.00 in/hr0.0 mm/hr 0.00 in0.0 mm
03:47 AM 43.9°F6.6°C 43.6°F6.4°C 99% 0.9 mph W1.4 kmh W 1.6 mph2.6 kmh 29.32 in992.9 mb 0.00 in0.0 mm 0.00 in/hr0.0 mm/hr 0.00 in0.0 mm
03:46 AM 43.9°F6.6°C 43.6°F6.4°C 99% 0.8 mph W1.3 kmh W 1.6 mph2.6 kmh 29.32 in992.9 mb 0.00 in0.0 mm 0.00 in/hr0.0 mm/hr 0.00 in0.0 mm
03:45 AM 43.9°F6.6°C 43.6°F6.4°C 99% 0.9 mph W1.4 kmh W 1.6 mph2.6 kmh 29.32 in992.9 mb 0.00 in0.0 mm 0.00 in/hr0.0 mm/hr 0.00 in0.0 mm
03:44 AM 43.7°F6.5°C 43.4°F6.3°C 99% 0.9 mph W1.4 kmh W 1.6 mph2.6 kmh 29.32 in992.9 mb 0.00 in0.0 mm 0.00 in/hr0.0 mm/hr 0.00 in0.0 mm
03:43 AM 43.7°F6.5°C 43.4°F6.3°C 99% 0.8 mph W1.3 kmh W 1.6 mph2.6 kmh 29.32 in992.9 mb 0.00 in0.0 mm 0.00 in/hr0.0 mm/hr 0.00 in0.0 mm
03:42 AM 43.7°F6.5°C 43.4°F6.3°C 99% 0.8 mph W1.3 kmh W 2.2 mph3.5 kmh 29.32 in992.9 mb 0.00 in0.0 mm 0.00 in/hr0.0 mm/hr 0.00 in0.0 mm
03:41 AM 43.7°F6.5°C 43.4°F6.3°C 99% 0.9 mph W1.4 kmh W 2.2 mph3.5 kmh 29.32 in992.9 mb 0.00 in0.0 mm 0.00 in/hr0.0 mm/hr 0.00 in0.0 mm
03:40 AM 43.7°F6.5°C 43.4°F6.3°C 99% 0.9 mph W1.4 kmh W 2.2 mph3.5 kmh 29.32 in992.9 mb 0.00 in0.0 mm 0.00 in/hr0.0 mm/hr 0.00 in0.0 mm
03:39 AM 43.5°F6.4°C 43.3°F6.3°C 99% 0.8 mph W1.3 kmh W 2.2 mph3.5 kmh 29.32 in992.9 mb 0.00 in0.0 mm 0.00 in/hr0.0 mm/hr 0.00 in0.0 mm
03:38 AM 43.5°F6.4°C 43.3°F6.3°C 99% 0.9 mph W1.4 kmh W 2.2 mph3.5 kmh 29.32 in992.9 mb 0.00 in0.0 mm 0.00 in/hr0.0 mm/hr 0.00 in0.0 mm
03:37 AM 43.5°F6.4°C 43.3°F6.3°C 99% 0.9 mph W1.4 kmh W 2.2 mph3.5 kmh 29.32 in992.9 mb 0.00 in0.0 mm 0.00 in/hr0.0 mm/hr 0.00 in0.0 mm
03:36 AM 43.5°F6.4°C 43.3°F6.3°C 99% 0.9 mph W1.4 kmh W 2.2 mph3.5 kmh 29.32 in992.9 mb 0.00 in0.0 mm 0.00 in/hr0.0 mm/hr 0.00 in0.0 mm
03:35 AM 43.5°F6.4°C 43.3°F6.3°C 99% 0.7 mph W1.1 kmh W 2.2 mph3.5 kmh 29.33 in993.2 mb 0.00 in0.0 mm 0.00 in/hr0.0 mm/hr 0.00 in0.0 mm
03:34 AM 43.5°F6.4°C 43.3°F6.3°C 99% 0.7 mph W1.1 kmh W 2.2 mph3.5 kmh 29.32 in992.9 mb 0.00 in0.0 mm 0.00 in/hr0.0 mm/hr 0.00 in0.0 mm
03:33 AM 43.5°F6.4°C 43.3°F6.3°C 99% 0.8 mph W1.3 kmh W 2.2 mph3.5 kmh 29.33 in993.2 mb 0.00 in0.0 mm 0.00 in/hr0.0 mm/hr 0.00 in0.0 mm
03:32 AM 43.5°F6.4°C 43.3°F6.3°C 99% 0.7 mph W1.1 kmh W 2.2 mph3.5 kmh 29.32 in992.9 mb 0.00 in0.0 mm 0.00 in/hr0.0 mm/hr 0.00 in0.0 mm
03:31 AM 43.5°F6.4°C 43.3°F6.3°C 99% 0.6 mph W1.0 kmh W 2.2 mph3.5 kmh 29.32 in992.9 mb 0.00 in0.0 mm 0.00 in/hr0.0 mm/hr 0.00 in0.0 mm
03:30 AM 43.5°F6.4°C 43.3°F6.3°C 99% 0.5 mph W0.8 kmh W 1.6 mph2.6 kmh 29.32 in992.9 mb 0.00 in0.0 mm 0.00 in/hr0.0 mm/hr 0.00 in0.0 mm
03:29 AM 43.5°F6.4°C 43.3°F6.3°C 99% 0.7 mph W1.1 kmh W 1.6 mph2.6 kmh 29.32 in992.9 mb 0.00 in0.0 mm 0.00 in/hr0.0 mm/hr 0.00 in0.0 mm
03:28 AM 43.5°F6.4°C 43.3°F6.3°C 99% 0.7 mph W1.1 kmh W 1.6 mph2.6 kmh 29.32 in992.9 mb 0.00 in0.0 mm 0.00 in/hr0.0 mm/hr 0.00 in0.0 mm
03:27 AM 43.5°F6.4°C 43.3°F6.3°C 99% 0.6 mph W1.0 kmh W 1.6 mph2.6 kmh 29.33 in993.2 mb 0.00 in0.0 mm 0.00 in/hr0.0 mm/hr 0.00 in0.0 mm
03:26 AM 43.5°F6.4°C 43.3°F6.3°C 99% 0.5 mph W0.8 kmh W 1.6 mph2.6 kmh 29.32 in992.9 mb 0.00 in0.0 mm 0.00 in/hr0.0 mm/hr 0.00 in0.0 mm
03:25 AM 43.5°F6.4°C 43.3°F6.3°C 99% 0.5 mph W0.8 kmh W 1.6 mph2.6 kmh 29.32 in992.9 mb 0.00 in0.0 mm 0.00 in/hr0.0 mm/hr 0.00 in0.0 mm
03:24 AM 43.7°F6.5°C 43.4°F6.3°C 99% 0.5 mph W0.8 kmh W 1.6 mph2.6 kmh 29.32 in992.9 mb 0.00 in0.0 mm 0.00 in/hr0.0 mm/hr 0.00 in0.0 mm
03:23 AM 43.7°F6.5°C 43.4°F6.3°C 99% 0.4 mph W0.6 kmh W 1.6 mph2.6 kmh 29.32 in992.9 mb 0.00 in0.0 mm 0.00 in/hr0.0 mm/hr 0.00 in0.0 mm
03:22 AM 43.7°F6.5°C 43.4°F6.3°C 99% 0.3 mph W0.5 kmh W 1.6 mph2.6 kmh 29.32 in992.9 mb 0.00 in0.0 mm 0.00 in/hr0.0 mm/hr 0.00 in0.0 mm
03:21 AM 43.7°F6.5°C 43.4°F6.3°C 99% 0.2 mph W0.3 kmh W 1.6 mph2.6 kmh 29.32 in992.9 mb 0.00 in0.0 mm 0.00 in/hr0.0 mm/hr 0.00 in0.0 mm
03:20 AM 43.7°F6.5°C 43.4°F6.3°C 99% 0.3 mph W0.5 kmh W 1.6 mph2.6 kmh 29.32 in992.9 mb 0.00 in0.0 mm 0.00 in/hr0.0 mm/hr 0.00 in0.0 mm
03:19 AM 43.7°F6.5°C 43.4°F6.3°C 99% 0.2 mph W0.3 kmh W 0.7 mph1.1 kmh 29.32 in992.9 mb 0.00 in0.0 mm 0.00 in/hr0.0 mm/hr 0.00 in0.0 mm
03:18 AM 43.9°F6.6°C 43.6°F6.4°C 99% 0.2 mph W0.3 kmh W 0.7 mph1.1 kmh 29.32 in992.9 mb 0.00 in0.0 mm 0.00 in/hr0.0 mm/hr 0.00 in0.0 mm
03:17 AM 43.9°F6.6°C 43.6°F6.4°C 99% 0.3 mph W0.5 kmh W 0.7 mph1.1 kmh 29.33 in993.2 mb 0.00 in0.0 mm 0.00 in/hr0.0 mm/hr 0.00 in0.0 mm
03:16 AM 43.9°F6.6°C 43.6°F6.4°C 99% 0.3 mph W0.5 kmh W 0.7 mph1.1 kmh 29.32 in992.9 mb 0.00 in0.0 mm 0.00 in/hr0.0 mm/hr 0.00 in0.0 mm
03:15 AM 43.9°F6.6°C 43.6°F6.4°C 99% 0.3 mph W0.5 kmh W 0.7 mph1.1 kmh 29.32 in992.9 mb 0.00 in0.0 mm 0.00 in/hr0.0 mm/hr 0.00 in0.0 mm
03:14 AM 43.9°F6.6°C 43.6°F6.4°C 99% 0.3 mph W0.5 kmh W 0.7 mph1.1 kmh 29.32 in992.9 mb 0.00 in0.0 mm 0.00 in/hr0.0 mm/hr 0.00 in0.0 mm
03:13 AM 43.9°F6.6°C 43.6°F6.4°C 99% 0.4 mph W0.6 kmh W 0.7 mph1.1 kmh 29.32 in992.9 mb 0.00 in0.0 mm 0.00 in/hr0.0 mm/hr 0.00 in0.0 mm
03:12 AM 43.9°F6.6°C 43.6°F6.4°C 99% 0.4 mph W0.6 kmh W 0.7 mph1.1 kmh 29.32 in992.9 mb 0.00 in0.0 mm 0.00 in/hr0.0 mm/hr 0.00 in0.0 mm
03:11 AM 43.9°F6.6°C 43.6°F6.4°C 99% 0.4 mph W0.6 kmh W 0.7 mph1.1 kmh 29.32 in992.9 mb 0.00 in0.0 mm 0.00 in/hr0.0 mm/hr 0.00 in0.0 mm
03:10 AM 43.9°F6.6°C 43.6°F6.4°C 99% 0.3 mph W0.5 kmh W 0.7 mph1.1 kmh 29.32 in992.9 mb 0.00 in0.0 mm 0.00 in/hr0.0 mm/hr 0.00 in0.0 mm
03:09 AM 43.9°F6.6°C 43.6°F6.4°C 99% 0.3 mph W0.5 kmh W 0.7 mph1.1 kmh 29.33 in993.2 mb 0.00 in0.0 mm 0.00 in/hr0.0 mm/hr 0.00 in0.0 mm
03:08 AM 43.9°F6.6°C 43.6°F6.4°C 99% 0.2 mph W0.3 kmh W 0.7 mph1.1 kmh 29.32 in992.9 mb 0.00 in0.0 mm 0.00 in/hr0.0 mm/hr 0.00 in0.0 mm
03:07 AM 43.9°F6.6°C 43.6°F6.4°C 99% 0.1 mph W0.2 kmh W 0.7 mph1.1 kmh 29.32 in992.9 mb 0.00 in0.0 mm 0.00 in/hr0.0 mm/hr 0.00 in0.0 mm
03:06 AM 43.9°F6.6°C 43.6°F6.4°C 99% 0.1 mph W0.2 kmh W 0.7 mph1.1 kmh 29.32 in992.9 mb 0.00 in0.0 mm 0.00 in/hr0.0 mm/hr 0.00 in0.0 mm
03:05 AM 43.9°F6.6°C 43.6°F6.4°C 99% 0.1 mph W0.2 kmh W 0.7 mph1.1 kmh 29.32 in992.9 mb 0.00 in0.0 mm 0.00 in/hr0.0 mm/hr 0.00 in0.0 mm
03:04 AM 43.9°F6.6°C 43.6°F6.4°C 99% 0.1 mph W0.2 kmh W 0.7 mph1.1 kmh 29.32 in992.9 mb 0.00 in0.0 mm 0.00 in/hr0.0 mm/hr 0.00 in0.0 mm
03:03 AM 43.9°F6.6°C 43.6°F6.4°C 99% 0.2 mph W0.3 kmh W 1.6 mph2.6 kmh 29.33 in993.2 mb 0.00 in0.0 mm 0.00 in/hr0.0 mm/hr 0.00 in0.0 mm
03:02 AM 43.9°F6.6°C 43.6°F6.4°C 99% 0.4 mph W0.6 kmh W 2.2 mph3.5 kmh 29.33 in993.2 mb 0.00 in0.0 mm 0.00 in/hr0.0 mm/hr 0.00 in0.0 mm
03:01 AM 43.9°F6.6°C 43.6°F6.4°C 99% 0.5 mph W0.8 kmh W 2.2 mph3.5 kmh 29.33 in993.2 mb 0.00 in0.0 mm 0.00 in/hr0.0 mm/hr 0.00 in0.0 mm
03:00 AM 43.9°F6.6°C 43.6°F6.4°C 99% 0.6 mph W1.0 kmh W 2.2 mph3.5 kmh 29.32 in992.9 mb 0.00 in0.0 mm 0.00 in/hr0.0 mm/hr 0.00 in0.0 mm
02:59 AM 43.9°F6.6°C 43.6°F6.4°C 99% 0.6 mph W1.0 kmh W 2.2 mph3.5 kmh 29.33 in993.2 mb 0.00 in0.0 mm 0.00 in/hr0.0 mm/hr 0.00 in0.0 mm
02:58 AM 43.9°F6.6°C 43.6°F6.4°C 99% 0.6 mph W1.0 kmh W 2.2 mph3.5 kmh 29.33 in993.2 mb 0.00 in0.0 mm 0.00 in/hr0.0 mm/hr 0.00 in0.0 mm
02:57 AM 43.9°F6.6°C 43.6°F6.4°C 99% 0.7 mph W1.1 kmh W 2.2 mph3.5 kmh 29.33 in993.2 mb 0.00 in0.0 mm 0.00 in/hr0.0 mm/hr 0.00 in0.0 mm
02:56 AM 43.9°F6.6°C 43.6°F6.4°C 99% 0.7 mph W1.1 kmh W 2.2 mph3.5 kmh 29.33 in993.2 mb 0.00 in0.0 mm 0.00 in/hr0.0 mm/hr 0.00 in0.0 mm
02:55 AM 43.9°F6.6°C 43.6°F6.4°C 99% 0.9 mph W1.4 kmh W 2.2 mph3.5 kmh 29.33 in993.2 mb 0.00 in0.0 mm 0.00 in/hr0.0 mm/hr 0.00 in0.0 mm
02:54 AM 43.7°F6.5°C 43.4°F6.3°C 99% 1.1 mph W1.8 kmh W 2.2 mph3.5 kmh 29.33 in993.2 mb 0.00 in0.0 mm 0.00 in/hr0.0 mm/hr 0.00 in0.0 mm
02:53 AM 43.7°F6.5°C 43.4°F6.3°C 99% 1.0 mph W1.6 kmh W 2.2 mph3.5 kmh 29.33 in993.2 mb 0.00 in0.0 mm 0.00 in/hr0.0 mm/hr 0.00 in0.0 mm
02:52 AM 43.7°F6.5°C 43.4°F6.3°C 99% 0.8 mph WNW1.3 kmh WNW 2.2 mph3.5 kmh 29.33 in993.2 mb 0.00 in0.0 mm 0.00 in/hr0.0 mm/hr 0.00 in0.0 mm
02:51 AM 43.7°F6.5°C 43.4°F6.3°C 99% 0.8 mph WNW1.3 kmh WNW 2.2 mph3.5 kmh 29.33 in993.2 mb 0.00 in0.0 mm 0.00 in/hr0.0 mm/hr 0.00 in0.0 mm
02:50 AM 43.7°F6.5°C 43.4°F6.3°C 99% 0.8 mph WNW1.3 kmh WNW 2.2 mph3.5 kmh 29.33 in993.2 mb 0.00 in0.0 mm 0.00 in/hr0.0 mm/hr 0.00 in0.0 mm
02:49 AM 43.7°F6.5°C 43.4°F6.3°C 99% 0.9 mph WNW1.4 kmh WNW 2.2 mph3.5 kmh 29.33 in993.2 mb 0.00 in0.0 mm 0.00 in/hr0.0 mm/hr 0.00 in0.0 mm
02:48 AM 43.7°F6.5°C 43.4°F6.3°C 99% 1.0 mph W1.6 kmh W 2.2 mph3.5 kmh 29.33 in993.2 mb 0.00 in0.0 mm 0.00 in/hr0.0 mm/hr 0.00 in0.0 mm
02:47 AM 43.7°F6.5°C 43.4°F6.3°C 99% 0.9 mph W1.4 kmh W 2.2 mph3.5 kmh 29.33 in993.2 mb 0.00 in0.0 mm 0.00 in/hr0.0 mm/hr 0.00 in0.0 mm
02:46 AM 43.7°F6.5°C 43.4°F6.3°C 99% 0.9 mph W1.4 kmh W 2.2 mph3.5 kmh 29.33 in993.2 mb 0.00 in0.0 mm 0.00 in/hr0.0 mm/hr 0.00 in0.0 mm
02:45 AM 43.7°F6.5°C 43.4°F6.3°C 99% 0.9 mph WSW1.4 kmh WSW 2.2 mph3.5 kmh 29.33 in993.2 mb 0.00 in0.0 mm 0.00 in/hr0.0 mm/hr 0.00 in0.0 mm
02:44 AM 43.5°F6.4°C 43.3°F6.3°C 99% 0.8 mph WSW1.3 kmh WSW 1.6 mph2.6 kmh 29.33 in993.2 mb 0.00 in0.0 mm 0.00 in/hr0.0 mm/hr 0.00 in0.0 mm
02:43 AM 43.5°F6.4°C 43.3°F6.3°C 99% 0.8 mph WSW1.3 kmh WSW 1.6 mph2.6 kmh 29.33 in993.2 mb 0.00 in0.0 mm 0.00 in/hr0.0 mm/hr 0.00 in0.0 mm
02:42 AM 43.5°F6.4°C 43.3°F6.3°C 99% 0.8 mph WSW1.3 kmh WSW 1.6 mph2.6 kmh 29.33 in993.2 mb 0.00 in0.0 mm 0.00 in/hr0.0 mm/hr 0.00 in0.0 mm
02:41 AM 43.5°F6.4°C 43.3°F6.3°C 99% 0.8 mph SW1.3 kmh SW 1.6 mph2.6 kmh 29.33 in993.2 mb 0.00 in0.0 mm 0.00 in/hr0.0 mm/hr 0.00 in0.0 mm
02:40 AM 43.5°F6.4°C 43.3°F6.3°C 99% 0.7 mph SW1.1 kmh SW 1.6 mph2.6 kmh 29.33 in993.2 mb 0.00 in0.0 mm 0.00 in/hr0.0 mm/hr 0.00 in0.0 mm
02:39 AM 43.5°F6.4°C 43.3°F6.3°C 99% 0.6 mph SW1.0 kmh SW 1.6 mph2.6 kmh 29.33 in993.2 mb 0.00 in0.0 mm 0.00 in/hr0.0 mm/hr 0.00 in0.0 mm
02:38 AM 43.5°F6.4°C 43.3°F6.3°C 99% 0.5 mph SW0.8 kmh SW 1.6 mph2.6 kmh 29.33 in993.2 mb 0.00 in0.0 mm 0.00 in/hr0.0 mm/hr 0.00 in0.0 mm
02:37 AM 43.3°F6.3°C 43.1°F6.2°C 99% 0.5 mph SW0.8 kmh SW 1.6 mph2.6 kmh 29.33 in993.2 mb 0.00 in0.0 mm 0.00 in/hr0.0 mm/hr 0.00 in0.0 mm
02:36 AM 43.3°F6.3°C 43.1°F6.2°C 99% 0.4 mph SW0.6 kmh SW 1.6 mph2.6 kmh 29.33 in993.2 mb 0.00 in0.0 mm 0.00 in/hr0.0 mm/hr 0.00 in0.0 mm
02:35 AM 43.3°F6.3°C 43.1°F6.2°C 99% 0.4 mph SW0.6 kmh SW 1.6 mph2.6 kmh 29.33 in993.2 mb 0.00 in0.0 mm 0.00 in/hr0.0 mm/hr 0.00 in0.0 mm
02:34 AM 43.3°F6.3°C 43.1°F6.2°C 99% 0.3 mph SW0.5 kmh SW 1.6 mph2.6 kmh 29.33 in993.2 mb 0.00 in0.0 mm 0.00 in/hr0.0 mm/hr 0.00 in0.0 mm
02:33 AM 43.3°F6.3°C 43.1°F6.2°C 99% 0.2 mph SW0.3 kmh SW 0.7 mph1.1 kmh 29.33 in993.2 mb 0.00 in0.0 mm 0.00 in/hr0.0 mm/hr 0.00 in0.0 mm
02:32 AM 43.3°F6.3°C 43.1°F6.2°C 99% 0.2 mph SW0.3 kmh SW 0.7 mph1.1 kmh 29.33 in993.2 mb 0.00 in0.0 mm 0.00 in/hr0.0 mm/hr 0.00 in0.0 mm
02:31 AM 43.3°F6.3°C 43.1°F6.2°C 99% 0.2 mph SW0.3 kmh SW 0.7 mph1.1 kmh 29.34 in993.6 mb 0.00 in0.0 mm 0.00 in/hr0.0 mm/hr 0.00 in0.0 mm
02:30 AM 43.3°F6.3°C 43.1°F6.2°C 99% 0.1 mph SW0.2 kmh SW 0.7 mph1.1 kmh 29.33 in993.2 mb 0.00 in0.0 mm 0.00 in/hr0.0 mm/hr 0.00 in0.0 mm
02:29 AM 43.3°F6.3°C 43.1°F6.2°C 99% 0.1 mph SW0.2 kmh SW 0.7 mph1.1 kmh 29.34 in993.6 mb 0.00 in0.0 mm 0.00 in/hr0.0 mm/hr 0.00 in0.0 mm
02:28 AM 43.3°F6.3°C 43.1°F6.2°C 99% 0.1 mph SW0.2 kmh SW 0.7 mph1.1 kmh 29.34 in993.6 mb 0.00 in0.0 mm 0.00 in/hr0.0 mm/hr 0.00 in0.0 mm
02:27 AM 43.3°F6.3°C 43.1°F6.2°C 99% 0.1 mph SW0.2 kmh SW 0.7 mph1.1 kmh 29.34 in993.6 mb 0.00 in0.0 mm 0.00 in/hr0.0 mm/hr 0.00 in0.0 mm
02:26 AM 43.3°F6.3°C 43.1°F6.2°C 99% 0.1 mph SW0.2 kmh SW 0.7 mph1.1 kmh 29.34 in993.6 mb 0.00 in0.0 mm 0.00 in/hr0.0 mm/hr 0.00 in0.0 mm
02:25 AM 43.3°F6.3°C 43.1°F6.2°C 99% 0.1 mph SW0.2 kmh SW 0.7 mph1.1 kmh 29.34 in993.6 mb 0.00 in0.0 mm 0.00 in/hr0.0 mm/hr 0.00 in0.0 mm
02:24 AM 43.3°F6.3°C 43.1°F6.2°C 99% Calm Calm -- 29.34 in993.6 mb 0.00 in0.0 mm 0.00 in/hr0.0 mm/hr 0.00 in0.0 mm
02:23 AM 43.3°F6.3°C 43.1°F6.2°C 99% Calm Calm -- 29.34 in993.6 mb 0.00 in0.0 mm 0.00 in/hr0.0 mm/hr 0.00 in0.0 mm
02:22 AM 43.3°F6.3°C 43.1°F6.2°C 99% Calm Calm -- 29.34 in993.6 mb 0.00 in0.0 mm 0.00 in/hr0.0 mm/hr 0.00 in0.0 mm
02:21 AM 43.3°F6.3°C 43.1°F6.2°C 99% Calm Calm -- 29.34 in993.6 mb 0.00 in0.0 mm 0.00 in/hr0.0 mm/hr 0.00 in0.0 mm
02:20 AM 43.5°F6.4°C 43.3°F6.3°C 99% Calm Calm -- 29.34 in993.6 mb 0.00 in0.0 mm 0.00 in/hr0.0 mm/hr 0.00 in0.0 mm
02:19 AM 43.5°F6.4°C 43.3°F6.3°C 99% Calm Calm -- 29.34 in993.6 mb 0.00 in0.0 mm 0.00 in/hr0.0 mm/hr 0.00 in0.0 mm
02:18 AM 43.5°F6.4°C 43.3°F6.3°C 99% Calm Calm -- 29.34 in993.6 mb 0.00 in0.0 mm 0.00 in/hr0.0 mm/hr 0.00 in0.0 mm
02:17 AM 43.7°F6.5°C 43.4°F6.3°C 99% Calm Calm -- 29.34 in993.6 mb 0.00 in0.0 mm 0.00 in/hr0.0 mm/hr 0.00 in0.0 mm
02:16 AM 43.7°F6.5°C 43.4°F6.3°C 99% Calm Calm -- 29.34 in993.6 mb 0.00 in0.0 mm 0.00 in/hr0.0 mm/hr 0.00 in0.0 mm
02:15 AM 43.9°F6.6°C 43.6°F6.4°C 99% Calm Calm -- 29.34 in993.6 mb 0.00 in0.0 mm 0.00 in/hr0.0 mm/hr 0.00 in0.0 mm
02:14 AM 43.9°F6.6°C 43.6°F6.4°C 99% 0.1 mph SW0.2 kmh SW 0.7 mph1.1 kmh 29.34 in993.6 mb 0.00 in0.0 mm 0.00 in/hr0.0 mm/hr 0.00 in0.0 mm
02:13 AM 43.9°F6.6°C 43.6°F6.4°C 99% 0.1 mph SW0.2 kmh SW 0.7 mph1.1 kmh 29.34 in993.6 mb 0.00 in0.0 mm 0.00 in/hr0.0 mm/hr 0.00 in0.0 mm
02:12 AM 43.9°F6.6°C 43.6°F6.4°C 99% 0.2 mph SW0.3 kmh SW 0.7 mph1.1 kmh 29.34 in993.6 mb 0.00 in0.0 mm 0.00 in/hr0.0 mm/hr 0.00 in0.0 mm
02:11 AM 43.9°F6.6°C 43.6°F6.4°C 99% 0.2 mph SW0.3 kmh SW 0.7 mph1.1 kmh 29.34 in993.6 mb 0.00 in0.0 mm 0.00 in/hr0.0 mm/hr 0.00 in0.0 mm
02:10 AM 44.1°F6.7°C 43.8°F6.6°C 99% 0.2 mph SW0.3 kmh SW 0.7 mph1.1 kmh 29.34 in993.6 mb 0.00 in0.0 mm 0.00 in/hr0.0 mm/hr 0.00 in0.0 mm
02:09 AM 44.1°F6.7°C 43.8°F6.6°C 99% 0.2 mph SW0.3 kmh SW 0.7 mph1.1 kmh 29.34 in993.6 mb 0.00 in0.0 mm 0.00 in/hr0.0 mm/hr 0.00 in0.0 mm
02:08 AM 44.1°F6.7°C 43.8°F6.6°C 99% 0.2 mph SW0.3 kmh SW 0.7 mph1.1 kmh 29.34 in993.6 mb 0.00 in0.0 mm 0.00 in/hr0.0 mm/hr 0.00 in0.0 mm
02:07 AM 44.1°F6.7°C 43.8°F6.6°C 99% 0.2 mph SW0.3 kmh SW 0.7 mph1.1 kmh 29.34 in993.6 mb 0.00 in0.0 mm 0.00 in/hr0.0 mm/hr 0.00 in0.0 mm
02:06 AM 44.1°F6.7°C 43.8°F6.6°C 99% 0.2 mph SW0.3 kmh SW 0.7 mph1.1 kmh 29.34 in993.6 mb 0.00 in0.0 mm 0.00 in/hr0.0 mm/hr 0.00 in0.0 mm
02:05 AM 44.1°F6.7°C 43.8°F6.6°C 99% 0.2 mph SW0.3 kmh SW 0.7 mph1.1 kmh 29.34 in993.6 mb 0.00 in0.0 mm 0.00 in/hr0.0 mm/hr 0.00 in0.0 mm
02:04 AM 44.1°F6.7°C 43.8°F6.6°C 99% 0.2 mph SW0.3 kmh SW 0.7 mph1.1 kmh 29.34 in993.6 mb 0.00 in0.0 mm 0.00 in/hr0.0 mm/hr 0.00 in0.0 mm
02:03 AM 44.1°F6.7°C 43.8°F6.6°C 99% 0.1 mph SW0.2 kmh SW 0.7 mph1.1 kmh 29.34 in993.6 mb 0.00 in0.0 mm 0.00 in/hr0.0 mm/hr 0.00 in0.0 mm
02:02 AM 44.2°F6.8°C 44.0°F6.7°C 99% Calm Calm 0.7 mph1.1 kmh 29.34 in993.6 mb 0.00 in0.0 mm 0.00 in/hr0.0 mm/hr 0.00 in0.0 mm
02:01 AM 44.2°F6.8°C 44.0°F6.7°C 99% Calm Calm -- 29.34 in993.6 mb 0.00 in0.0 mm 0.00 in/hr0.0 mm/hr 0.00 in0.0 mm
02:00 AM 44.2°F6.8°C 44.0°F6.7°C 99% Calm Calm -- 29.35 in993.9 mb 0.00 in0.0 mm 0.00 in/hr0.0 mm/hr 0.00 in0.0 mm
01:59 AM 44.2°F6.8°C 44.0°F6.7°C 99% Calm Calm -- 29.35 in993.9 mb 0.00 in0.0 mm 0.00 in/hr0.0 mm/hr 0.00 in0.0 mm
01:58 AM 44.2°F6.8°C 44.0°F6.7°C 99% Calm Calm 0.7 mph1.1 kmh 29.35 in993.9 mb 0.00 in0.0 mm 0.00 in/hr0.0 mm/hr 0.00 in0.0 mm
01:57 AM 44.2°F6.8°C 44.0°F6.7°C 99% 0.1 mph SW0.2 kmh SW 0.7 mph1.1 kmh 29.35 in993.9 mb 0.00 in0.0 mm 0.00 in/hr0.0 mm/hr 0.00 in0.0 mm
01:56 AM 44.4°F6.9°C 44.2°F6.8°C 99% 0.1 mph SW0.2 kmh SW 0.7 mph1.1 kmh 29.34 in993.6 mb 0.00 in0.0 mm 0.00 in/hr0.0 mm/hr 0.00 in0.0 mm
01:55 AM 44.4°F6.9°C 44.2°F6.8°C 99% 0.2 mph SW0.3 kmh SW 0.7 mph1.1 kmh 29.35 in993.9 mb 0.00 in0.0 mm 0.00 in/hr0.0 mm/hr 0.00 in0.0 mm
01:54 AM 44.4°F6.9°C 44.2°F6.8°C 99% 0.2 mph SW0.3 kmh SW 0.7 mph1.1 kmh 29.35 in993.9 mb 0.00 in0.0 mm 0.00 in/hr0.0 mm/hr 0.00 in0.0 mm
01:53 AM 44.4°F6.9°C 44.2°F6.8°C 99% 0.2 mph SW0.3 kmh SW 0.7 mph1.1 kmh 29.35 in993.9 mb 0.00 in0.0 mm 0.00 in/hr0.0 mm/hr 0.00 in0.0 mm
01:52 AM 44.4°F6.9°C 44.2°F6.8°C 99% 0.2 mph SW0.3 kmh SW 0.7 mph1.1 kmh 29.35 in993.9 mb 0.00 in0.0 mm 0.00 in/hr0.0 mm/hr 0.00 in0.0 mm
01:51 AM 44.4°F6.9°C 44.2°F6.8°C 99% 0.3 mph SW0.5 kmh SW 0.7 mph1.1 kmh 29.34 in993.6 mb 0.00 in0.0 mm 0.00 in/hr0.0 mm/hr 0.00 in0.0 mm
01:50 AM 44.6°F7.0°C 44.3°F6.8°C 99% 0.3 mph SW0.5 kmh SW 0.7 mph1.1 kmh 29.35 in993.9 mb 0.00 in0.0 mm 0.00 in/hr0.0 mm/hr 0.00 in0.0 mm
01:49 AM 44.6°F7.0°C 44.3°F6.8°C 99% 0.3 mph SW0.5 kmh SW 0.7 mph1.1 kmh 29.35 in993.9 mb 0.00 in0.0 mm 0.00 in/hr0.0 mm/hr 0.00 in0.0 mm
01:48 AM 44.6°F7.0°C 44.3°F6.8°C 99% 0.3 mph SW0.5 kmh SW 0.7 mph1.1 kmh 29.34 in993.6 mb 0.00 in0.0 mm 0.00 in/hr0.0 mm/hr 0.00 in0.0 mm
01:47 AM 44.6°F7.0°C 44.3°F6.8°C 99% 0.2 mph SW0.3 kmh SW 0.7 mph1.1 kmh 29.34 in993.6 mb 0.00 in0.0 mm 0.00 in/hr0.0 mm/hr 0.00 in0.0 mm
01:46 AM 44.6°F7.0°C 44.3°F6.8°C 99% 0.1 mph SW0.2 kmh SW 0.7 mph1.1 kmh 29.35 in993.9 mb 0.00 in0.0 mm 0.00 in/hr0.0 mm/hr 0.00 in0.0 mm
01:45 AM 44.6°F7.0°C 44.3°F6.8°C 99% 0.1 mph SW0.2 kmh SW 0.7 mph1.1 kmh 29.35 in993.9 mb 0.00 in0.0 mm 0.00 in/hr0.0 mm/hr 0.00 in0.0 mm
01:44 AM 44.8°F7.1°C 44.5°F6.9°C 99% 0.2 mph SW0.3 kmh SW 0.7 mph1.1 kmh 29.35 in993.9 mb 0.00 in0.0 mm 0.00 in/hr0.0 mm/hr 0.00 in0.0 mm
01:43 AM 44.8°F7.1°C 44.5°F6.9°C 99% 0.3 mph SW0.5 kmh SW 0.7 mph1.1 kmh 29.35 in993.9 mb 0.00 in0.0 mm 0.00 in/hr0.0 mm/hr 0.00 in0.0 mm
01:42 AM 44.8°F7.1°C 44.5°F6.9°C 99% 0.3 mph SW0.5 kmh SW 0.7 mph1.1 kmh 29.34 in993.6 mb 0.00 in0.0 mm 0.00 in/hr0.0 mm/hr 0.00 in0.0 mm
01:41 AM 44.8°F7.1°C 44.5°F6.9°C 99% 0.3 mph SW0.5 kmh SW 0.7 mph1.1 kmh 29.34 in993.6 mb 0.00 in0.0 mm 0.00 in/hr0.0 mm/hr 0.00 in0.0 mm
01:40 AM 44.8°F7.1°C 44.5°F6.9°C 99% 0.3 mph SW0.5 kmh SW 0.7 mph1.1 kmh 29.35 in993.9 mb 0.00 in0.0 mm 0.00 in/hr0.0 mm/hr 0.00 in0.0 mm
01:39 AM 44.8°F7.1°C 44.5°F6.9°C 99% 0.3 mph SW0.5 kmh SW 0.7 mph1.1 kmh 29.35 in993.9 mb 0.00 in0.0 mm 0.00 in/hr0.0 mm/hr 0.00 in0.0 mm
01:38 AM 44.8°F7.1°C 44.5°F6.9°C 99% 0.4 mph SW0.6 kmh SW 0.7 mph1.1 kmh 29.34 in993.6 mb 0.00 in0.0 mm 0.00 in/hr0.0 mm/hr 0.00 in0.0 mm
01:37 AM 44.8°F7.1°C 44.5°F6.9°C 99% 0.4 mph SW0.6 kmh SW 0.7 mph1.1 kmh 29.34 in993.6 mb 0.00 in0.0 mm 0.00 in/hr0.0 mm/hr 0.00 in0.0 mm
01:36 AM 44.8°F7.1°C 44.5°F6.9°C 99% 0.4 mph SW0.6 kmh SW 0.7 mph1.1 kmh 29.34 in993.6 mb 0.00 in0.0 mm 0.00 in/hr0.0 mm/hr 0.00 in0.0 mm
01:35 AM 44.8°F7.1°C 44.5°F6.9°C 99% 0.4 mph SW0.6 kmh SW 0.7 mph1.1 kmh 29.34 in993.6 mb 0.00 in0.0 mm 0.00 in/hr0.0 mm/hr 0.00 in0.0 mm
01:34 AM 44.8°F7.1°C 44.5°F6.9°C 99% 0.3 mph SW0.5 kmh SW 0.7 mph1.1 kmh 29.34 in993.6 mb 0.00 in0.0 mm 0.00 in/hr0.0 mm/hr 0.00 in0.0 mm
01:33 AM 44.8°F7.1°C 44.5°F6.9°C 99% 0.3 mph SW0.5 kmh SW 0.7 mph1.1 kmh 29.35 in993.9 mb 0.00 in0.0 mm 0.00 in/hr0.0 mm/hr 0.00 in0.0 mm
01:32 AM 45.0°F7.2°C 44.7°F7.1°C 99% 0.2 mph SW0.3 kmh SW 0.7 mph1.1 kmh 29.35 in993.9 mb 0.00 in0.0 mm 0.00 in/hr0.0 mm/hr 0.00 in0.0 mm
01:31 AM 45.0°F7.2°C 44.7°F7.1°C 99% 0.2 mph SW0.3 kmh SW 0.7 mph1.1 kmh 29.35 in993.9 mb 0.00 in0.0 mm 0.00 in/hr0.0 mm/hr 0.00 in0.0 mm
01:30 AM 45.0°F7.2°C 44.7°F7.1°C 99% 0.2 mph SW0.3 kmh SW 0.7 mph1.1 kmh 29.35 in993.9 mb 0.00 in0.0 mm 0.00 in/hr0.0 mm/hr 0.00 in0.0 mm
01:29 AM 44.8°F7.1°C 44.5°F6.9°C 99% 0.1 mph SW0.2 kmh SW 0.7 mph1.1 kmh 29.35 in993.9 mb 0.00 in0.0 mm 0.00 in/hr0.0 mm/hr 0.00 in0.0 mm
01:28 AM 45.0°F7.2°C 44.7°F7.1°C 99% Calm Calm 0.7 mph1.1 kmh 29.35 in993.9 mb 0.00 in0.0 mm 0.00 in/hr0.0 mm/hr 0.00 in0.0 mm
01:27 AM 45.0°F7.2°C 44.7°F7.1°C 99% Calm Calm -- 29.35 in993.9 mb 0.00 in0.0 mm 0.00 in/hr0.0 mm/hr 0.00 in0.0 mm
01:26 AM 45.0°F7.2°C 44.7°F7.1°C 99% Calm Calm 0.7 mph1.1 kmh 29.35 in993.9 mb 0.00 in0.0 mm 0.00 in/hr0.0 mm/hr 0.00 in0.0 mm
01:25 AM 44.8°F7.1°C 44.5°F6.9°C 99% 0.1 mph SW0.2 kmh SW 0.7 mph1.1 kmh 29.35 in993.9 mb 0.00 in0.0 mm 0.00 in/hr0.0 mm/hr 0.00 in0.0 mm
01:24 AM 44.8°F7.1°C 44.5°F6.9°C 99% 0.1 mph SW0.2 kmh SW 0.7 mph1.1 kmh 29.35 in993.9 mb 0.00 in0.0 mm 0.00 in/hr0.0 mm/hr 0.00 in0.0 mm
01:23 AM 44.8°F7.1°C 44.5°F6.9°C 99% 0.2 mph SW0.3 kmh SW 1.6 mph2.6 kmh 29.35 in993.9 mb 0.00 in0.0 mm 0.00 in/hr0.0 mm/hr 0.00 in0.0 mm
01:22 AM 44.8°F7.1°C 44.5°F6.9°C 99% 0.4 mph SW0.6 kmh SW 1.6 mph2.6 kmh 29.35 in993.9 mb 0.00 in0.0 mm 0.00 in/hr0.0 mm/hr 0.00 in0.0 mm
01:21 AM 44.8°F7.1°C 44.5°F6.9°C 99% 0.4 mph SW0.6 kmh SW 1.6 mph2.6 kmh 29.35 in993.9 mb 0.00 in0.0 mm 0.00 in/hr0.0 mm/hr 0.00 in0.0 mm
01:20 AM 44.8°F7.1°C 44.5°F6.9°C 99% 0.4 mph SW0.6 kmh SW 1.6 mph2.6 kmh 29.35 in993.9 mb 0.00 in0.0 mm 0.00 in/hr0.0 mm/hr 0.00 in0.0 mm
01:19 AM 44.8°F7.1°C 44.5°F6.9°C 99% 0.4 mph SW0.6 kmh SW 1.6 mph2.6 kmh 29.36 in994.2 mb 0.00 in0.0 mm 0.00 in/hr0.0 mm/hr 0.00 in0.0 mm
01:18 AM 44.6°F7.0°C 44.3°F6.8°C 99% 0.4 mph SW0.6 kmh SW 1.6 mph2.6 kmh 29.36 in994.2 mb 0.00 in0.0 mm 0.00 in/hr0.0 mm/hr 0.00 in0.0 mm
01:17 AM 44.6°F7.0°C 44.3°F6.8°C 99% 0.4 mph SW0.6 kmh SW 1.6 mph2.6 kmh 29.36 in994.2 mb 0.00 in0.0 mm 0.00 in/hr0.0 mm/hr 0.00 in0.0 mm
01:16 AM 44.6°F7.0°C 44.3°F6.8°C 99% 0.5 mph SW0.8 kmh SW 2.2 mph3.5 kmh 29.36 in994.2 mb 0.00 in0.0 mm 0.00 in/hr0.0 mm/hr 0.00 in0.0 mm
01:15 AM 44.6°F7.0°C 44.3°F6.8°C 99% 0.6 mph SW1.0 kmh SW 2.2 mph3.5 kmh 29.36 in994.2 mb 0.00 in0.0 mm 0.00 in/hr0.0 mm/hr 0.00 in0.0 mm
01:14 AM 44.6°F7.0°C 44.3°F6.8°C 99% 0.6 mph SW1.0 kmh SW 2.2 mph3.5 kmh 29.36 in994.2 mb 0.00 in0.0 mm 0.00 in/hr0.0 mm/hr 0.00 in0.0 mm
01:13 AM 44.6°F7.0°C 44.3°F6.8°C 99% 0.5 mph SW0.8 kmh SW 2.2 mph3.5 kmh 29.36 in994.2 mb 0.00 in0.0 mm 0.00 in/hr0.0 mm/hr 0.00 in0.0 mm
01:12 AM 44.6°F7.0°C 44.3°F6.8°C 99% 0.3 mph SW0.5 kmh SW 2.2 mph3.5 kmh 29.36 in994.2 mb 0.00 in0.0 mm 0.00 in/hr0.0 mm/hr 0.00 in0.0 mm
01:11 AM 44.6°F7.0°C 44.3°F6.8°C 99% 0.3 mph SW0.5 kmh SW 2.2 mph3.5 kmh 29.36 in994.2 mb 0.00 in0.0 mm 0.00 in/hr0.0 mm/hr 0.00 in0.0 mm
01:10 AM 44.6°F7.0°C 44.3°F6.8°C 99% 0.3 mph SW0.5 kmh SW 2.2 mph3.5 kmh 29.36 in994.2 mb 0.00 in0.0 mm 0.00 in/hr0.0 mm/hr 0.00 in0.0 mm
01:09 AM 44.6°F7.0°C 44.3°F6.8°C 99% 0.3 mph SW0.5 kmh SW 2.2 mph3.5 kmh 29.36 in994.2 mb 0.00 in0.0 mm 0.00 in/hr0.0 mm/hr 0.00 in0.0 mm
01:08 AM 44.6°F7.0°C 44.3°F6.8°C 99% 0.3 mph SW0.5 kmh SW 2.2 mph3.5 kmh 29.36 in994.2 mb 0.00 in0.0 mm 0.00 in/hr0.0 mm/hr 0.00 in0.0 mm
01:07 AM 44.6°F7.0°C 44.3°F6.8°C 99% 0.2 mph SW0.3 kmh SW 2.2 mph3.5 kmh 29.36 in994.2 mb 0.00 in0.0 mm 0.00 in/hr0.0 mm/hr 0.00 in0.0 mm
01:06 AM 44.6°F7.0°C 44.3°F6.8°C 99% 0.1 mph SW0.2 kmh SW 2.2 mph3.5 kmh 29.36 in994.2 mb 0.00 in0.0 mm 0.00 in/hr0.0 mm/hr 0.00 in0.0 mm
01:05 AM 44.6°F7.0°C 44.3°F6.8°C 99% Calm Calm -- 29.36 in994.2 mb 0.00 in0.0 mm 0.00 in/hr0.0 mm/hr 0.00 in0.0 mm
01:04 AM 44.6°F7.0°C 44.3°F6.8°C 99% Calm Calm -- 29.36 in994.2 mb 0.00 in0.0 mm 0.00 in/hr0.0 mm/hr 0.00 in0.0 mm
01:03 AM 44.6°F7.0°C 44.3°F6.8°C 99% 0.1 mph SW0.2 kmh SW 0.7 mph1.1 kmh 29.36 in994.2 mb 0.00 in0.0 mm 0.00 in/hr0.0 mm/hr 0.00 in0.0 mm
01:02 AM 44.6°F7.0°C 44.3°F6.8°C 99% 0.1 mph SW0.2 kmh SW 0.7 mph1.1 kmh 29.36 in994.2 mb 0.00 in0.0 mm 0.00 in/hr0.0 mm/hr 0.00 in0.0 mm
01:01 AM 44.6°F7.0°C 44.3°F6.8°C 99% 0.1 mph SW0.2 kmh SW 0.7 mph1.1 kmh 29.36 in994.2 mb 0.00 in0.0 mm 0.00 in/hr0.0 mm/hr 0.00 in0.0 mm
01:00 AM 44.6°F7.0°C 44.3°F6.8°C 99% 0.1 mph SW0.2 kmh SW 0.7 mph1.1 kmh 29.36 in994.2 mb 0.00 in0.0 mm 0.00 in/hr0.0 mm/hr 0.00 in0.0 mm
12:59 AM 44.6°F7.0°C 44.3°F6.8°C 99% 0.1 mph SW0.2 kmh SW 0.7 mph1.1 kmh 29.36 in994.2 mb 0.00 in0.0 mm 0.00 in/hr0.0 mm/hr 0.00 in0.0 mm
12:58 AM 44.8°F7.1°C 44.5°F6.9°C 99% 0.1 mph SW0.2 kmh SW 0.7 mph1.1 kmh 29.36 in994.2 mb 0.00 in0.0 mm 0.00 in/hr0.0 mm/hr 0.00 in0.0 mm
12:57 AM 44.8°F7.1°C 44.5°F6.9°C 99% 0.2 mph SW0.3 kmh SW 0.7 mph1.1 kmh 29.36 in994.2 mb 0.00 in0.0 mm 0.00 in/hr0.0 mm/hr 0.00 in0.0 mm
12:56 AM 44.8°F7.1°C 44.5°F6.9°C 99% 0.3 mph SW0.5 kmh SW 0.7 mph1.1 kmh 29.36 in994.2 mb 0.00 in0.0 mm 0.00 in/hr0.0 mm/hr 0.00 in0.0 mm
12:55 AM 44.8°F7.1°C 44.5°F6.9°C 99% 0.3 mph WSW0.5 kmh WSW 0.7 mph1.1 kmh 29.36 in994.2 mb 0.00 in0.0 mm 0.00 in/hr0.0 mm/hr 0.00 in0.0 mm
12:54 AM 44.8°F7.1°C 44.5°F6.9°C 99% 0.4 mph WSW0.6 kmh WSW 0.7 mph1.1 kmh 29.36 in994.2 mb 0.00 in0.0 mm 0.00 in/hr0.0 mm/hr 0.00 in0.0 mm
12:53 AM 44.8°F7.1°C 44.5°F6.9°C 99% 0.3 mph WSW0.5 kmh WSW 0.7 mph1.1 kmh 29.36 in994.2 mb 0.00 in0.0 mm 0.00 in/hr0.0 mm/hr 0.00 in0.0 mm
12:52 AM 44.8°F7.1°C 44.5°F6.9°C 99% 0.4 mph WSW0.6 kmh WSW 0.7 mph1.1 kmh 29.36 in994.2 mb 0.00 in0.0 mm 0.00 in/hr0.0 mm/hr 0.00 in0.0 mm
12:51 AM 44.8°F7.1°C 44.5°F6.9°C 99% 0.4 mph WSW0.6 kmh WSW 0.7 mph1.1 kmh 29.36 in994.2 mb 0.00 in0.0 mm 0.00 in/hr0.0 mm/hr 0.00 in0.0 mm
12:50 AM 44.8°F7.1°C 44.5°F6.9°C 99% 0.5 mph WSW0.8 kmh WSW 0.7 mph1.1 kmh 29.36 in994.2 mb 0.00 in0.0 mm 0.00 in/hr0.0 mm/hr 0.00 in0.0 mm
12:49 AM 44.8°F7.1°C 44.5°F6.9°C 99% 0.5 mph WSW0.8 kmh WSW 0.7 mph1.1 kmh 29.36 in994.2 mb 0.00 in0.0 mm 0.00 in/hr0.0 mm/hr 0.00 in0.0 mm
12:48 AM 44.8°F7.1°C 44.5°F6.9°C 99% 0.4 mph W0.6 kmh W 0.7 mph1.1 kmh 29.36 in994.2 mb 0.00 in0.0 mm 0.00 in/hr0.0 mm/hr 0.00 in0.0 mm
12:47 AM 44.8°F7.1°C 44.5°F6.9°C 99% 0.3 mph W0.5 kmh W 0.7 mph1.1 kmh 29.37 in994.6 mb 0.00 in0.0 mm 0.00 in/hr0.0 mm/hr 0.00 in0.0 mm
12:46 AM 44.8°F7.1°C 44.5°F6.9°C 99% 0.3 mph W0.5 kmh W 0.7 mph1.1 kmh 29.37 in994.6 mb 0.00 in0.0 mm 0.00 in/hr0.0 mm/hr 0.00 in0.0 mm
12:45 AM 44.6°F7.0°C 44.3°F6.8°C 99% 0.2 mph W0.3 kmh W 0.7 mph1.1 kmh 29.37 in994.6 mb 0.00 in0.0 mm 0.00 in/hr0.0 mm/hr 0.00 in0.0 mm
12:44 AM 44.6°F7.0°C 44.3°F6.8°C 99% 0.2 mph W0.3 kmh W 0.7 mph1.1 kmh 29.37 in994.6 mb 0.00 in0.0 mm 0.00 in/hr0.0 mm/hr 0.00 in0.0 mm
12:43 AM 44.6°F7.0°C 44.3°F6.8°C 99% 0.1 mph W0.2 kmh W 0.7 mph1.1 kmh 29.36 in994.2 mb 0.00 in0.0 mm 0.00 in/hr0.0 mm/hr 0.00 in0.0 mm
12:42 AM 44.6°F7.0°C 44.3°F6.8°C 99% 0.1 mph W0.2 kmh W 0.7 mph1.1 kmh 29.36 in994.2 mb 0.00 in0.0 mm 0.00 in/hr0.0 mm/hr 0.00 in0.0 mm
12:41 AM 44.6°F7.0°C 44.3°F6.8°C 99% 0.1 mph W0.2 kmh W 0.7 mph1.1 kmh 29.36 in994.2 mb 0.00 in0.0 mm 0.00 in/hr0.0 mm/hr 0.00 in0.0 mm
12:40 AM 44.6°F7.0°C 44.3°F6.8°C 99% Calm Calm -- 29.36 in994.2 mb 0.00 in0.0 mm 0.00 in/hr0.0 mm/hr 0.00 in0.0 mm
12:39 AM 44.6°F7.0°C 44.3°F6.8°C 99% Calm Calm -- 29.36 in994.2 mb 0.00 in0.0 mm 0.00 in/hr0.0 mm/hr 0.00 in0.0 mm
12:38 AM 44.6°F7.0°C 44.3°F6.8°C 99% Calm Calm -- 29.36 in994.2 mb 0.00 in0.0 mm 0.00 in/hr0.0 mm/hr 0.00 in0.0 mm
12:37 AM 44.6°F7.0°C 44.3°F6.8°C 99% Calm Calm -- 29.36 in994.2 mb 0.00 in0.0 mm 0.00 in/hr0.0 mm/hr 0.00 in0.0 mm
12:36 AM 44.6°F7.0°C 44.3°F6.8°C 99% Calm Calm -- 29.37 in994.6 mb 0.00 in0.0 mm 0.00 in/hr0.0 mm/hr 0.00 in0.0 mm
12:35 AM 44.6°F7.0°C 44.3°F6.8°C 99% Calm Calm -- 29.36 in994.2 mb 0.00 in0.0 mm 0.00 in/hr0.0 mm/hr 0.00 in0.0 mm
12:34 AM 44.6°F7.0°C 44.3°F6.8°C 99% Calm Calm -- 29.36 in994.2 mb 0.00 in0.0 mm 0.00 in/hr0.0 mm/hr 0.00 in0.0 mm
12:33 AM 44.6°F7.0°C 44.3°F6.8°C 99% Calm Calm -- 29.36 in994.2 mb 0.00 in0.0 mm 0.00 in/hr0.0 mm/hr 0.00 in0.0 mm
12:32 AM 44.6°F7.0°C 44.3°F6.8°C 99% Calm Calm -- 29.36 in994.2 mb 0.00 in0.0 mm 0.00 in/hr0.0 mm/hr 0.00 in0.0 mm
12:31 AM 44.6°F7.0°C 44.3°F6.8°C 99% Calm Calm -- 29.36 in994.2 mb 0.00 in0.0 mm 0.00 in/hr0.0 mm/hr 0.00 in0.0 mm
12:30 AM 44.6°F7.0°C 44.3°F6.8°C 99% Calm Calm -- 29.36 in994.2 mb 0.00 in0.0 mm 0.00 in/hr0.0 mm/hr 0.00 in0.0 mm
12:29 AM 44.8°F7.1°C 44.5°F6.9°C 99% Calm Calm -- 29.36 in994.2 mb 0.00 in0.0 mm 0.00 in/hr0.0 mm/hr 0.00 in0.0 mm
12:28 AM 44.8°F7.1°C 44.5°F6.9°C 99% Calm Calm -- 29.36 in994.2 mb 0.00 in0.0 mm 0.00 in/hr0.0 mm/hr 0.00 in0.0 mm
12:27 AM 44.8°F7.1°C 44.5°F6.9°C 99% Calm Calm -- 29.36 in994.2 mb 0.00 in0.0 mm 0.00 in/hr0.0 mm/hr 0.00 in0.0 mm
12:26 AM 44.8°F7.1°C 44.5°F6.9°C 99% Calm Calm -- 29.36 in994.2 mb 0.00 in0.0 mm 0.00 in/hr0.0 mm/hr 0.00 in0.0 mm
12:25 AM 44.8°F7.1°C 44.5°F6.9°C 99% Calm Calm -- 29.36 in994.2 mb 0.00 in0.0 mm 0.00 in/hr0.0 mm/hr 0.00 in0.0 mm
12:24 AM 44.8°F7.1°C 44.5°F6.9°C 99% Calm Calm -- 29.36 in994.2 mb 0.00 in0.0 mm 0.00 in/hr0.0 mm/hr 0.00 in0.0 mm
12:23 AM 44.8°F7.1°C 44.5°F6.9°C 99% Calm Calm -- 29.36 in994.2 mb 0.00 in0.0 mm 0.00 in/hr0.0 mm/hr 0.00 in0.0 mm
12:22 AM 44.8°F7.1°C 44.5°F6.9°C 99% Calm Calm -- 29.36 in994.2 mb 0.00 in0.0 mm 0.00 in/hr0.0 mm/hr 0.00 in0.0 mm
12:21 AM 44.8°F7.1°C 44.5°F6.9°C 99% Calm Calm -- 29.36 in994.2 mb 0.00 in0.0 mm 0.00 in/hr0.0 mm/hr 0.00 in0.0 mm
12:20 AM 44.8°F7.1°C 44.5°F6.9°C 99% Calm Calm -- 29.36 in994.2 mb 0.00 in0.0 mm 0.00 in/hr0.0 mm/hr 0.00 in0.0 mm
12:19 AM 44.8°F7.1°C 44.5°F6.9°C 99% Calm Calm -- 29.36 in994.2 mb 0.00 in0.0 mm 0.00 in/hr0.0 mm/hr 0.00 in0.0 mm
12:18 AM 44.8°F7.1°C 44.5°F6.9°C 99% Calm Calm -- 29.36 in994.2 mb 0.00 in0.0 mm 0.00 in/hr0.0 mm/hr 0.00 in0.0 mm
12:17 AM 44.8°F7.1°C 44.5°F6.9°C 99% Calm Calm -- 29.36 in994.2 mb 0.00 in0.0 mm 0.00 in/hr0.0 mm/hr 0.00 in0.0 mm
12:16 AM 44.8°F7.1°C 44.5°F6.9°C 99% Calm Calm -- 29.37 in994.6 mb 0.00 in0.0 mm 0.00 in/hr0.0 mm/hr 0.00 in0.0 mm
12:15 AM 44.8°F7.1°C 44.5°F6.9°C 99% Calm Calm -- 29.36 in994.2 mb 0.00 in0.0 mm 0.00 in/hr0.0 mm/hr 0.00 in0.0 mm
12:14 AM 44.8°F7.1°C 44.5°F6.9°C 99% Calm Calm -- 29.36 in994.2 mb 0.00 in0.0 mm 0.00 in/hr0.0 mm/hr 0.00 in0.0 mm
12:13 AM 44.8°F7.1°C 44.5°F6.9°C 99% Calm Calm -- 29.36 in994.2 mb 0.00 in0.0 mm 0.00 in/hr0.0 mm/hr 0.00 in0.0 mm
12:12 AM 44.8°F7.1°C 44.5°F6.9°C 99% Calm Calm -- 29.36 in994.2 mb 0.00 in0.0 mm 0.00 in/hr0.0 mm/hr 0.00 in0.0 mm
12:11 AM 44.8°F7.1°C 44.5°F6.9°C 99% Calm Calm -- 29.36 in994.2 mb 0.00 in0.0 mm 0.00 in/hr0.0 mm/hr 0.00 in0.0 mm
12:10 AM 44.6°F7.0°C 44.3°F6.8°C 99% Calm Calm -- 29.36 in994.2 mb 0.00 in0.0 mm 0.00 in/hr0.0 mm/hr 0.00 in0.0 mm
12:09 AM 44.6°F7.0°C 44.3°F6.8°C 99% Calm Calm 0.7 mph1.1 kmh 29.36 in994.2 mb 0.00 in0.0 mm 0.00 in/hr0.0 mm/hr 0.00 in0.0 mm
12:08 AM 44.6°F7.0°C 44.3°F6.8°C 99% Calm Calm 0.7 mph1.1 kmh 29.37 in994.6 mb 0.00 in0.0 mm 0.00 in/hr0.0 mm/hr 0.00 in0.0 mm
12:07 AM 44.6°F7.0°C 44.3°F6.8°C 99% 0.1 mph W0.2 kmh W 0.7 mph1.1 kmh 29.36 in994.2 mb 0.00 in0.0 mm 0.00 in/hr0.0 mm/hr 0.00 in0.0 mm
12:06 AM 44.6°F7.0°C 44.3°F6.8°C 99% 0.2 mph W0.3 kmh W 1.6 mph2.6 kmh 29.37 in994.6 mb 0.00 in0.0 mm 0.00 in/hr0.0 mm/hr 0.00 in0.0 mm
12:05 AM 44.6°F7.0°C 44.3°F6.8°C 99% 0.2 mph W0.3 kmh W 1.6 mph2.6 kmh 29.36 in994.2 mb 0.00 in0.0 mm 0.00 in/hr0.0 mm/hr 0.00 in0.0 mm
12:04 AM 44.6°F7.0°C 44.3°F6.8°C 99% 0.2 mph W0.3 kmh W 1.6 mph2.6 kmh 29.37 in994.6 mb 0.00 in0.0 mm 0.00 in/hr0.0 mm/hr 0.00 in0.0 mm
12:03 AM 44.6°F7.0°C 44.3°F6.8°C 99% 0.3 mph W0.5 kmh W 1.6 mph2.6 kmh 29.37 in994.6 mb 0.00 in0.0 mm 0.00 in/hr0.0 mm/hr 0.00 in0.0 mm
12:02 AM 44.6°F7.0°C 44.3°F6.8°C 99% 0.3 mph W0.5 kmh W 1.6 mph2.6 kmh 29.37 in994.6 mb 0.00 in0.0 mm 0.00 in/hr0.0 mm/hr 0.00 in0.0 mm
12:01 AM 44.6°F7.0°C 44.3°F6.8°C 99% 0.3 mph W0.5 kmh W 1.6 mph2.6 kmh 29.36 in994.2 mb 0.00 in0.0 mm 0.00 in/hr0.0 mm/hr 0.00 in0.0 mm
12:00 AM 44.6°F7.0°C 44.3°F6.8°C 99% 0.3 mph W0.5 kmh W 1.6 mph2.6 kmh 29.37 in994.6 mb 0.00 in0.0 mm 0.00 in/hr0.0 mm/hr 0.00 in0.0 mm